<?xml version="1.0" encoding="UTF-8" standalone="no" ?>
<gpx xmlns="http://www.topografix.com/GPX/1/1" xmlns:xsi="http://www.w3.org/2001/XMLSchema-instance" xsi:schemaLocation="http://www.topografix.com/GPX/1/1 http://www.topografix.com/GPX/1/1/gpx.xsd" version="1.1" creator="VisuGPX - https://www.visugpx.com">
  <metadata>
    <name>83-Me-Les Arcs</name>
    <desc><![CDATA[83-Me-Les Arcs : Circuit Cabre d'Or 
2022-01-05]]></desc>
  </metadata>
  <trk>
    <name><![CDATA[2022-01-05-Me-les arcs]]></name>
    <extensions>
      <line xmlns="http://www.topografix.com/GPX/gpx_style/0/2">
        <width>4</width>
      </line>
    </extensions>
    <trkseg>
      <trkpt lat="43.43432" lon="6.51072">
        <ele>60.4</ele>
        <time>2022-01-05T13:03:46.000Z</time>
      </trkpt>
      <trkpt lat="43.43432" lon="6.51072">
        <ele>60.4</ele>
        <time>2022-01-05T13:03:47.000Z</time>
      </trkpt>
      <trkpt lat="43.43428" lon="6.51068">
        <ele>59.7</ele>
        <time>2022-01-05T13:05:03.000Z</time>
      </trkpt>
      <trkpt lat="43.43427" lon="6.51061">
        <ele>59.4</ele>
        <time>2022-01-05T13:05:08.000Z</time>
      </trkpt>
      <trkpt lat="43.43425" lon="6.51055">
        <ele>59.2</ele>
        <time>2022-01-05T13:05:14.000Z</time>
      </trkpt>
      <trkpt lat="43.4342" lon="6.51053">
        <ele>59</ele>
        <time>2022-01-05T13:05:20.000Z</time>
      </trkpt>
      <trkpt lat="43.43415" lon="6.51051">
        <ele>58.8</ele>
        <time>2022-01-05T13:05:26.000Z</time>
      </trkpt>
      <trkpt lat="43.4341" lon="6.51049">
        <ele>58.9</ele>
        <time>2022-01-05T13:05:31.000Z</time>
      </trkpt>
      <trkpt lat="43.43406" lon="6.51045">
        <ele>59.1</ele>
        <time>2022-01-05T13:05:37.000Z</time>
      </trkpt>
      <trkpt lat="43.43402" lon="6.51041">
        <ele>59.3</ele>
        <time>2022-01-05T13:05:42.000Z</time>
      </trkpt>
      <trkpt lat="43.43397" lon="6.51038">
        <ele>59.3</ele>
        <time>2022-01-05T13:05:46.000Z</time>
      </trkpt>
      <trkpt lat="43.43393" lon="6.51037">
        <ele>59.3</ele>
        <time>2022-01-05T13:05:50.000Z</time>
      </trkpt>
      <trkpt lat="43.43387" lon="6.51036">
        <ele>59.4</ele>
        <time>2022-01-05T13:05:54.000Z</time>
      </trkpt>
      <trkpt lat="43.43382" lon="6.51036">
        <ele>59.5</ele>
        <time>2022-01-05T13:05:59.000Z</time>
      </trkpt>
      <trkpt lat="43.43378" lon="6.51035">
        <ele>59.5</ele>
        <time>2022-01-05T13:06:04.000Z</time>
      </trkpt>
      <trkpt lat="43.43373" lon="6.51035">
        <ele>59.5</ele>
        <time>2022-01-05T13:06:09.000Z</time>
      </trkpt>
      <trkpt lat="43.43368" lon="6.51034">
        <ele>59.5</ele>
        <time>2022-01-05T13:06:13.000Z</time>
      </trkpt>
      <trkpt lat="43.43364" lon="6.51033">
        <ele>59.5</ele>
        <time>2022-01-05T13:06:18.000Z</time>
      </trkpt>
      <trkpt lat="43.43359" lon="6.51031">
        <ele>59.4</ele>
        <time>2022-01-05T13:06:22.000Z</time>
      </trkpt>
      <trkpt lat="43.43354" lon="6.5103">
        <ele>59.2</ele>
        <time>2022-01-05T13:06:26.000Z</time>
      </trkpt>
      <trkpt lat="43.43349" lon="6.51028">
        <ele>59.1</ele>
        <time>2022-01-05T13:06:30.000Z</time>
      </trkpt>
      <trkpt lat="43.43344" lon="6.51026">
        <ele>58.9</ele>
        <time>2022-01-05T13:06:35.000Z</time>
      </trkpt>
      <trkpt lat="43.43339" lon="6.51025">
        <ele>58.6</ele>
        <time>2022-01-05T13:06:40.000Z</time>
      </trkpt>
      <trkpt lat="43.43333" lon="6.51027">
        <ele>58.4</ele>
        <time>2022-01-05T13:06:44.000Z</time>
      </trkpt>
      <trkpt lat="43.43328" lon="6.51029">
        <ele>58.2</ele>
        <time>2022-01-05T13:06:48.000Z</time>
      </trkpt>
      <trkpt lat="43.43324" lon="6.51031">
        <ele>58.1</ele>
        <time>2022-01-05T13:06:52.000Z</time>
      </trkpt>
      <trkpt lat="43.43319" lon="6.51034">
        <ele>57.9</ele>
        <time>2022-01-05T13:06:56.000Z</time>
      </trkpt>
      <trkpt lat="43.43315" lon="6.51038">
        <ele>57.8</ele>
        <time>2022-01-05T13:07:00.000Z</time>
      </trkpt>
      <trkpt lat="43.43311" lon="6.51041">
        <ele>57.7</ele>
        <time>2022-01-05T13:07:04.000Z</time>
      </trkpt>
      <trkpt lat="43.43307" lon="6.51045">
        <ele>57.6</ele>
        <time>2022-01-05T13:07:08.000Z</time>
      </trkpt>
      <trkpt lat="43.43303" lon="6.51048">
        <ele>57.4</ele>
        <time>2022-01-05T13:07:13.000Z</time>
      </trkpt>
      <trkpt lat="43.43298" lon="6.51051">
        <ele>57.3</ele>
        <time>2022-01-05T13:07:18.000Z</time>
      </trkpt>
      <trkpt lat="43.43293" lon="6.51052">
        <ele>57.2</ele>
        <time>2022-01-05T13:07:22.000Z</time>
      </trkpt>
      <trkpt lat="43.43288" lon="6.51054">
        <ele>57.2</ele>
        <time>2022-01-05T13:07:25.000Z</time>
      </trkpt>
      <trkpt lat="43.43283" lon="6.51055">
        <ele>57.1</ele>
        <time>2022-01-05T13:07:28.000Z</time>
      </trkpt>
      <trkpt lat="43.43278" lon="6.51055">
        <ele>57.1</ele>
        <time>2022-01-05T13:07:31.000Z</time>
      </trkpt>
      <trkpt lat="43.43272" lon="6.51056">
        <ele>57.1</ele>
        <time>2022-01-05T13:07:35.000Z</time>
      </trkpt>
      <trkpt lat="43.43266" lon="6.51056">
        <ele>57.2</ele>
        <time>2022-01-05T13:07:39.000Z</time>
      </trkpt>
      <trkpt lat="43.43262" lon="6.51055">
        <ele>57.3</ele>
        <time>2022-01-05T13:07:42.000Z</time>
      </trkpt>
      <trkpt lat="43.43257" lon="6.51054">
        <ele>57.3</ele>
        <time>2022-01-05T13:07:45.000Z</time>
      </trkpt>
      <trkpt lat="43.43252" lon="6.51052">
        <ele>57.2</ele>
        <time>2022-01-05T13:07:49.000Z</time>
      </trkpt>
      <trkpt lat="43.43247" lon="6.51051">
        <ele>56.9</ele>
        <time>2022-01-05T13:07:53.000Z</time>
      </trkpt>
      <trkpt lat="43.43242" lon="6.5105">
        <ele>56.7</ele>
        <time>2022-01-05T13:07:58.000Z</time>
      </trkpt>
      <trkpt lat="43.43237" lon="6.51048">
        <ele>56.6</ele>
        <time>2022-01-05T13:08:02.000Z</time>
      </trkpt>
      <trkpt lat="43.43232" lon="6.51047">
        <ele>56.5</ele>
        <time>2022-01-05T13:08:06.000Z</time>
      </trkpt>
      <trkpt lat="43.43227" lon="6.51046">
        <ele>56.5</ele>
        <time>2022-01-05T13:08:11.000Z</time>
      </trkpt>
      <trkpt lat="43.43222" lon="6.51045">
        <ele>56.5</ele>
        <time>2022-01-05T13:08:15.000Z</time>
      </trkpt>
      <trkpt lat="43.43216" lon="6.51044">
        <ele>56.9</ele>
        <time>2022-01-05T13:08:20.000Z</time>
      </trkpt>
      <trkpt lat="43.43211" lon="6.51043">
        <ele>57.2</ele>
        <time>2022-01-05T13:08:25.000Z</time>
      </trkpt>
      <trkpt lat="43.43206" lon="6.51042">
        <ele>57.8</ele>
        <time>2022-01-05T13:08:29.000Z</time>
      </trkpt>
      <trkpt lat="43.43201" lon="6.51041">
        <ele>58.1</ele>
        <time>2022-01-05T13:08:33.000Z</time>
      </trkpt>
      <trkpt lat="43.43196" lon="6.5104">
        <ele>58.1</ele>
        <time>2022-01-05T13:08:37.000Z</time>
      </trkpt>
      <trkpt lat="43.43191" lon="6.5104">
        <ele>57.9</ele>
        <time>2022-01-05T13:08:41.000Z</time>
      </trkpt>
      <trkpt lat="43.43186" lon="6.51039">
        <ele>57.6</ele>
        <time>2022-01-05T13:08:45.000Z</time>
      </trkpt>
      <trkpt lat="43.43182" lon="6.51039">
        <ele>57.5</ele>
        <time>2022-01-05T13:08:50.000Z</time>
      </trkpt>
      <trkpt lat="43.43177" lon="6.5104">
        <ele>57.4</ele>
        <time>2022-01-05T13:08:56.000Z</time>
      </trkpt>
      <trkpt lat="43.43173" lon="6.51044">
        <ele>57.4</ele>
        <time>2022-01-05T13:09:00.000Z</time>
      </trkpt>
      <trkpt lat="43.43169" lon="6.51049">
        <ele>57.4</ele>
        <time>2022-01-05T13:09:04.000Z</time>
      </trkpt>
      <trkpt lat="43.43167" lon="6.51055">
        <ele>57.6</ele>
        <time>2022-01-05T13:09:09.000Z</time>
      </trkpt>
      <trkpt lat="43.43166" lon="6.51062">
        <ele>57.9</ele>
        <time>2022-01-05T13:09:14.000Z</time>
      </trkpt>
      <trkpt lat="43.43165" lon="6.51069">
        <ele>58.3</ele>
        <time>2022-01-05T13:09:19.000Z</time>
      </trkpt>
      <trkpt lat="43.43161" lon="6.51074">
        <ele>58.5</ele>
        <time>2022-01-05T13:09:23.000Z</time>
      </trkpt>
      <trkpt lat="43.43157" lon="6.5108">
        <ele>58.9</ele>
        <time>2022-01-05T13:09:28.000Z</time>
      </trkpt>
      <trkpt lat="43.43154" lon="6.51084">
        <ele>59.4</ele>
        <time>2022-01-05T13:09:32.000Z</time>
      </trkpt>
      <trkpt lat="43.43151" lon="6.51089">
        <ele>60.1</ele>
        <time>2022-01-05T13:09:37.000Z</time>
      </trkpt>
      <trkpt lat="43.43147" lon="6.51094">
        <ele>61.1</ele>
        <time>2022-01-05T13:09:42.000Z</time>
      </trkpt>
      <trkpt lat="43.43142" lon="6.51099">
        <ele>61.9</ele>
        <time>2022-01-05T13:09:47.000Z</time>
      </trkpt>
      <trkpt lat="43.43139" lon="6.51105">
        <ele>62.4</ele>
        <time>2022-01-05T13:09:52.000Z</time>
      </trkpt>
      <trkpt lat="43.43137" lon="6.51111">
        <ele>62.9</ele>
        <time>2022-01-05T13:09:57.000Z</time>
      </trkpt>
      <trkpt lat="43.43133" lon="6.51116">
        <ele>63.8</ele>
        <time>2022-01-05T13:10:03.000Z</time>
      </trkpt>
      <trkpt lat="43.43129" lon="6.51121">
        <ele>64.2</ele>
        <time>2022-01-05T13:10:09.000Z</time>
      </trkpt>
      <trkpt lat="43.43124" lon="6.51124">
        <ele>64.7</ele>
        <time>2022-01-05T13:10:14.000Z</time>
      </trkpt>
      <trkpt lat="43.4312" lon="6.51125">
        <ele>65</ele>
        <time>2022-01-05T13:10:17.000Z</time>
      </trkpt>
      <trkpt lat="43.43115" lon="6.51128">
        <ele>65.5</ele>
        <time>2022-01-05T13:10:22.000Z</time>
      </trkpt>
      <trkpt lat="43.4311" lon="6.51131">
        <ele>65.9</ele>
        <time>2022-01-05T13:10:27.000Z</time>
      </trkpt>
      <trkpt lat="43.43106" lon="6.51134">
        <ele>65.8</ele>
        <time>2022-01-05T13:10:32.000Z</time>
      </trkpt>
      <trkpt lat="43.43101" lon="6.51135">
        <ele>65.8</ele>
        <time>2022-01-05T13:10:36.000Z</time>
      </trkpt>
      <trkpt lat="43.43095" lon="6.51136">
        <ele>65.8</ele>
        <time>2022-01-05T13:10:40.000Z</time>
      </trkpt>
      <trkpt lat="43.4309" lon="6.51137">
        <ele>66.1</ele>
        <time>2022-01-05T13:10:44.000Z</time>
      </trkpt>
      <trkpt lat="43.43084" lon="6.51139">
        <ele>66.6</ele>
        <time>2022-01-05T13:10:48.000Z</time>
      </trkpt>
      <trkpt lat="43.4308" lon="6.51139">
        <ele>67</ele>
        <time>2022-01-05T13:10:51.000Z</time>
      </trkpt>
      <trkpt lat="43.43075" lon="6.5114">
        <ele>67.1</ele>
        <time>2022-01-05T13:10:55.000Z</time>
      </trkpt>
      <trkpt lat="43.4307" lon="6.51141">
        <ele>67.1</ele>
        <time>2022-01-05T13:11:00.000Z</time>
      </trkpt>
      <trkpt lat="43.43066" lon="6.5114">
        <ele>66.9</ele>
        <time>2022-01-05T13:11:04.000Z</time>
      </trkpt>
      <trkpt lat="43.43061" lon="6.51138">
        <ele>66.7</ele>
        <time>2022-01-05T13:11:08.000Z</time>
      </trkpt>
      <trkpt lat="43.43056" lon="6.51137">
        <ele>66.4</ele>
        <time>2022-01-05T13:11:12.000Z</time>
      </trkpt>
      <trkpt lat="43.43051" lon="6.51136">
        <ele>66</ele>
        <time>2022-01-05T13:11:16.000Z</time>
      </trkpt>
      <trkpt lat="43.43046" lon="6.51134">
        <ele>65.8</ele>
        <time>2022-01-05T13:11:20.000Z</time>
      </trkpt>
      <trkpt lat="43.43041" lon="6.51131">
        <ele>65.9</ele>
        <time>2022-01-05T13:11:24.000Z</time>
      </trkpt>
      <trkpt lat="43.43036" lon="6.51126">
        <ele>65.7</ele>
        <time>2022-01-05T13:11:28.000Z</time>
      </trkpt>
      <trkpt lat="43.43032" lon="6.5112">
        <ele>65.5</ele>
        <time>2022-01-05T13:11:32.000Z</time>
      </trkpt>
      <trkpt lat="43.43029" lon="6.51114">
        <ele>65.4</ele>
        <time>2022-01-05T13:11:36.000Z</time>
      </trkpt>
      <trkpt lat="43.43025" lon="6.51109">
        <ele>65.4</ele>
        <time>2022-01-05T13:11:40.000Z</time>
      </trkpt>
      <trkpt lat="43.4302" lon="6.51111">
        <ele>65.4</ele>
        <time>2022-01-05T13:11:46.000Z</time>
      </trkpt>
      <trkpt lat="43.43016" lon="6.51115">
        <ele>65.7</ele>
        <time>2022-01-05T13:11:52.000Z</time>
      </trkpt>
      <trkpt lat="43.43015" lon="6.51122">
        <ele>65.6</ele>
        <time>2022-01-05T13:11:59.000Z</time>
      </trkpt>
      <trkpt lat="43.43012" lon="6.51128">
        <ele>65.5</ele>
        <time>2022-01-05T13:12:03.000Z</time>
      </trkpt>
      <trkpt lat="43.43009" lon="6.51134">
        <ele>65.4</ele>
        <time>2022-01-05T13:12:08.000Z</time>
      </trkpt>
      <trkpt lat="43.43009" lon="6.51141">
        <ele>65.3</ele>
        <time>2022-01-05T13:12:12.000Z</time>
      </trkpt>
      <trkpt lat="43.43008" lon="6.51149">
        <ele>65.2</ele>
        <time>2022-01-05T13:12:17.000Z</time>
      </trkpt>
      <trkpt lat="43.43006" lon="6.51154">
        <ele>65.2</ele>
        <time>2022-01-05T13:12:21.000Z</time>
      </trkpt>
      <trkpt lat="43.43004" lon="6.51161">
        <ele>65.1</ele>
        <time>2022-01-05T13:12:26.000Z</time>
      </trkpt>
      <trkpt lat="43.43003" lon="6.51168">
        <ele>65.5</ele>
        <time>2022-01-05T13:12:31.000Z</time>
      </trkpt>
      <trkpt lat="43.43002" lon="6.51174">
        <ele>65.7</ele>
        <time>2022-01-05T13:12:36.000Z</time>
      </trkpt>
      <trkpt lat="43.43" lon="6.51181">
        <ele>65.8</ele>
        <time>2022-01-05T13:12:40.000Z</time>
      </trkpt>
      <trkpt lat="43.42997" lon="6.51187">
        <ele>65.8</ele>
        <time>2022-01-05T13:12:44.000Z</time>
      </trkpt>
      <trkpt lat="43.42995" lon="6.51193">
        <ele>65.9</ele>
        <time>2022-01-05T13:12:48.000Z</time>
      </trkpt>
      <trkpt lat="43.42994" lon="6.512">
        <ele>66</ele>
        <time>2022-01-05T13:12:52.000Z</time>
      </trkpt>
      <trkpt lat="43.4299" lon="6.51204">
        <ele>66.1</ele>
        <time>2022-01-05T13:12:56.000Z</time>
      </trkpt>
      <trkpt lat="43.42985" lon="6.51209">
        <ele>66.2</ele>
        <time>2022-01-05T13:13:00.000Z</time>
      </trkpt>
      <trkpt lat="43.42981" lon="6.51215">
        <ele>66.4</ele>
        <time>2022-01-05T13:13:04.000Z</time>
      </trkpt>
      <trkpt lat="43.42979" lon="6.51222">
        <ele>66.5</ele>
        <time>2022-01-05T13:13:08.000Z</time>
      </trkpt>
      <trkpt lat="43.42977" lon="6.51229">
        <ele>66.6</ele>
        <time>2022-01-05T13:13:12.000Z</time>
      </trkpt>
      <trkpt lat="43.42976" lon="6.51236">
        <ele>66.7</ele>
        <time>2022-01-05T13:13:16.000Z</time>
      </trkpt>
      <trkpt lat="43.42974" lon="6.51242">
        <ele>66.7</ele>
        <time>2022-01-05T13:13:20.000Z</time>
      </trkpt>
      <trkpt lat="43.42974" lon="6.51248">
        <ele>66.8</ele>
        <time>2022-01-05T13:13:24.000Z</time>
      </trkpt>
      <trkpt lat="43.42973" lon="6.51255">
        <ele>66.7</ele>
        <time>2022-01-05T13:13:28.000Z</time>
      </trkpt>
      <trkpt lat="43.42973" lon="6.51262">
        <ele>66.6</ele>
        <time>2022-01-05T13:13:32.000Z</time>
      </trkpt>
      <trkpt lat="43.42972" lon="6.51269">
        <ele>66.6</ele>
        <time>2022-01-05T13:13:36.000Z</time>
      </trkpt>
      <trkpt lat="43.42971" lon="6.51275">
        <ele>66.7</ele>
        <time>2022-01-05T13:13:40.000Z</time>
      </trkpt>
      <trkpt lat="43.42968" lon="6.51281">
        <ele>66.8</ele>
        <time>2022-01-05T13:13:44.000Z</time>
      </trkpt>
      <trkpt lat="43.42964" lon="6.51287">
        <ele>66.9</ele>
        <time>2022-01-05T13:13:48.000Z</time>
      </trkpt>
      <trkpt lat="43.42962" lon="6.51292">
        <ele>66.9</ele>
        <time>2022-01-05T13:13:52.000Z</time>
      </trkpt>
      <trkpt lat="43.4296" lon="6.51298">
        <ele>66.8</ele>
        <time>2022-01-05T13:13:56.000Z</time>
      </trkpt>
      <trkpt lat="43.42957" lon="6.51304">
        <ele>66.7</ele>
        <time>2022-01-05T13:14:00.000Z</time>
      </trkpt>
      <trkpt lat="43.42955" lon="6.5131">
        <ele>66.6</ele>
        <time>2022-01-05T13:14:05.000Z</time>
      </trkpt>
      <trkpt lat="43.42951" lon="6.51316">
        <ele>66.5</ele>
        <time>2022-01-05T13:14:09.000Z</time>
      </trkpt>
      <trkpt lat="43.42949" lon="6.51324">
        <ele>66.5</ele>
        <time>2022-01-05T13:14:13.000Z</time>
      </trkpt>
      <trkpt lat="43.42947" lon="6.5133">
        <ele>66.3</ele>
        <time>2022-01-05T13:14:17.000Z</time>
      </trkpt>
      <trkpt lat="43.42945" lon="6.51337">
        <ele>66.2</ele>
        <time>2022-01-05T13:14:21.000Z</time>
      </trkpt>
      <trkpt lat="43.42943" lon="6.51344">
        <ele>66.4</ele>
        <time>2022-01-05T13:14:25.000Z</time>
      </trkpt>
      <trkpt lat="43.4294" lon="6.5135">
        <ele>66.1</ele>
        <time>2022-01-05T13:14:29.000Z</time>
      </trkpt>
      <trkpt lat="43.42938" lon="6.51357">
        <ele>66</ele>
        <time>2022-01-05T13:14:33.000Z</time>
      </trkpt>
      <trkpt lat="43.42935" lon="6.51362">
        <ele>66.1</ele>
        <time>2022-01-05T13:14:36.000Z</time>
      </trkpt>
      <trkpt lat="43.42933" lon="6.51369">
        <ele>66.2</ele>
        <time>2022-01-05T13:14:40.000Z</time>
      </trkpt>
      <trkpt lat="43.42931" lon="6.51375">
        <ele>66.2</ele>
        <time>2022-01-05T13:14:44.000Z</time>
      </trkpt>
      <trkpt lat="43.42929" lon="6.51382">
        <ele>66.3</ele>
        <time>2022-01-05T13:14:49.000Z</time>
      </trkpt>
      <trkpt lat="43.42926" lon="6.51387">
        <ele>66.2</ele>
        <time>2022-01-05T13:14:52.000Z</time>
      </trkpt>
      <trkpt lat="43.42923" lon="6.51393">
        <ele>66.1</ele>
        <time>2022-01-05T13:14:55.000Z</time>
      </trkpt>
      <trkpt lat="43.42922" lon="6.514">
        <ele>66</ele>
        <time>2022-01-05T13:14:59.000Z</time>
      </trkpt>
      <trkpt lat="43.42921" lon="6.51407">
        <ele>65.9</ele>
        <time>2022-01-05T13:15:03.000Z</time>
      </trkpt>
      <trkpt lat="43.42917" lon="6.51413">
        <ele>65.9</ele>
        <time>2022-01-05T13:15:08.000Z</time>
      </trkpt>
      <trkpt lat="43.42916" lon="6.51421">
        <ele>65.8</ele>
        <time>2022-01-05T13:15:14.000Z</time>
      </trkpt>
      <trkpt lat="43.42915" lon="6.51428">
        <ele>65.8</ele>
        <time>2022-01-05T13:15:19.000Z</time>
      </trkpt>
      <trkpt lat="43.42914" lon="6.51435">
        <ele>65.7</ele>
        <time>2022-01-05T13:15:23.000Z</time>
      </trkpt>
      <trkpt lat="43.42913" lon="6.51441">
        <ele>65.6</ele>
        <time>2022-01-05T13:15:27.000Z</time>
      </trkpt>
      <trkpt lat="43.42912" lon="6.51448">
        <ele>65.4</ele>
        <time>2022-01-05T13:15:31.000Z</time>
      </trkpt>
      <trkpt lat="43.42913" lon="6.51454">
        <ele>65.2</ele>
        <time>2022-01-05T13:15:35.000Z</time>
      </trkpt>
      <trkpt lat="43.42915" lon="6.51461">
        <ele>64.8</ele>
        <time>2022-01-05T13:15:39.000Z</time>
      </trkpt>
      <trkpt lat="43.42915" lon="6.51467">
        <ele>64.4</ele>
        <time>2022-01-05T13:15:42.000Z</time>
      </trkpt>
      <trkpt lat="43.42916" lon="6.51475">
        <ele>64.1</ele>
        <time>2022-01-05T13:15:46.000Z</time>
      </trkpt>
      <trkpt lat="43.42916" lon="6.51482">
        <ele>63.9</ele>
        <time>2022-01-05T13:15:50.000Z</time>
      </trkpt>
      <trkpt lat="43.42917" lon="6.51489">
        <ele>63.8</ele>
        <time>2022-01-05T13:15:53.000Z</time>
      </trkpt>
      <trkpt lat="43.42918" lon="6.51497">
        <ele>63.7</ele>
        <time>2022-01-05T13:15:57.000Z</time>
      </trkpt>
      <trkpt lat="43.42917" lon="6.51504">
        <ele>63.7</ele>
        <time>2022-01-05T13:16:02.000Z</time>
      </trkpt>
      <trkpt lat="43.42917" lon="6.51512">
        <ele>63.7</ele>
        <time>2022-01-05T13:16:06.000Z</time>
      </trkpt>
      <trkpt lat="43.42917" lon="6.51519">
        <ele>63.7</ele>
        <time>2022-01-05T13:16:09.000Z</time>
      </trkpt>
      <trkpt lat="43.42915" lon="6.51525">
        <ele>63.8</ele>
        <time>2022-01-05T13:16:12.000Z</time>
      </trkpt>
      <trkpt lat="43.42913" lon="6.51531">
        <ele>63.7</ele>
        <time>2022-01-05T13:16:16.000Z</time>
      </trkpt>
      <trkpt lat="43.42911" lon="6.51537">
        <ele>63.5</ele>
        <time>2022-01-05T13:16:20.000Z</time>
      </trkpt>
      <trkpt lat="43.42909" lon="6.51544">
        <ele>63.3</ele>
        <time>2022-01-05T13:16:24.000Z</time>
      </trkpt>
      <trkpt lat="43.42907" lon="6.51549">
        <ele>63.1</ele>
        <time>2022-01-05T13:16:28.000Z</time>
      </trkpt>
      <trkpt lat="43.42904" lon="6.51556">
        <ele>62.9</ele>
        <time>2022-01-05T13:16:33.000Z</time>
      </trkpt>
      <trkpt lat="43.42903" lon="6.51564">
        <ele>62.5</ele>
        <time>2022-01-05T13:16:38.000Z</time>
      </trkpt>
      <trkpt lat="43.42901" lon="6.51571">
        <ele>62.4</ele>
        <time>2022-01-05T13:16:42.000Z</time>
      </trkpt>
      <trkpt lat="43.42898" lon="6.51577">
        <ele>62.1</ele>
        <time>2022-01-05T13:16:46.000Z</time>
      </trkpt>
      <trkpt lat="43.42897" lon="6.51582">
        <ele>61.8</ele>
        <time>2022-01-05T13:16:50.000Z</time>
      </trkpt>
      <trkpt lat="43.42893" lon="6.51588">
        <ele>61.4</ele>
        <time>2022-01-05T13:16:55.000Z</time>
      </trkpt>
      <trkpt lat="43.4289" lon="6.51594">
        <ele>61.1</ele>
        <time>2022-01-05T13:16:59.000Z</time>
      </trkpt>
      <trkpt lat="43.42887" lon="6.516">
        <ele>60.8</ele>
        <time>2022-01-05T13:17:02.000Z</time>
      </trkpt>
      <trkpt lat="43.42884" lon="6.51605">
        <ele>60.7</ele>
        <time>2022-01-05T13:17:05.000Z</time>
      </trkpt>
      <trkpt lat="43.42881" lon="6.51609">
        <ele>60.5</ele>
        <time>2022-01-05T13:17:08.000Z</time>
      </trkpt>
      <trkpt lat="43.42877" lon="6.51614">
        <ele>60.2</ele>
        <time>2022-01-05T13:17:12.000Z</time>
      </trkpt>
      <trkpt lat="43.42873" lon="6.5162">
        <ele>59.9</ele>
        <time>2022-01-05T13:17:16.000Z</time>
      </trkpt>
      <trkpt lat="43.42869" lon="6.51623">
        <ele>59.8</ele>
        <time>2022-01-05T13:17:19.000Z</time>
      </trkpt>
      <trkpt lat="43.42865" lon="6.51626">
        <ele>59.7</ele>
        <time>2022-01-05T13:17:22.000Z</time>
      </trkpt>
      <trkpt lat="43.42862" lon="6.51631">
        <ele>59.6</ele>
        <time>2022-01-05T13:17:26.000Z</time>
      </trkpt>
      <trkpt lat="43.42861" lon="6.51639">
        <ele>59.2</ele>
        <time>2022-01-05T13:17:32.000Z</time>
      </trkpt>
      <trkpt lat="43.4286" lon="6.51647">
        <ele>58.2</ele>
        <time>2022-01-05T13:17:37.000Z</time>
      </trkpt>
      <trkpt lat="43.42859" lon="6.51654">
        <ele>57.4</ele>
        <time>2022-01-05T13:17:41.000Z</time>
      </trkpt>
      <trkpt lat="43.42859" lon="6.51661">
        <ele>56.9</ele>
        <time>2022-01-05T13:17:45.000Z</time>
      </trkpt>
      <trkpt lat="43.42858" lon="6.51668">
        <ele>56.6</ele>
        <time>2022-01-05T13:17:51.000Z</time>
      </trkpt>
      <trkpt lat="43.4286" lon="6.51674">
        <ele>56.5</ele>
        <time>2022-01-05T13:17:56.000Z</time>
      </trkpt>
      <trkpt lat="43.42862" lon="6.51681">
        <ele>56.5</ele>
        <time>2022-01-05T13:18:00.000Z</time>
      </trkpt>
      <trkpt lat="43.42865" lon="6.51687">
        <ele>56.5</ele>
        <time>2022-01-05T13:18:04.000Z</time>
      </trkpt>
      <trkpt lat="43.42868" lon="6.51692">
        <ele>56.4</ele>
        <time>2022-01-05T13:18:08.000Z</time>
      </trkpt>
      <trkpt lat="43.4287" lon="6.51697">
        <ele>56.4</ele>
        <time>2022-01-05T13:18:11.000Z</time>
      </trkpt>
      <trkpt lat="43.42874" lon="6.51703">
        <ele>56.3</ele>
        <time>2022-01-05T13:18:14.000Z</time>
      </trkpt>
      <trkpt lat="43.42876" lon="6.51708">
        <ele>56.2</ele>
        <time>2022-01-05T13:18:17.000Z</time>
      </trkpt>
      <trkpt lat="43.42877" lon="6.51715">
        <ele>56.1</ele>
        <time>2022-01-05T13:18:21.000Z</time>
      </trkpt>
      <trkpt lat="43.42878" lon="6.51721">
        <ele>56</ele>
        <time>2022-01-05T13:18:25.000Z</time>
      </trkpt>
      <trkpt lat="43.4288" lon="6.51727">
        <ele>56</ele>
        <time>2022-01-05T13:18:29.000Z</time>
      </trkpt>
      <trkpt lat="43.42882" lon="6.51733">
        <ele>55.9</ele>
        <time>2022-01-05T13:18:32.000Z</time>
      </trkpt>
      <trkpt lat="43.42883" lon="6.51741">
        <ele>55.9</ele>
        <time>2022-01-05T13:18:35.000Z</time>
      </trkpt>
      <trkpt lat="43.42885" lon="6.51748">
        <ele>55.9</ele>
        <time>2022-01-05T13:18:38.000Z</time>
      </trkpt>
      <trkpt lat="43.42887" lon="6.51755">
        <ele>56</ele>
        <time>2022-01-05T13:18:42.000Z</time>
      </trkpt>
      <trkpt lat="43.42888" lon="6.51762">
        <ele>55.9</ele>
        <time>2022-01-05T13:18:46.000Z</time>
      </trkpt>
      <trkpt lat="43.42891" lon="6.5177">
        <ele>55.7</ele>
        <time>2022-01-05T13:18:50.000Z</time>
      </trkpt>
      <trkpt lat="43.42892" lon="6.51777">
        <ele>55.7</ele>
        <time>2022-01-05T13:18:54.000Z</time>
      </trkpt>
      <trkpt lat="43.42894" lon="6.51782">
        <ele>55.7</ele>
        <time>2022-01-05T13:18:57.000Z</time>
      </trkpt>
      <trkpt lat="43.42897" lon="6.51789">
        <ele>55.7</ele>
        <time>2022-01-05T13:19:01.000Z</time>
      </trkpt>
      <trkpt lat="43.42899" lon="6.51794">
        <ele>55.6</ele>
        <time>2022-01-05T13:19:04.000Z</time>
      </trkpt>
      <trkpt lat="43.42899" lon="6.51801">
        <ele>55.6</ele>
        <time>2022-01-05T13:19:08.000Z</time>
      </trkpt>
      <trkpt lat="43.42901" lon="6.51808">
        <ele>55.6</ele>
        <time>2022-01-05T13:19:12.000Z</time>
      </trkpt>
      <trkpt lat="43.42901" lon="6.51815">
        <ele>55.6</ele>
        <time>2022-01-05T13:19:16.000Z</time>
      </trkpt>
      <trkpt lat="43.42899" lon="6.51823">
        <ele>55.5</ele>
        <time>2022-01-05T13:19:20.000Z</time>
      </trkpt>
      <trkpt lat="43.42899" lon="6.51831">
        <ele>55.5</ele>
        <time>2022-01-05T13:19:24.000Z</time>
      </trkpt>
      <trkpt lat="43.42898" lon="6.51838">
        <ele>55.5</ele>
        <time>2022-01-05T13:19:28.000Z</time>
      </trkpt>
      <trkpt lat="43.42898" lon="6.51845">
        <ele>55.5</ele>
        <time>2022-01-05T13:19:32.000Z</time>
      </trkpt>
      <trkpt lat="43.42899" lon="6.51853">
        <ele>55.6</ele>
        <time>2022-01-05T13:19:36.000Z</time>
      </trkpt>
      <trkpt lat="43.429" lon="6.5186">
        <ele>55.8</ele>
        <time>2022-01-05T13:19:40.000Z</time>
      </trkpt>
      <trkpt lat="43.42901" lon="6.51868">
        <ele>56.1</ele>
        <time>2022-01-05T13:19:44.000Z</time>
      </trkpt>
      <trkpt lat="43.42903" lon="6.51873">
        <ele>56.2</ele>
        <time>2022-01-05T13:19:47.000Z</time>
      </trkpt>
      <trkpt lat="43.42905" lon="6.5188">
        <ele>56.2</ele>
        <time>2022-01-05T13:19:50.000Z</time>
      </trkpt>
      <trkpt lat="43.42907" lon="6.51885">
        <ele>56.1</ele>
        <time>2022-01-05T13:19:53.000Z</time>
      </trkpt>
      <trkpt lat="43.42909" lon="6.51891">
        <ele>55.9</ele>
        <time>2022-01-05T13:19:57.000Z</time>
      </trkpt>
      <trkpt lat="43.42911" lon="6.51898">
        <ele>55.4</ele>
        <time>2022-01-05T13:20:02.000Z</time>
      </trkpt>
      <trkpt lat="43.42912" lon="6.51905">
        <ele>54.7</ele>
        <time>2022-01-05T13:20:06.000Z</time>
      </trkpt>
      <trkpt lat="43.42911" lon="6.51912">
        <ele>54.1</ele>
        <time>2022-01-05T13:20:10.000Z</time>
      </trkpt>
      <trkpt lat="43.42911" lon="6.5192">
        <ele>53.8</ele>
        <time>2022-01-05T13:20:14.000Z</time>
      </trkpt>
      <trkpt lat="43.4291" lon="6.51927">
        <ele>53.5</ele>
        <time>2022-01-05T13:20:18.000Z</time>
      </trkpt>
      <trkpt lat="43.42909" lon="6.51934">
        <ele>53.5</ele>
        <time>2022-01-05T13:20:23.000Z</time>
      </trkpt>
      <trkpt lat="43.4291" lon="6.51941">
        <ele>53.5</ele>
        <time>2022-01-05T13:20:28.000Z</time>
      </trkpt>
      <trkpt lat="43.4291" lon="6.51947">
        <ele>53.5</ele>
        <time>2022-01-05T13:20:32.000Z</time>
      </trkpt>
      <trkpt lat="43.42912" lon="6.51954">
        <ele>53.4</ele>
        <time>2022-01-05T13:20:36.000Z</time>
      </trkpt>
      <trkpt lat="43.42913" lon="6.5196">
        <ele>53.2</ele>
        <time>2022-01-05T13:20:40.000Z</time>
      </trkpt>
      <trkpt lat="43.42916" lon="6.51967">
        <ele>52.6</ele>
        <time>2022-01-05T13:20:44.000Z</time>
      </trkpt>
      <trkpt lat="43.42918" lon="6.51972">
        <ele>52.1</ele>
        <time>2022-01-05T13:20:48.000Z</time>
      </trkpt>
      <trkpt lat="43.4292" lon="6.51979">
        <ele>51.6</ele>
        <time>2022-01-05T13:20:52.000Z</time>
      </trkpt>
      <trkpt lat="43.42923" lon="6.51986">
        <ele>50.7</ele>
        <time>2022-01-05T13:20:57.000Z</time>
      </trkpt>
      <trkpt lat="43.42925" lon="6.51992">
        <ele>49.9</ele>
        <time>2022-01-05T13:21:02.000Z</time>
      </trkpt>
      <trkpt lat="43.42926" lon="6.51999">
        <ele>49.5</ele>
        <time>2022-01-05T13:21:06.000Z</time>
      </trkpt>
      <trkpt lat="43.42927" lon="6.52005">
        <ele>49.3</ele>
        <time>2022-01-05T13:21:09.000Z</time>
      </trkpt>
      <trkpt lat="43.42928" lon="6.52012">
        <ele>49.1</ele>
        <time>2022-01-05T13:21:13.000Z</time>
      </trkpt>
      <trkpt lat="43.4293" lon="6.52019">
        <ele>48.9</ele>
        <time>2022-01-05T13:21:17.000Z</time>
      </trkpt>
      <trkpt lat="43.42934" lon="6.52024">
        <ele>48.5</ele>
        <time>2022-01-05T13:21:21.000Z</time>
      </trkpt>
      <trkpt lat="43.42937" lon="6.5203">
        <ele>48.2</ele>
        <time>2022-01-05T13:21:26.000Z</time>
      </trkpt>
      <trkpt lat="43.4294" lon="6.52036">
        <ele>48.1</ele>
        <time>2022-01-05T13:21:30.000Z</time>
      </trkpt>
      <trkpt lat="43.42942" lon="6.52041">
        <ele>48.4</ele>
        <time>2022-01-05T13:21:34.000Z</time>
      </trkpt>
      <trkpt lat="43.42944" lon="6.52048">
        <ele>48.7</ele>
        <time>2022-01-05T13:21:38.000Z</time>
      </trkpt>
      <trkpt lat="43.42945" lon="6.52055">
        <ele>48.9</ele>
        <time>2022-01-05T13:21:41.000Z</time>
      </trkpt>
      <trkpt lat="43.42946" lon="6.52061">
        <ele>49.1</ele>
        <time>2022-01-05T13:21:47.000Z</time>
      </trkpt>
      <trkpt lat="43.42948" lon="6.52067">
        <ele>49.3</ele>
        <time>2022-01-05T13:21:52.000Z</time>
      </trkpt>
      <trkpt lat="43.42949" lon="6.52073">
        <ele>49.5</ele>
        <time>2022-01-05T13:21:57.000Z</time>
      </trkpt>
      <trkpt lat="43.42953" lon="6.5208">
        <ele>49.7</ele>
        <time>2022-01-05T13:22:02.000Z</time>
      </trkpt>
      <trkpt lat="43.42954" lon="6.52086">
        <ele>49.8</ele>
        <time>2022-01-05T13:22:05.000Z</time>
      </trkpt>
      <trkpt lat="43.42956" lon="6.52092">
        <ele>49.8</ele>
        <time>2022-01-05T13:22:08.000Z</time>
      </trkpt>
      <trkpt lat="43.42958" lon="6.52098">
        <ele>49.8</ele>
        <time>2022-01-05T13:22:12.000Z</time>
      </trkpt>
      <trkpt lat="43.4296" lon="6.52106">
        <ele>49.6</ele>
        <time>2022-01-05T13:22:17.000Z</time>
      </trkpt>
      <trkpt lat="43.42961" lon="6.52114">
        <ele>49.5</ele>
        <time>2022-01-05T13:22:20.000Z</time>
      </trkpt>
      <trkpt lat="43.42963" lon="6.5212">
        <ele>49.4</ele>
        <time>2022-01-05T13:22:23.000Z</time>
      </trkpt>
      <trkpt lat="43.42965" lon="6.52126">
        <ele>49.4</ele>
        <time>2022-01-05T13:22:26.000Z</time>
      </trkpt>
      <trkpt lat="43.42968" lon="6.52133">
        <ele>49.4</ele>
        <time>2022-01-05T13:22:29.000Z</time>
      </trkpt>
      <trkpt lat="43.42968" lon="6.52141">
        <ele>49.4</ele>
        <time>2022-01-05T13:22:33.000Z</time>
      </trkpt>
      <trkpt lat="43.42969" lon="6.52149">
        <ele>49.4</ele>
        <time>2022-01-05T13:22:37.000Z</time>
      </trkpt>
      <trkpt lat="43.4297" lon="6.52156">
        <ele>49.5</ele>
        <time>2022-01-05T13:22:41.000Z</time>
      </trkpt>
      <trkpt lat="43.4297" lon="6.52163">
        <ele>49.5</ele>
        <time>2022-01-05T13:22:48.000Z</time>
      </trkpt>
      <trkpt lat="43.4297" lon="6.52169">
        <ele>49.5</ele>
        <time>2022-01-05T13:22:52.000Z</time>
      </trkpt>
      <trkpt lat="43.42972" lon="6.52176">
        <ele>49.5</ele>
        <time>2022-01-05T13:22:56.000Z</time>
      </trkpt>
      <trkpt lat="43.42974" lon="6.52182">
        <ele>49.5</ele>
        <time>2022-01-05T13:22:59.000Z</time>
      </trkpt>
      <trkpt lat="43.42975" lon="6.5219">
        <ele>49.6</ele>
        <time>2022-01-05T13:23:03.000Z</time>
      </trkpt>
      <trkpt lat="43.42977" lon="6.52196">
        <ele>49.7</ele>
        <time>2022-01-05T13:23:06.000Z</time>
      </trkpt>
      <trkpt lat="43.42979" lon="6.52202">
        <ele>49.8</ele>
        <time>2022-01-05T13:23:09.000Z</time>
      </trkpt>
      <trkpt lat="43.42979" lon="6.5221">
        <ele>49.8</ele>
        <time>2022-01-05T13:23:13.000Z</time>
      </trkpt>
      <trkpt lat="43.42979" lon="6.52216">
        <ele>49.9</ele>
        <time>2022-01-05T13:23:16.000Z</time>
      </trkpt>
      <trkpt lat="43.42979" lon="6.52224">
        <ele>49.9</ele>
        <time>2022-01-05T13:23:20.000Z</time>
      </trkpt>
      <trkpt lat="43.42979" lon="6.52232">
        <ele>49.9</ele>
        <time>2022-01-05T13:23:23.000Z</time>
      </trkpt>
      <trkpt lat="43.42979" lon="6.52239">
        <ele>50</ele>
        <time>2022-01-05T13:23:26.000Z</time>
      </trkpt>
      <trkpt lat="43.42979" lon="6.52246">
        <ele>50</ele>
        <time>2022-01-05T13:23:29.000Z</time>
      </trkpt>
      <trkpt lat="43.42979" lon="6.52253">
        <ele>50</ele>
        <time>2022-01-05T13:23:32.000Z</time>
      </trkpt>
      <trkpt lat="43.42978" lon="6.52261">
        <ele>50</ele>
        <time>2022-01-05T13:23:36.000Z</time>
      </trkpt>
      <trkpt lat="43.42978" lon="6.52268">
        <ele>50.1</ele>
        <time>2022-01-05T13:23:40.000Z</time>
      </trkpt>
      <trkpt lat="43.42976" lon="6.52274">
        <ele>50.4</ele>
        <time>2022-01-05T13:23:44.000Z</time>
      </trkpt>
      <trkpt lat="43.42973" lon="6.5228">
        <ele>50.5</ele>
        <time>2022-01-05T13:23:48.000Z</time>
      </trkpt>
      <trkpt lat="43.42971" lon="6.52288">
        <ele>50.7</ele>
        <time>2022-01-05T13:23:52.000Z</time>
      </trkpt>
      <trkpt lat="43.42969" lon="6.52293">
        <ele>50.8</ele>
        <time>2022-01-05T13:23:56.000Z</time>
      </trkpt>
      <trkpt lat="43.42964" lon="6.52297">
        <ele>50.8</ele>
        <time>2022-01-05T13:24:00.000Z</time>
      </trkpt>
      <trkpt lat="43.42961" lon="6.52303">
        <ele>50.7</ele>
        <time>2022-01-05T13:24:04.000Z</time>
      </trkpt>
      <trkpt lat="43.42957" lon="6.52309">
        <ele>50.7</ele>
        <time>2022-01-05T13:24:08.000Z</time>
      </trkpt>
      <trkpt lat="43.42953" lon="6.52315">
        <ele>50.7</ele>
        <time>2022-01-05T13:24:12.000Z</time>
      </trkpt>
      <trkpt lat="43.42949" lon="6.52318">
        <ele>50.8</ele>
        <time>2022-01-05T13:24:15.000Z</time>
      </trkpt>
      <trkpt lat="43.42944" lon="6.52321">
        <ele>50.8</ele>
        <time>2022-01-05T13:24:19.000Z</time>
      </trkpt>
      <trkpt lat="43.4294" lon="6.52323">
        <ele>50.8</ele>
        <time>2022-01-05T13:24:23.000Z</time>
      </trkpt>
      <trkpt lat="43.42936" lon="6.52326">
        <ele>50.7</ele>
        <time>2022-01-05T13:24:27.000Z</time>
      </trkpt>
      <trkpt lat="43.42931" lon="6.52327">
        <ele>50.7</ele>
        <time>2022-01-05T13:24:30.000Z</time>
      </trkpt>
      <trkpt lat="43.42926" lon="6.52328">
        <ele>50.6</ele>
        <time>2022-01-05T13:24:34.000Z</time>
      </trkpt>
      <trkpt lat="43.4292" lon="6.5233">
        <ele>50.4</ele>
        <time>2022-01-05T13:24:38.000Z</time>
      </trkpt>
      <trkpt lat="43.42916" lon="6.52331">
        <ele>50.3</ele>
        <time>2022-01-05T13:24:41.000Z</time>
      </trkpt>
      <trkpt lat="43.42911" lon="6.52331">
        <ele>50.3</ele>
        <time>2022-01-05T13:24:43.000Z</time>
      </trkpt>
      <trkpt lat="43.42905" lon="6.52332">
        <ele>50.2</ele>
        <time>2022-01-05T13:24:46.000Z</time>
      </trkpt>
      <trkpt lat="43.429" lon="6.52333">
        <ele>50.2</ele>
        <time>2022-01-05T13:24:49.000Z</time>
      </trkpt>
      <trkpt lat="43.42895" lon="6.52335">
        <ele>50.3</ele>
        <time>2022-01-05T13:24:53.000Z</time>
      </trkpt>
      <trkpt lat="43.4289" lon="6.52339">
        <ele>50.4</ele>
        <time>2022-01-05T13:24:57.000Z</time>
      </trkpt>
      <trkpt lat="43.42886" lon="6.52342">
        <ele>50.5</ele>
        <time>2022-01-05T13:25:01.000Z</time>
      </trkpt>
      <trkpt lat="43.42881" lon="6.52343">
        <ele>50.6</ele>
        <time>2022-01-05T13:25:05.000Z</time>
      </trkpt>
      <trkpt lat="43.42876" lon="6.52344">
        <ele>50.6</ele>
        <time>2022-01-05T13:25:08.000Z</time>
      </trkpt>
      <trkpt lat="43.42871" lon="6.52345">
        <ele>50.7</ele>
        <time>2022-01-05T13:25:12.000Z</time>
      </trkpt>
      <trkpt lat="43.42866" lon="6.52347">
        <ele>50.4</ele>
        <time>2022-01-05T13:25:16.000Z</time>
      </trkpt>
      <trkpt lat="43.42861" lon="6.52348">
        <ele>50.2</ele>
        <time>2022-01-05T13:25:20.000Z</time>
      </trkpt>
      <trkpt lat="43.42857" lon="6.52352">
        <ele>50</ele>
        <time>2022-01-05T13:25:24.000Z</time>
      </trkpt>
      <trkpt lat="43.42854" lon="6.52357">
        <ele>50</ele>
        <time>2022-01-05T13:25:28.000Z</time>
      </trkpt>
      <trkpt lat="43.42854" lon="6.52363">
        <ele>50</ele>
        <time>2022-01-05T13:25:33.000Z</time>
      </trkpt>
      <trkpt lat="43.42857" lon="6.52367">
        <ele>50</ele>
        <time>2022-01-05T13:25:38.000Z</time>
      </trkpt>
      <trkpt lat="43.42862" lon="6.52371">
        <ele>50</ele>
        <time>2022-01-05T13:25:43.000Z</time>
      </trkpt>
      <trkpt lat="43.42867" lon="6.52372">
        <ele>50</ele>
        <time>2022-01-05T13:25:48.000Z</time>
      </trkpt>
      <trkpt lat="43.42872" lon="6.52372">
        <ele>50.4</ele>
        <time>2022-01-05T13:25:53.000Z</time>
      </trkpt>
      <trkpt lat="43.42877" lon="6.52374">
        <ele>50.7</ele>
        <time>2022-01-05T13:25:58.000Z</time>
      </trkpt>
      <trkpt lat="43.42881" lon="6.52377">
        <ele>51</ele>
        <time>2022-01-05T13:26:02.000Z</time>
      </trkpt>
      <trkpt lat="43.42886" lon="6.5238">
        <ele>51.1</ele>
        <time>2022-01-05T13:26:06.000Z</time>
      </trkpt>
      <trkpt lat="43.42891" lon="6.52383">
        <ele>51.3</ele>
        <time>2022-01-05T13:26:11.000Z</time>
      </trkpt>
      <trkpt lat="43.42896" lon="6.52386">
        <ele>51.3</ele>
        <time>2022-01-05T13:26:15.000Z</time>
      </trkpt>
      <trkpt lat="43.429" lon="6.52389">
        <ele>51.2</ele>
        <time>2022-01-05T13:26:19.000Z</time>
      </trkpt>
      <trkpt lat="43.42905" lon="6.52393">
        <ele>51.1</ele>
        <time>2022-01-05T13:26:23.000Z</time>
      </trkpt>
      <trkpt lat="43.42909" lon="6.52397">
        <ele>51.1</ele>
        <time>2022-01-05T13:26:27.000Z</time>
      </trkpt>
      <trkpt lat="43.42914" lon="6.524">
        <ele>51</ele>
        <time>2022-01-05T13:26:32.000Z</time>
      </trkpt>
      <trkpt lat="43.42918" lon="6.52402">
        <ele>51</ele>
        <time>2022-01-05T13:26:37.000Z</time>
      </trkpt>
      <trkpt lat="43.42924" lon="6.524">
        <ele>51</ele>
        <time>2022-01-05T13:26:42.000Z</time>
      </trkpt>
      <trkpt lat="43.42927" lon="6.52395">
        <ele>51.2</ele>
        <time>2022-01-05T13:26:48.000Z</time>
      </trkpt>
      <trkpt lat="43.42932" lon="6.52392">
        <ele>51.3</ele>
        <time>2022-01-05T13:26:52.000Z</time>
      </trkpt>
      <trkpt lat="43.42937" lon="6.52392">
        <ele>51.4</ele>
        <time>2022-01-05T13:26:56.000Z</time>
      </trkpt>
      <trkpt lat="43.42943" lon="6.52389">
        <ele>51.5</ele>
        <time>2022-01-05T13:27:00.000Z</time>
      </trkpt>
      <trkpt lat="43.42948" lon="6.52386">
        <ele>51.6</ele>
        <time>2022-01-05T13:27:04.000Z</time>
      </trkpt>
      <trkpt lat="43.42952" lon="6.52382">
        <ele>51.8</ele>
        <time>2022-01-05T13:27:09.000Z</time>
      </trkpt>
      <trkpt lat="43.42957" lon="6.5238">
        <ele>51.9</ele>
        <time>2022-01-05T13:27:14.000Z</time>
      </trkpt>
      <trkpt lat="43.42963" lon="6.52378">
        <ele>52</ele>
        <time>2022-01-05T13:27:17.000Z</time>
      </trkpt>
      <trkpt lat="43.42968" lon="6.52377">
        <ele>52.1</ele>
        <time>2022-01-05T13:27:21.000Z</time>
      </trkpt>
      <trkpt lat="43.42973" lon="6.52376">
        <ele>52.2</ele>
        <time>2022-01-05T13:27:24.000Z</time>
      </trkpt>
      <trkpt lat="43.42978" lon="6.52375">
        <ele>52.1</ele>
        <time>2022-01-05T13:27:28.000Z</time>
      </trkpt>
      <trkpt lat="43.42983" lon="6.52376">
        <ele>52.1</ele>
        <time>2022-01-05T13:27:33.000Z</time>
      </trkpt>
      <trkpt lat="43.42987" lon="6.52379">
        <ele>52.1</ele>
        <time>2022-01-05T13:27:37.000Z</time>
      </trkpt>
      <trkpt lat="43.42989" lon="6.52385">
        <ele>52.1</ele>
        <time>2022-01-05T13:27:41.000Z</time>
      </trkpt>
      <trkpt lat="43.4299" lon="6.52391">
        <ele>52.4</ele>
        <time>2022-01-05T13:27:46.000Z</time>
      </trkpt>
      <trkpt lat="43.42992" lon="6.52398">
        <ele>52.5</ele>
        <time>2022-01-05T13:27:50.000Z</time>
      </trkpt>
      <trkpt lat="43.42994" lon="6.52404">
        <ele>52.6</ele>
        <time>2022-01-05T13:27:54.000Z</time>
      </trkpt>
      <trkpt lat="43.42996" lon="6.5241">
        <ele>52.7</ele>
        <time>2022-01-05T13:27:58.000Z</time>
      </trkpt>
      <trkpt lat="43.42998" lon="6.52417">
        <ele>52.9</ele>
        <time>2022-01-05T13:28:02.000Z</time>
      </trkpt>
      <trkpt lat="43.43" lon="6.52424">
        <ele>53.1</ele>
        <time>2022-01-05T13:28:06.000Z</time>
      </trkpt>
      <trkpt lat="43.43002" lon="6.52431">
        <ele>53.4</ele>
        <time>2022-01-05T13:28:11.000Z</time>
      </trkpt>
      <trkpt lat="43.43003" lon="6.52437">
        <ele>53.7</ele>
        <time>2022-01-05T13:28:16.000Z</time>
      </trkpt>
      <trkpt lat="43.43004" lon="6.52444">
        <ele>54</ele>
        <time>2022-01-05T13:28:20.000Z</time>
      </trkpt>
      <trkpt lat="43.43006" lon="6.5245">
        <ele>54.4</ele>
        <time>2022-01-05T13:28:25.000Z</time>
      </trkpt>
      <trkpt lat="43.43006" lon="6.52457">
        <ele>55.2</ele>
        <time>2022-01-05T13:28:32.000Z</time>
      </trkpt>
      <trkpt lat="43.43003" lon="6.52464">
        <ele>55.9</ele>
        <time>2022-01-05T13:28:37.000Z</time>
      </trkpt>
      <trkpt lat="43.43001" lon="6.52471">
        <ele>56.6</ele>
        <time>2022-01-05T13:28:42.000Z</time>
      </trkpt>
      <trkpt lat="43.42998" lon="6.52477">
        <ele>57.1</ele>
        <time>2022-01-05T13:28:47.000Z</time>
      </trkpt>
      <trkpt lat="43.42995" lon="6.52484">
        <ele>57.5</ele>
        <time>2022-01-05T13:28:52.000Z</time>
      </trkpt>
      <trkpt lat="43.42992" lon="6.52489">
        <ele>57.9</ele>
        <time>2022-01-05T13:28:57.000Z</time>
      </trkpt>
      <trkpt lat="43.42989" lon="6.52495">
        <ele>58.1</ele>
        <time>2022-01-05T13:29:02.000Z</time>
      </trkpt>
      <trkpt lat="43.42987" lon="6.52501">
        <ele>58.4</ele>
        <time>2022-01-05T13:29:07.000Z</time>
      </trkpt>
      <trkpt lat="43.42986" lon="6.52508">
        <ele>58.9</ele>
        <time>2022-01-05T13:29:13.000Z</time>
      </trkpt>
      <trkpt lat="43.42984" lon="6.52514">
        <ele>59.8</ele>
        <time>2022-01-05T13:29:19.000Z</time>
      </trkpt>
      <trkpt lat="43.42981" lon="6.5252">
        <ele>62.2</ele>
        <time>2022-01-05T13:30:26.000Z</time>
      </trkpt>
      <trkpt lat="43.4298" lon="6.52526">
        <ele>62</ele>
        <time>2022-01-05T13:31:20.000Z</time>
      </trkpt>
      <trkpt lat="43.4298" lon="6.52533">
        <ele>62.2</ele>
        <time>2022-01-05T13:31:27.000Z</time>
      </trkpt>
      <trkpt lat="43.42978" lon="6.52539">
        <ele>62.5</ele>
        <time>2022-01-05T13:31:33.000Z</time>
      </trkpt>
      <trkpt lat="43.4298" lon="6.52545">
        <ele>62.8</ele>
        <time>2022-01-05T13:31:39.000Z</time>
      </trkpt>
      <trkpt lat="43.42979" lon="6.52552">
        <ele>63</ele>
        <time>2022-01-05T13:31:44.000Z</time>
      </trkpt>
      <trkpt lat="43.42983" lon="6.52555">
        <ele>63.3</ele>
        <time>2022-01-05T13:31:49.000Z</time>
      </trkpt>
      <trkpt lat="43.42987" lon="6.52551">
        <ele>63.6</ele>
        <time>2022-01-05T13:31:57.000Z</time>
      </trkpt>
      <trkpt lat="43.4299" lon="6.52546">
        <ele>63.8</ele>
        <time>2022-01-05T13:32:02.000Z</time>
      </trkpt>
      <trkpt lat="43.42993" lon="6.52542">
        <ele>64.1</ele>
        <time>2022-01-05T13:32:07.000Z</time>
      </trkpt>
      <trkpt lat="43.42997" lon="6.52537">
        <ele>64.5</ele>
        <time>2022-01-05T13:32:13.000Z</time>
      </trkpt>
      <trkpt lat="43.42998" lon="6.52531">
        <ele>64.8</ele>
        <time>2022-01-05T13:32:17.000Z</time>
      </trkpt>
      <trkpt lat="43.43" lon="6.52525">
        <ele>65</ele>
        <time>2022-01-05T13:32:22.000Z</time>
      </trkpt>
      <trkpt lat="43.43004" lon="6.52519">
        <ele>65.2</ele>
        <time>2022-01-05T13:32:27.000Z</time>
      </trkpt>
      <trkpt lat="43.43006" lon="6.52514">
        <ele>65.5</ele>
        <time>2022-01-05T13:32:31.000Z</time>
      </trkpt>
      <trkpt lat="43.43009" lon="6.52509">
        <ele>65.8</ele>
        <time>2022-01-05T13:32:35.000Z</time>
      </trkpt>
      <trkpt lat="43.43012" lon="6.52503">
        <ele>66</ele>
        <time>2022-01-05T13:32:39.000Z</time>
      </trkpt>
      <trkpt lat="43.43015" lon="6.52498">
        <ele>66.3</ele>
        <time>2022-01-05T13:32:43.000Z</time>
      </trkpt>
      <trkpt lat="43.43018" lon="6.52492">
        <ele>67</ele>
        <time>2022-01-05T13:32:47.000Z</time>
      </trkpt>
      <trkpt lat="43.43022" lon="6.52487">
        <ele>67.5</ele>
        <time>2022-01-05T13:32:52.000Z</time>
      </trkpt>
      <trkpt lat="43.43025" lon="6.52481">
        <ele>67.8</ele>
        <time>2022-01-05T13:32:57.000Z</time>
      </trkpt>
      <trkpt lat="43.43029" lon="6.52477">
        <ele>68</ele>
        <time>2022-01-05T13:33:01.000Z</time>
      </trkpt>
      <trkpt lat="43.43032" lon="6.52473">
        <ele>68</ele>
        <time>2022-01-05T13:33:05.000Z</time>
      </trkpt>
      <trkpt lat="43.43036" lon="6.52468">
        <ele>68.1</ele>
        <time>2022-01-05T13:33:09.000Z</time>
      </trkpt>
      <trkpt lat="43.43039" lon="6.52464">
        <ele>68.2</ele>
        <time>2022-01-05T13:33:13.000Z</time>
      </trkpt>
      <trkpt lat="43.43044" lon="6.52461">
        <ele>68.8</ele>
        <time>2022-01-05T13:33:17.000Z</time>
      </trkpt>
      <trkpt lat="43.43049" lon="6.52461">
        <ele>69.2</ele>
        <time>2022-01-05T13:33:21.000Z</time>
      </trkpt>
      <trkpt lat="43.43054" lon="6.52464">
        <ele>69.6</ele>
        <time>2022-01-05T13:33:25.000Z</time>
      </trkpt>
      <trkpt lat="43.43058" lon="6.52466">
        <ele>69.9</ele>
        <time>2022-01-05T13:33:29.000Z</time>
      </trkpt>
      <trkpt lat="43.43062" lon="6.52468">
        <ele>70.7</ele>
        <time>2022-01-05T13:33:35.000Z</time>
      </trkpt>
      <trkpt lat="43.43065" lon="6.52474">
        <ele>71.2</ele>
        <time>2022-01-05T13:33:57.000Z</time>
      </trkpt>
      <trkpt lat="43.43069" lon="6.52477">
        <ele>71.5</ele>
        <time>2022-01-05T13:34:03.000Z</time>
      </trkpt>
      <trkpt lat="43.43074" lon="6.5248">
        <ele>71.7</ele>
        <time>2022-01-05T13:34:09.000Z</time>
      </trkpt>
      <trkpt lat="43.43079" lon="6.52482">
        <ele>72</ele>
        <time>2022-01-05T13:34:14.000Z</time>
      </trkpt>
      <trkpt lat="43.43084" lon="6.52484">
        <ele>72.3</ele>
        <time>2022-01-05T13:34:19.000Z</time>
      </trkpt>
      <trkpt lat="43.43088" lon="6.52487">
        <ele>72.6</ele>
        <time>2022-01-05T13:34:24.000Z</time>
      </trkpt>
      <trkpt lat="43.43093" lon="6.5249">
        <ele>72.8</ele>
        <time>2022-01-05T13:34:29.000Z</time>
      </trkpt>
      <trkpt lat="43.43097" lon="6.52493">
        <ele>73.1</ele>
        <time>2022-01-05T13:34:35.000Z</time>
      </trkpt>
      <trkpt lat="43.43101" lon="6.52499">
        <ele>73.2</ele>
        <time>2022-01-05T13:34:39.000Z</time>
      </trkpt>
      <trkpt lat="43.43105" lon="6.52501">
        <ele>73.4</ele>
        <time>2022-01-05T13:34:43.000Z</time>
      </trkpt>
      <trkpt lat="43.43109" lon="6.52504">
        <ele>73.5</ele>
        <time>2022-01-05T13:34:47.000Z</time>
      </trkpt>
      <trkpt lat="43.43113" lon="6.52509">
        <ele>73.7</ele>
        <time>2022-01-05T13:34:51.000Z</time>
      </trkpt>
      <trkpt lat="43.43117" lon="6.52512">
        <ele>74</ele>
        <time>2022-01-05T13:34:55.000Z</time>
      </trkpt>
      <trkpt lat="43.43121" lon="6.52518">
        <ele>74.6</ele>
        <time>2022-01-05T13:35:01.000Z</time>
      </trkpt>
      <trkpt lat="43.43125" lon="6.52522">
        <ele>75.3</ele>
        <time>2022-01-05T13:35:06.000Z</time>
      </trkpt>
      <trkpt lat="43.43129" lon="6.52524">
        <ele>76</ele>
        <time>2022-01-05T13:35:11.000Z</time>
      </trkpt>
      <trkpt lat="43.43133" lon="6.52527">
        <ele>76.6</ele>
        <time>2022-01-05T13:35:16.000Z</time>
      </trkpt>
      <trkpt lat="43.43138" lon="6.5253">
        <ele>76.9</ele>
        <time>2022-01-05T13:35:21.000Z</time>
      </trkpt>
      <trkpt lat="43.43143" lon="6.52533">
        <ele>77.3</ele>
        <time>2022-01-05T13:35:28.000Z</time>
      </trkpt>
      <trkpt lat="43.43149" lon="6.52534">
        <ele>77.5</ele>
        <time>2022-01-05T13:35:35.000Z</time>
      </trkpt>
      <trkpt lat="43.43154" lon="6.52536">
        <ele>77.8</ele>
        <time>2022-01-05T13:35:39.000Z</time>
      </trkpt>
      <trkpt lat="43.43159" lon="6.52537">
        <ele>78.4</ele>
        <time>2022-01-05T13:35:44.000Z</time>
      </trkpt>
      <trkpt lat="43.43163" lon="6.5254">
        <ele>78.9</ele>
        <time>2022-01-05T13:35:49.000Z</time>
      </trkpt>
      <trkpt lat="43.43167" lon="6.52543">
        <ele>79.2</ele>
        <time>2022-01-05T13:35:53.000Z</time>
      </trkpt>
      <trkpt lat="43.43172" lon="6.52545">
        <ele>79.5</ele>
        <time>2022-01-05T13:35:58.000Z</time>
      </trkpt>
      <trkpt lat="43.43177" lon="6.52547">
        <ele>79.7</ele>
        <time>2022-01-05T13:36:03.000Z</time>
      </trkpt>
      <trkpt lat="43.43181" lon="6.5255">
        <ele>79.8</ele>
        <time>2022-01-05T13:36:07.000Z</time>
      </trkpt>
      <trkpt lat="43.43186" lon="6.52552">
        <ele>79.9</ele>
        <time>2022-01-05T13:36:12.000Z</time>
      </trkpt>
      <trkpt lat="43.43191" lon="6.52554">
        <ele>80.3</ele>
        <time>2022-01-05T13:36:17.000Z</time>
      </trkpt>
      <trkpt lat="43.43196" lon="6.52556">
        <ele>80.7</ele>
        <time>2022-01-05T13:36:22.000Z</time>
      </trkpt>
      <trkpt lat="43.43201" lon="6.52558">
        <ele>80.9</ele>
        <time>2022-01-05T13:36:26.000Z</time>
      </trkpt>
      <trkpt lat="43.43205" lon="6.52562">
        <ele>81.1</ele>
        <time>2022-01-05T13:36:30.000Z</time>
      </trkpt>
      <trkpt lat="43.4321" lon="6.52563">
        <ele>81.3</ele>
        <time>2022-01-05T13:36:35.000Z</time>
      </trkpt>
      <trkpt lat="43.43214" lon="6.52563">
        <ele>81.9</ele>
        <time>2022-01-05T13:36:40.000Z</time>
      </trkpt>
      <trkpt lat="43.43219" lon="6.52563">
        <ele>82.3</ele>
        <time>2022-01-05T13:36:44.000Z</time>
      </trkpt>
      <trkpt lat="43.43224" lon="6.52563">
        <ele>82.6</ele>
        <time>2022-01-05T13:36:49.000Z</time>
      </trkpt>
      <trkpt lat="43.43229" lon="6.52563">
        <ele>82.8</ele>
        <time>2022-01-05T13:36:54.000Z</time>
      </trkpt>
      <trkpt lat="43.43233" lon="6.52562">
        <ele>83.3</ele>
        <time>2022-01-05T13:36:59.000Z</time>
      </trkpt>
      <trkpt lat="43.43238" lon="6.52562">
        <ele>83.8</ele>
        <time>2022-01-05T13:37:04.000Z</time>
      </trkpt>
      <trkpt lat="43.43243" lon="6.52563">
        <ele>84.9</ele>
        <time>2022-01-05T13:37:11.000Z</time>
      </trkpt>
      <trkpt lat="43.43248" lon="6.52564">
        <ele>85.6</ele>
        <time>2022-01-05T13:37:16.000Z</time>
      </trkpt>
      <trkpt lat="43.43253" lon="6.52565">
        <ele>85.8</ele>
        <time>2022-01-05T13:37:21.000Z</time>
      </trkpt>
      <trkpt lat="43.43257" lon="6.52567">
        <ele>85.8</ele>
        <time>2022-01-05T13:37:25.000Z</time>
      </trkpt>
      <trkpt lat="43.43262" lon="6.52568">
        <ele>85.8</ele>
        <time>2022-01-05T13:37:30.000Z</time>
      </trkpt>
      <trkpt lat="43.43267" lon="6.52568">
        <ele>85.9</ele>
        <time>2022-01-05T13:37:35.000Z</time>
      </trkpt>
      <trkpt lat="43.43272" lon="6.52569">
        <ele>86</ele>
        <time>2022-01-05T13:37:40.000Z</time>
      </trkpt>
      <trkpt lat="43.43278" lon="6.52569">
        <ele>86.6</ele>
        <time>2022-01-05T13:37:45.000Z</time>
      </trkpt>
      <trkpt lat="43.43282" lon="6.5257">
        <ele>87</ele>
        <time>2022-01-05T13:37:50.000Z</time>
      </trkpt>
      <trkpt lat="43.43288" lon="6.52572">
        <ele>87.4</ele>
        <time>2022-01-05T13:37:55.000Z</time>
      </trkpt>
      <trkpt lat="43.43292" lon="6.52573">
        <ele>87.7</ele>
        <time>2022-01-05T13:38:00.000Z</time>
      </trkpt>
      <trkpt lat="43.43297" lon="6.52574">
        <ele>88.1</ele>
        <time>2022-01-05T13:38:05.000Z</time>
      </trkpt>
      <trkpt lat="43.43301" lon="6.52576">
        <ele>88.5</ele>
        <time>2022-01-05T13:38:10.000Z</time>
      </trkpt>
      <trkpt lat="43.43305" lon="6.52579">
        <ele>88.8</ele>
        <time>2022-01-05T13:38:14.000Z</time>
      </trkpt>
      <trkpt lat="43.4331" lon="6.52584">
        <ele>89.2</ele>
        <time>2022-01-05T13:38:19.000Z</time>
      </trkpt>
      <trkpt lat="43.43313" lon="6.52588">
        <ele>89.6</ele>
        <time>2022-01-05T13:38:23.000Z</time>
      </trkpt>
      <trkpt lat="43.43316" lon="6.52594">
        <ele>90</ele>
        <time>2022-01-05T13:38:26.000Z</time>
      </trkpt>
      <trkpt lat="43.43318" lon="6.526">
        <ele>90.5</ele>
        <time>2022-01-05T13:38:31.000Z</time>
      </trkpt>
      <trkpt lat="43.4332" lon="6.52606">
        <ele>90.8</ele>
        <time>2022-01-05T13:38:36.000Z</time>
      </trkpt>
      <trkpt lat="43.43322" lon="6.52613">
        <ele>91.1</ele>
        <time>2022-01-05T13:38:41.000Z</time>
      </trkpt>
      <trkpt lat="43.43323" lon="6.5262">
        <ele>91.3</ele>
        <time>2022-01-05T13:38:45.000Z</time>
      </trkpt>
      <trkpt lat="43.43324" lon="6.52627">
        <ele>91.8</ele>
        <time>2022-01-05T13:38:50.000Z</time>
      </trkpt>
      <trkpt lat="43.43326" lon="6.52633">
        <ele>92.3</ele>
        <time>2022-01-05T13:38:55.000Z</time>
      </trkpt>
      <trkpt lat="43.43327" lon="6.52639">
        <ele>92.8</ele>
        <time>2022-01-05T13:39:01.000Z</time>
      </trkpt>
      <trkpt lat="43.4333" lon="6.52645">
        <ele>93.1</ele>
        <time>2022-01-05T13:39:06.000Z</time>
      </trkpt>
      <trkpt lat="43.43333" lon="6.52649">
        <ele>93.3</ele>
        <time>2022-01-05T13:39:10.000Z</time>
      </trkpt>
      <trkpt lat="43.43335" lon="6.52656">
        <ele>93.6</ele>
        <time>2022-01-05T13:39:15.000Z</time>
      </trkpt>
      <trkpt lat="43.43337" lon="6.52663">
        <ele>93.8</ele>
        <time>2022-01-05T13:39:20.000Z</time>
      </trkpt>
      <trkpt lat="43.43339" lon="6.52669">
        <ele>94.3</ele>
        <time>2022-01-05T13:39:25.000Z</time>
      </trkpt>
      <trkpt lat="43.4334" lon="6.52677">
        <ele>94.9</ele>
        <time>2022-01-05T13:39:30.000Z</time>
      </trkpt>
      <trkpt lat="43.4334" lon="6.52684">
        <ele>95.5</ele>
        <time>2022-01-05T13:39:35.000Z</time>
      </trkpt>
      <trkpt lat="43.4334" lon="6.52692">
        <ele>96</ele>
        <time>2022-01-05T13:39:40.000Z</time>
      </trkpt>
      <trkpt lat="43.43337" lon="6.52698">
        <ele>96.4</ele>
        <time>2022-01-05T13:39:45.000Z</time>
      </trkpt>
      <trkpt lat="43.43335" lon="6.52703">
        <ele>96.6</ele>
        <time>2022-01-05T13:39:49.000Z</time>
      </trkpt>
      <trkpt lat="43.43333" lon="6.5271">
        <ele>97.3</ele>
        <time>2022-01-05T13:39:54.000Z</time>
      </trkpt>
      <trkpt lat="43.4333" lon="6.52715">
        <ele>97.9</ele>
        <time>2022-01-05T13:39:59.000Z</time>
      </trkpt>
      <trkpt lat="43.43327" lon="6.52721">
        <ele>98.9</ele>
        <time>2022-01-05T13:40:05.000Z</time>
      </trkpt>
      <trkpt lat="43.43323" lon="6.52727">
        <ele>99.5</ele>
        <time>2022-01-05T13:40:10.000Z</time>
      </trkpt>
      <trkpt lat="43.4332" lon="6.52733">
        <ele>100</ele>
        <time>2022-01-05T13:40:16.000Z</time>
      </trkpt>
      <trkpt lat="43.43318" lon="6.52738">
        <ele>100.3</ele>
        <time>2022-01-05T13:40:21.000Z</time>
      </trkpt>
      <trkpt lat="43.43314" lon="6.52743">
        <ele>100.5</ele>
        <time>2022-01-05T13:40:26.000Z</time>
      </trkpt>
      <trkpt lat="43.4331" lon="6.52748">
        <ele>100.7</ele>
        <time>2022-01-05T13:40:31.000Z</time>
      </trkpt>
      <trkpt lat="43.43307" lon="6.52753">
        <ele>100.9</ele>
        <time>2022-01-05T13:40:36.000Z</time>
      </trkpt>
      <trkpt lat="43.43304" lon="6.52757">
        <ele>101.1</ele>
        <time>2022-01-05T13:40:41.000Z</time>
      </trkpt>
      <trkpt lat="43.43301" lon="6.52763">
        <ele>101.5</ele>
        <time>2022-01-05T13:40:46.000Z</time>
      </trkpt>
      <trkpt lat="43.43298" lon="6.52768">
        <ele>101.8</ele>
        <time>2022-01-05T13:40:51.000Z</time>
      </trkpt>
      <trkpt lat="43.43295" lon="6.52773">
        <ele>102</ele>
        <time>2022-01-05T13:40:56.000Z</time>
      </trkpt>
      <trkpt lat="43.43291" lon="6.52778">
        <ele>102.1</ele>
        <time>2022-01-05T13:41:02.000Z</time>
      </trkpt>
      <trkpt lat="43.43288" lon="6.52782">
        <ele>102.6</ele>
        <time>2022-01-05T13:41:07.000Z</time>
      </trkpt>
      <trkpt lat="43.43285" lon="6.52788">
        <ele>103.3</ele>
        <time>2022-01-05T13:41:13.000Z</time>
      </trkpt>
      <trkpt lat="43.43283" lon="6.52794">
        <ele>103.8</ele>
        <time>2022-01-05T13:41:19.000Z</time>
      </trkpt>
      <trkpt lat="43.43281" lon="6.528">
        <ele>104.4</ele>
        <time>2022-01-05T13:41:26.000Z</time>
      </trkpt>
      <trkpt lat="43.4328" lon="6.52808">
        <ele>104.9</ele>
        <time>2022-01-05T13:41:32.000Z</time>
      </trkpt>
      <trkpt lat="43.43279" lon="6.52815">
        <ele>105.3</ele>
        <time>2022-01-05T13:41:38.000Z</time>
      </trkpt>
      <trkpt lat="43.43277" lon="6.52821">
        <ele>105.6</ele>
        <time>2022-01-05T13:41:44.000Z</time>
      </trkpt>
      <trkpt lat="43.43275" lon="6.52827">
        <ele>105.8</ele>
        <time>2022-01-05T13:41:49.000Z</time>
      </trkpt>
      <trkpt lat="43.43275" lon="6.52834">
        <ele>106</ele>
        <time>2022-01-05T13:41:54.000Z</time>
      </trkpt>
      <trkpt lat="43.43274" lon="6.5284">
        <ele>106.3</ele>
        <time>2022-01-05T13:41:59.000Z</time>
      </trkpt>
      <trkpt lat="43.43273" lon="6.52847">
        <ele>106.6</ele>
        <time>2022-01-05T13:42:04.000Z</time>
      </trkpt>
      <trkpt lat="43.43273" lon="6.52854">
        <ele>107.1</ele>
        <time>2022-01-05T13:42:10.000Z</time>
      </trkpt>
      <trkpt lat="43.43274" lon="6.52861">
        <ele>107.6</ele>
        <time>2022-01-05T13:42:16.000Z</time>
      </trkpt>
      <trkpt lat="43.43273" lon="6.52868">
        <ele>108</ele>
        <time>2022-01-05T13:42:21.000Z</time>
      </trkpt>
      <trkpt lat="43.43272" lon="6.52875">
        <ele>108.3</ele>
        <time>2022-01-05T13:42:26.000Z</time>
      </trkpt>
      <trkpt lat="43.43272" lon="6.52882">
        <ele>108.4</ele>
        <time>2022-01-05T13:42:31.000Z</time>
      </trkpt>
      <trkpt lat="43.43274" lon="6.52888">
        <ele>108.7</ele>
        <time>2022-01-05T13:42:37.000Z</time>
      </trkpt>
      <trkpt lat="43.43275" lon="6.52894">
        <ele>109.6</ele>
        <time>2022-01-05T13:42:49.000Z</time>
      </trkpt>
      <trkpt lat="43.43278" lon="6.52898">
        <ele>110</ele>
        <time>2022-01-05T13:42:55.000Z</time>
      </trkpt>
      <trkpt lat="43.43281" lon="6.52905">
        <ele>110.6</ele>
        <time>2022-01-05T13:43:01.000Z</time>
      </trkpt>
      <trkpt lat="43.43284" lon="6.52909">
        <ele>111</ele>
        <time>2022-01-05T13:43:06.000Z</time>
      </trkpt>
      <trkpt lat="43.43288" lon="6.52912">
        <ele>111.4</ele>
        <time>2022-01-05T13:43:12.000Z</time>
      </trkpt>
      <trkpt lat="43.43293" lon="6.52915">
        <ele>111.7</ele>
        <time>2022-01-05T13:43:17.000Z</time>
      </trkpt>
      <trkpt lat="43.43296" lon="6.5292">
        <ele>112.1</ele>
        <time>2022-01-05T13:43:22.000Z</time>
      </trkpt>
      <trkpt lat="43.43298" lon="6.52925">
        <ele>112.5</ele>
        <time>2022-01-05T13:43:26.000Z</time>
      </trkpt>
      <trkpt lat="43.43301" lon="6.5293">
        <ele>112.8</ele>
        <time>2022-01-05T13:43:30.000Z</time>
      </trkpt>
      <trkpt lat="43.43304" lon="6.52936">
        <ele>113.6</ele>
        <time>2022-01-05T13:43:35.000Z</time>
      </trkpt>
      <trkpt lat="43.43306" lon="6.52943">
        <ele>114.3</ele>
        <time>2022-01-05T13:43:40.000Z</time>
      </trkpt>
      <trkpt lat="43.43307" lon="6.5295">
        <ele>114.2</ele>
        <time>2022-01-05T13:43:47.000Z</time>
      </trkpt>
      <trkpt lat="43.43307" lon="6.52957">
        <ele>113.9</ele>
        <time>2022-01-05T13:43:58.000Z</time>
      </trkpt>
      <trkpt lat="43.43308" lon="6.52964">
        <ele>113.9</ele>
        <time>2022-01-05T13:44:04.000Z</time>
      </trkpt>
      <trkpt lat="43.43312" lon="6.52969">
        <ele>114.7</ele>
        <time>2022-01-05T13:44:13.000Z</time>
      </trkpt>
      <trkpt lat="43.43316" lon="6.52972">
        <ele>115.3</ele>
        <time>2022-01-05T13:44:19.000Z</time>
      </trkpt>
      <trkpt lat="43.4332" lon="6.52976">
        <ele>115.8</ele>
        <time>2022-01-05T13:44:24.000Z</time>
      </trkpt>
      <trkpt lat="43.43322" lon="6.52981">
        <ele>116.4</ele>
        <time>2022-01-05T13:44:29.000Z</time>
      </trkpt>
      <trkpt lat="43.43326" lon="6.52986">
        <ele>117</ele>
        <time>2022-01-05T13:44:35.000Z</time>
      </trkpt>
      <trkpt lat="43.4333" lon="6.5299">
        <ele>117.5</ele>
        <time>2022-01-05T13:44:41.000Z</time>
      </trkpt>
      <trkpt lat="43.43334" lon="6.52994">
        <ele>118</ele>
        <time>2022-01-05T13:44:47.000Z</time>
      </trkpt>
      <trkpt lat="43.43337" lon="6.52999">
        <ele>118.3</ele>
        <time>2022-01-05T13:44:52.000Z</time>
      </trkpt>
      <trkpt lat="43.43339" lon="6.53004">
        <ele>118.8</ele>
        <time>2022-01-05T13:44:57.000Z</time>
      </trkpt>
      <trkpt lat="43.43342" lon="6.53011">
        <ele>119.4</ele>
        <time>2022-01-05T13:45:03.000Z</time>
      </trkpt>
      <trkpt lat="43.43344" lon="6.53017">
        <ele>120.2</ele>
        <time>2022-01-05T13:45:08.000Z</time>
      </trkpt>
      <trkpt lat="43.43347" lon="6.53022">
        <ele>120.9</ele>
        <time>2022-01-05T13:45:13.000Z</time>
      </trkpt>
      <trkpt lat="43.43349" lon="6.53028">
        <ele>121.4</ele>
        <time>2022-01-05T13:45:18.000Z</time>
      </trkpt>
      <trkpt lat="43.43352" lon="6.53032">
        <ele>121.7</ele>
        <time>2022-01-05T13:45:23.000Z</time>
      </trkpt>
      <trkpt lat="43.43357" lon="6.53035">
        <ele>121.7</ele>
        <time>2022-01-05T13:45:31.000Z</time>
      </trkpt>
      <trkpt lat="43.43354" lon="6.53029">
        <ele>121.8</ele>
        <time>2022-01-05T13:45:42.000Z</time>
      </trkpt>
      <trkpt lat="43.43352" lon="6.53023">
        <ele>121.8</ele>
        <time>2022-01-05T13:45:49.000Z</time>
      </trkpt>
      <trkpt lat="43.43352" lon="6.53016">
        <ele>121.8</ele>
        <time>2022-01-05T13:45:56.000Z</time>
      </trkpt>
      <trkpt lat="43.4335" lon="6.5301">
        <ele>123.1</ele>
        <time>2022-01-05T13:46:23.000Z</time>
      </trkpt>
      <trkpt lat="43.43347" lon="6.53005">
        <ele>123.5</ele>
        <time>2022-01-05T13:46:29.000Z</time>
      </trkpt>
      <trkpt lat="43.43344" lon="6.53">
        <ele>123.7</ele>
        <time>2022-01-05T13:46:35.000Z</time>
      </trkpt>
      <trkpt lat="43.4334" lon="6.52995">
        <ele>123.7</ele>
        <time>2022-01-05T13:46:42.000Z</time>
      </trkpt>
      <trkpt lat="43.43339" lon="6.52989">
        <ele>123.8</ele>
        <time>2022-01-05T13:46:47.000Z</time>
      </trkpt>
      <trkpt lat="43.43337" lon="6.52983">
        <ele>124</ele>
        <time>2022-01-05T13:46:52.000Z</time>
      </trkpt>
      <trkpt lat="43.43335" lon="6.52977">
        <ele>124.1</ele>
        <time>2022-01-05T13:46:56.000Z</time>
      </trkpt>
      <trkpt lat="43.43334" lon="6.5297">
        <ele>124.2</ele>
        <time>2022-01-05T13:47:00.000Z</time>
      </trkpt>
      <trkpt lat="43.43333" lon="6.52963">
        <ele>124.2</ele>
        <time>2022-01-05T13:47:04.000Z</time>
      </trkpt>
      <trkpt lat="43.43333" lon="6.52956">
        <ele>124.2</ele>
        <time>2022-01-05T13:47:08.000Z</time>
      </trkpt>
      <trkpt lat="43.43332" lon="6.5295">
        <ele>124.2</ele>
        <time>2022-01-05T13:47:12.000Z</time>
      </trkpt>
      <trkpt lat="43.43331" lon="6.52943">
        <ele>124.2</ele>
        <time>2022-01-05T13:47:18.000Z</time>
      </trkpt>
      <trkpt lat="43.43331" lon="6.52936">
        <ele>124.3</ele>
        <time>2022-01-05T13:47:22.000Z</time>
      </trkpt>
      <trkpt lat="43.43331" lon="6.5293">
        <ele>124.3</ele>
        <time>2022-01-05T13:47:26.000Z</time>
      </trkpt>
      <trkpt lat="43.43331" lon="6.52923">
        <ele>124.2</ele>
        <time>2022-01-05T13:47:30.000Z</time>
      </trkpt>
      <trkpt lat="43.43332" lon="6.52917">
        <ele>124.2</ele>
        <time>2022-01-05T13:47:34.000Z</time>
      </trkpt>
      <trkpt lat="43.43332" lon="6.5291">
        <ele>124.2</ele>
        <time>2022-01-05T13:47:38.000Z</time>
      </trkpt>
      <trkpt lat="43.43332" lon="6.52902">
        <ele>124.2</ele>
        <time>2022-01-05T13:47:43.000Z</time>
      </trkpt>
      <trkpt lat="43.43334" lon="6.52896">
        <ele>124.2</ele>
        <time>2022-01-05T13:47:47.000Z</time>
      </trkpt>
      <trkpt lat="43.43335" lon="6.5289">
        <ele>124.3</ele>
        <time>2022-01-05T13:47:52.000Z</time>
      </trkpt>
      <trkpt lat="43.43338" lon="6.52884">
        <ele>124.3</ele>
        <time>2022-01-05T13:47:56.000Z</time>
      </trkpt>
      <trkpt lat="43.43342" lon="6.52878">
        <ele>124.2</ele>
        <time>2022-01-05T13:48:01.000Z</time>
      </trkpt>
      <trkpt lat="43.43346" lon="6.52875">
        <ele>124.1</ele>
        <time>2022-01-05T13:48:05.000Z</time>
      </trkpt>
      <trkpt lat="43.4335" lon="6.52872">
        <ele>124</ele>
        <time>2022-01-05T13:48:09.000Z</time>
      </trkpt>
      <trkpt lat="43.43355" lon="6.52869">
        <ele>123.9</ele>
        <time>2022-01-05T13:48:13.000Z</time>
      </trkpt>
      <trkpt lat="43.43359" lon="6.52867">
        <ele>123.8</ele>
        <time>2022-01-05T13:48:18.000Z</time>
      </trkpt>
      <trkpt lat="43.43363" lon="6.52864">
        <ele>124.1</ele>
        <time>2022-01-05T13:48:23.000Z</time>
      </trkpt>
      <trkpt lat="43.43367" lon="6.52861">
        <ele>124.4</ele>
        <time>2022-01-05T13:48:28.000Z</time>
      </trkpt>
      <trkpt lat="43.43371" lon="6.52856">
        <ele>124.6</ele>
        <time>2022-01-05T13:48:33.000Z</time>
      </trkpt>
      <trkpt lat="43.43375" lon="6.52852">
        <ele>124.8</ele>
        <time>2022-01-05T13:48:38.000Z</time>
      </trkpt>
      <trkpt lat="43.43379" lon="6.52847">
        <ele>125.1</ele>
        <time>2022-01-05T13:48:43.000Z</time>
      </trkpt>
      <trkpt lat="43.43384" lon="6.52845">
        <ele>125.4</ele>
        <time>2022-01-05T13:48:47.000Z</time>
      </trkpt>
      <trkpt lat="43.43388" lon="6.52843">
        <ele>125.7</ele>
        <time>2022-01-05T13:48:51.000Z</time>
      </trkpt>
      <trkpt lat="43.43393" lon="6.52841">
        <ele>126</ele>
        <time>2022-01-05T13:48:56.000Z</time>
      </trkpt>
      <trkpt lat="43.43398" lon="6.52839">
        <ele>126.3</ele>
        <time>2022-01-05T13:49:02.000Z</time>
      </trkpt>
      <trkpt lat="43.43403" lon="6.52839">
        <ele>126.5</ele>
        <time>2022-01-05T13:49:07.000Z</time>
      </trkpt>
      <trkpt lat="43.43407" lon="6.52837">
        <ele>126.7</ele>
        <time>2022-01-05T13:49:13.000Z</time>
      </trkpt>
      <trkpt lat="43.43412" lon="6.52838">
        <ele>126.9</ele>
        <time>2022-01-05T13:49:18.000Z</time>
      </trkpt>
      <trkpt lat="43.43417" lon="6.52837">
        <ele>127.2</ele>
        <time>2022-01-05T13:49:25.000Z</time>
      </trkpt>
      <trkpt lat="43.43422" lon="6.52837">
        <ele>127.5</ele>
        <time>2022-01-05T13:49:30.000Z</time>
      </trkpt>
      <trkpt lat="43.43427" lon="6.52837">
        <ele>127.7</ele>
        <time>2022-01-05T13:49:35.000Z</time>
      </trkpt>
      <trkpt lat="43.43432" lon="6.52836">
        <ele>127.9</ele>
        <time>2022-01-05T13:49:41.000Z</time>
      </trkpt>
      <trkpt lat="43.43436" lon="6.52833">
        <ele>128.6</ele>
        <time>2022-01-05T13:49:46.000Z</time>
      </trkpt>
      <trkpt lat="43.4344" lon="6.52829">
        <ele>129.1</ele>
        <time>2022-01-05T13:49:51.000Z</time>
      </trkpt>
      <trkpt lat="43.43444" lon="6.52826">
        <ele>129.5</ele>
        <time>2022-01-05T13:49:56.000Z</time>
      </trkpt>
      <trkpt lat="43.43448" lon="6.52821">
        <ele>129.8</ele>
        <time>2022-01-05T13:50:02.000Z</time>
      </trkpt>
      <trkpt lat="43.43452" lon="6.52817">
        <ele>130.1</ele>
        <time>2022-01-05T13:50:07.000Z</time>
      </trkpt>
      <trkpt lat="43.43457" lon="6.52813">
        <ele>130.4</ele>
        <time>2022-01-05T13:50:12.000Z</time>
      </trkpt>
      <trkpt lat="43.4346" lon="6.52808">
        <ele>130.7</ele>
        <time>2022-01-05T13:50:18.000Z</time>
      </trkpt>
      <trkpt lat="43.43463" lon="6.52802">
        <ele>130.8</ele>
        <time>2022-01-05T13:50:23.000Z</time>
      </trkpt>
      <trkpt lat="43.43467" lon="6.52798">
        <ele>130.8</ele>
        <time>2022-01-05T13:50:28.000Z</time>
      </trkpt>
      <trkpt lat="43.43472" lon="6.52794">
        <ele>131.2</ele>
        <time>2022-01-05T13:50:33.000Z</time>
      </trkpt>
      <trkpt lat="43.43475" lon="6.52789">
        <ele>131.8</ele>
        <time>2022-01-05T13:50:39.000Z</time>
      </trkpt>
      <trkpt lat="43.43478" lon="6.52785">
        <ele>132.1</ele>
        <time>2022-01-05T13:50:44.000Z</time>
      </trkpt>
      <trkpt lat="43.43482" lon="6.5278">
        <ele>132.4</ele>
        <time>2022-01-05T13:50:49.000Z</time>
      </trkpt>
      <trkpt lat="43.43486" lon="6.52777">
        <ele>132.9</ele>
        <time>2022-01-05T13:50:54.000Z</time>
      </trkpt>
      <trkpt lat="43.4349" lon="6.52773">
        <ele>133.4</ele>
        <time>2022-01-05T13:50:59.000Z</time>
      </trkpt>
      <trkpt lat="43.43495" lon="6.52771">
        <ele>133.8</ele>
        <time>2022-01-05T13:51:05.000Z</time>
      </trkpt>
      <trkpt lat="43.435" lon="6.52772">
        <ele>134.2</ele>
        <time>2022-01-05T13:51:12.000Z</time>
      </trkpt>
      <trkpt lat="43.43504" lon="6.52772">
        <ele>134.8</ele>
        <time>2022-01-05T13:51:17.000Z</time>
      </trkpt>
      <trkpt lat="43.43509" lon="6.52771">
        <ele>135.2</ele>
        <time>2022-01-05T13:51:22.000Z</time>
      </trkpt>
      <trkpt lat="43.43513" lon="6.52768">
        <ele>135.5</ele>
        <time>2022-01-05T13:51:29.000Z</time>
      </trkpt>
      <trkpt lat="43.43517" lon="6.52763">
        <ele>135.5</ele>
        <time>2022-01-05T13:51:35.000Z</time>
      </trkpt>
      <trkpt lat="43.43522" lon="6.52762">
        <ele>135.4</ele>
        <time>2022-01-05T13:51:40.000Z</time>
      </trkpt>
      <trkpt lat="43.43527" lon="6.52764">
        <ele>135.3</ele>
        <time>2022-01-05T13:51:46.000Z</time>
      </trkpt>
      <trkpt lat="43.43532" lon="6.52767">
        <ele>135.5</ele>
        <time>2022-01-05T13:51:51.000Z</time>
      </trkpt>
      <trkpt lat="43.43537" lon="6.5277">
        <ele>135.7</ele>
        <time>2022-01-05T13:51:56.000Z</time>
      </trkpt>
      <trkpt lat="43.43541" lon="6.52772">
        <ele>136</ele>
        <time>2022-01-05T13:52:01.000Z</time>
      </trkpt>
      <trkpt lat="43.43545" lon="6.52775">
        <ele>136.3</ele>
        <time>2022-01-05T13:52:06.000Z</time>
      </trkpt>
      <trkpt lat="43.4355" lon="6.5278">
        <ele>136.6</ele>
        <time>2022-01-05T13:52:12.000Z</time>
      </trkpt>
      <trkpt lat="43.43553" lon="6.52784">
        <ele>136.8</ele>
        <time>2022-01-05T13:52:19.000Z</time>
      </trkpt>
      <trkpt lat="43.43558" lon="6.52786">
        <ele>137</ele>
        <time>2022-01-05T13:52:25.000Z</time>
      </trkpt>
      <trkpt lat="43.43562" lon="6.52789">
        <ele>137.3</ele>
        <time>2022-01-05T13:52:30.000Z</time>
      </trkpt>
      <trkpt lat="43.43567" lon="6.52793">
        <ele>137.8</ele>
        <time>2022-01-05T13:52:35.000Z</time>
      </trkpt>
      <trkpt lat="43.43571" lon="6.52795">
        <ele>138.2</ele>
        <time>2022-01-05T13:52:41.000Z</time>
      </trkpt>
      <trkpt lat="43.43577" lon="6.52795">
        <ele>138.1</ele>
        <time>2022-01-05T13:52:47.000Z</time>
      </trkpt>
      <trkpt lat="43.43581" lon="6.52794">
        <ele>138</ele>
        <time>2022-01-05T13:52:52.000Z</time>
      </trkpt>
      <trkpt lat="43.43586" lon="6.52796">
        <ele>138.1</ele>
        <time>2022-01-05T13:52:56.000Z</time>
      </trkpt>
      <trkpt lat="43.43591" lon="6.52799">
        <ele>138.3</ele>
        <time>2022-01-05T13:53:01.000Z</time>
      </trkpt>
      <trkpt lat="43.43596" lon="6.52799">
        <ele>138.2</ele>
        <time>2022-01-05T13:53:06.000Z</time>
      </trkpt>
      <trkpt lat="43.43601" lon="6.52797">
        <ele>137.9</ele>
        <time>2022-01-05T13:53:11.000Z</time>
      </trkpt>
      <trkpt lat="43.43605" lon="6.52794">
        <ele>137.3</ele>
        <time>2022-01-05T13:53:17.000Z</time>
      </trkpt>
      <trkpt lat="43.43609" lon="6.52794">
        <ele>137</ele>
        <time>2022-01-05T13:53:21.000Z</time>
      </trkpt>
      <trkpt lat="43.43614" lon="6.52794">
        <ele>136.7</ele>
        <time>2022-01-05T13:53:26.000Z</time>
      </trkpt>
      <trkpt lat="43.43619" lon="6.52792">
        <ele>136.5</ele>
        <time>2022-01-05T13:53:31.000Z</time>
      </trkpt>
      <trkpt lat="43.43623" lon="6.5279">
        <ele>136.5</ele>
        <time>2022-01-05T13:53:36.000Z</time>
      </trkpt>
      <trkpt lat="43.43628" lon="6.52787">
        <ele>136.7</ele>
        <time>2022-01-05T13:53:41.000Z</time>
      </trkpt>
      <trkpt lat="43.43633" lon="6.52786">
        <ele>137.1</ele>
        <time>2022-01-05T13:53:46.000Z</time>
      </trkpt>
      <trkpt lat="43.43638" lon="6.52784">
        <ele>138.1</ele>
        <time>2022-01-05T13:53:51.000Z</time>
      </trkpt>
      <trkpt lat="43.43643" lon="6.52783">
        <ele>139</ele>
        <time>2022-01-05T13:53:56.000Z</time>
      </trkpt>
      <trkpt lat="43.43648" lon="6.52782">
        <ele>139.5</ele>
        <time>2022-01-05T13:54:01.000Z</time>
      </trkpt>
      <trkpt lat="43.43653" lon="6.5278">
        <ele>139.6</ele>
        <time>2022-01-05T13:54:06.000Z</time>
      </trkpt>
      <trkpt lat="43.43658" lon="6.52781">
        <ele>139.7</ele>
        <time>2022-01-05T13:54:10.000Z</time>
      </trkpt>
      <trkpt lat="43.43663" lon="6.52783">
        <ele>139.7</ele>
        <time>2022-01-05T13:54:15.000Z</time>
      </trkpt>
      <trkpt lat="43.43667" lon="6.52784">
        <ele>139.9</ele>
        <time>2022-01-05T13:54:20.000Z</time>
      </trkpt>
      <trkpt lat="43.43672" lon="6.52786">
        <ele>140.5</ele>
        <time>2022-01-05T13:54:25.000Z</time>
      </trkpt>
      <trkpt lat="43.43677" lon="6.52788">
        <ele>141.6</ele>
        <time>2022-01-05T13:54:31.000Z</time>
      </trkpt>
      <trkpt lat="43.43681" lon="6.52791">
        <ele>142.5</ele>
        <time>2022-01-05T13:54:36.000Z</time>
      </trkpt>
      <trkpt lat="43.43686" lon="6.52794">
        <ele>143.1</ele>
        <time>2022-01-05T13:54:40.000Z</time>
      </trkpt>
      <trkpt lat="43.43691" lon="6.52797">
        <ele>143.7</ele>
        <time>2022-01-05T13:54:45.000Z</time>
      </trkpt>
      <trkpt lat="43.43695" lon="6.528">
        <ele>144.2</ele>
        <time>2022-01-05T13:54:51.000Z</time>
      </trkpt>
      <trkpt lat="43.437" lon="6.52804">
        <ele>144.4</ele>
        <time>2022-01-05T13:54:59.000Z</time>
      </trkpt>
      <trkpt lat="43.43705" lon="6.52806">
        <ele>144.7</ele>
        <time>2022-01-05T13:55:04.000Z</time>
      </trkpt>
      <trkpt lat="43.43709" lon="6.52811">
        <ele>145.2</ele>
        <time>2022-01-05T13:55:09.000Z</time>
      </trkpt>
      <trkpt lat="43.43714" lon="6.52813">
        <ele>145.5</ele>
        <time>2022-01-05T13:55:13.000Z</time>
      </trkpt>
      <trkpt lat="43.43718" lon="6.52817">
        <ele>145.9</ele>
        <time>2022-01-05T13:55:17.000Z</time>
      </trkpt>
      <trkpt lat="43.43721" lon="6.52822">
        <ele>146.2</ele>
        <time>2022-01-05T13:55:21.000Z</time>
      </trkpt>
      <trkpt lat="43.43724" lon="6.52828">
        <ele>146.5</ele>
        <time>2022-01-05T13:55:25.000Z</time>
      </trkpt>
      <trkpt lat="43.43725" lon="6.52835">
        <ele>146.9</ele>
        <time>2022-01-05T13:55:29.000Z</time>
      </trkpt>
      <trkpt lat="43.43725" lon="6.52842">
        <ele>147.3</ele>
        <time>2022-01-05T13:55:33.000Z</time>
      </trkpt>
      <trkpt lat="43.43727" lon="6.5285">
        <ele>147.6</ele>
        <time>2022-01-05T13:55:38.000Z</time>
      </trkpt>
      <trkpt lat="43.43727" lon="6.52857">
        <ele>147.8</ele>
        <time>2022-01-05T13:55:42.000Z</time>
      </trkpt>
      <trkpt lat="43.43729" lon="6.52864">
        <ele>148.1</ele>
        <time>2022-01-05T13:55:48.000Z</time>
      </trkpt>
      <trkpt lat="43.43731" lon="6.52869">
        <ele>148.3</ele>
        <time>2022-01-05T13:55:53.000Z</time>
      </trkpt>
      <trkpt lat="43.43732" lon="6.52876">
        <ele>148.6</ele>
        <time>2022-01-05T13:55:59.000Z</time>
      </trkpt>
      <trkpt lat="43.43735" lon="6.52883">
        <ele>148.9</ele>
        <time>2022-01-05T13:56:08.000Z</time>
      </trkpt>
      <trkpt lat="43.43735" lon="6.5289">
        <ele>149.2</ele>
        <time>2022-01-05T13:56:12.000Z</time>
      </trkpt>
      <trkpt lat="43.43735" lon="6.52897">
        <ele>149.7</ele>
        <time>2022-01-05T13:56:18.000Z</time>
      </trkpt>
      <trkpt lat="43.43734" lon="6.52904">
        <ele>150.3</ele>
        <time>2022-01-05T13:56:24.000Z</time>
      </trkpt>
      <trkpt lat="43.43734" lon="6.52911">
        <ele>150.7</ele>
        <time>2022-01-05T13:56:28.000Z</time>
      </trkpt>
      <trkpt lat="43.43735" lon="6.52917">
        <ele>150.9</ele>
        <time>2022-01-05T13:56:32.000Z</time>
      </trkpt>
      <trkpt lat="43.43735" lon="6.52924">
        <ele>151.2</ele>
        <time>2022-01-05T13:56:36.000Z</time>
      </trkpt>
      <trkpt lat="43.43735" lon="6.5293">
        <ele>151.4</ele>
        <time>2022-01-05T13:56:40.000Z</time>
      </trkpt>
      <trkpt lat="43.43733" lon="6.52937">
        <ele>151.9</ele>
        <time>2022-01-05T13:56:44.000Z</time>
      </trkpt>
      <trkpt lat="43.43731" lon="6.52942">
        <ele>152.3</ele>
        <time>2022-01-05T13:56:47.000Z</time>
      </trkpt>
      <trkpt lat="43.43728" lon="6.52949">
        <ele>152.7</ele>
        <time>2022-01-05T13:56:51.000Z</time>
      </trkpt>
      <trkpt lat="43.43728" lon="6.52955">
        <ele>153.2</ele>
        <time>2022-01-05T13:56:56.000Z</time>
      </trkpt>
      <trkpt lat="43.4373" lon="6.52962">
        <ele>153.6</ele>
        <time>2022-01-05T13:57:01.000Z</time>
      </trkpt>
      <trkpt lat="43.4373" lon="6.52968">
        <ele>153.9</ele>
        <time>2022-01-05T13:57:05.000Z</time>
      </trkpt>
      <trkpt lat="43.4373" lon="6.52975">
        <ele>154.1</ele>
        <time>2022-01-05T13:57:09.000Z</time>
      </trkpt>
      <trkpt lat="43.43731" lon="6.52981">
        <ele>154.6</ele>
        <time>2022-01-05T13:57:15.000Z</time>
      </trkpt>
      <trkpt lat="43.43731" lon="6.52988">
        <ele>155</ele>
        <time>2022-01-05T13:57:21.000Z</time>
      </trkpt>
      <trkpt lat="43.43731" lon="6.52994">
        <ele>155.3</ele>
        <time>2022-01-05T13:57:27.000Z</time>
      </trkpt>
      <trkpt lat="43.43734" lon="6.52999">
        <ele>156</ele>
        <time>2022-01-05T13:57:36.000Z</time>
      </trkpt>
      <trkpt lat="43.43738" lon="6.53003">
        <ele>156.3</ele>
        <time>2022-01-05T13:57:42.000Z</time>
      </trkpt>
      <trkpt lat="43.43743" lon="6.53007">
        <ele>156.8</ele>
        <time>2022-01-05T13:57:48.000Z</time>
      </trkpt>
      <trkpt lat="43.43746" lon="6.5301">
        <ele>157.4</ele>
        <time>2022-01-05T13:57:57.000Z</time>
      </trkpt>
      <trkpt lat="43.4375" lon="6.53014">
        <ele>157.8</ele>
        <time>2022-01-05T13:58:03.000Z</time>
      </trkpt>
      <trkpt lat="43.43753" lon="6.53019">
        <ele>158.5</ele>
        <time>2022-01-05T13:58:10.000Z</time>
      </trkpt>
      <trkpt lat="43.43757" lon="6.53023">
        <ele>159</ele>
        <time>2022-01-05T13:58:17.000Z</time>
      </trkpt>
      <trkpt lat="43.43758" lon="6.53029">
        <ele>159.6</ele>
        <time>2022-01-05T13:58:32.000Z</time>
      </trkpt>
      <trkpt lat="43.43759" lon="6.53035">
        <ele>159.7</ele>
        <time>2022-01-05T13:58:47.000Z</time>
      </trkpt>
      <trkpt lat="43.43762" lon="6.53041">
        <ele>159.4</ele>
        <time>2022-01-05T13:58:59.000Z</time>
      </trkpt>
      <trkpt lat="43.43767" lon="6.53042">
        <ele>159.3</ele>
        <time>2022-01-05T13:59:05.000Z</time>
      </trkpt>
      <trkpt lat="43.43771" lon="6.53044">
        <ele>159.3</ele>
        <time>2022-01-05T13:59:10.000Z</time>
      </trkpt>
      <trkpt lat="43.43775" lon="6.53048">
        <ele>159.4</ele>
        <time>2022-01-05T13:59:15.000Z</time>
      </trkpt>
      <trkpt lat="43.43778" lon="6.53052">
        <ele>159.7</ele>
        <time>2022-01-05T13:59:20.000Z</time>
      </trkpt>
      <trkpt lat="43.43783" lon="6.53051">
        <ele>160.1</ele>
        <time>2022-01-05T13:59:27.000Z</time>
      </trkpt>
      <trkpt lat="43.43788" lon="6.53049">
        <ele>160.3</ele>
        <time>2022-01-05T13:59:32.000Z</time>
      </trkpt>
      <trkpt lat="43.43792" lon="6.53049">
        <ele>160.6</ele>
        <time>2022-01-05T13:59:39.000Z</time>
      </trkpt>
      <trkpt lat="43.43797" lon="6.53048">
        <ele>161</ele>
        <time>2022-01-05T13:59:45.000Z</time>
      </trkpt>
      <trkpt lat="43.43801" lon="6.53045">
        <ele>161.2</ele>
        <time>2022-01-05T13:59:50.000Z</time>
      </trkpt>
      <trkpt lat="43.43806" lon="6.53043">
        <ele>161.4</ele>
        <time>2022-01-05T13:59:56.000Z</time>
      </trkpt>
      <trkpt lat="43.4381" lon="6.53043">
        <ele>161.6</ele>
        <time>2022-01-05T14:00:01.000Z</time>
      </trkpt>
      <trkpt lat="43.43815" lon="6.53043">
        <ele>162.1</ele>
        <time>2022-01-05T14:00:06.000Z</time>
      </trkpt>
      <trkpt lat="43.43821" lon="6.53042">
        <ele>162.8</ele>
        <time>2022-01-05T14:00:13.000Z</time>
      </trkpt>
      <trkpt lat="43.43825" lon="6.53043">
        <ele>163.6</ele>
        <time>2022-01-05T14:00:19.000Z</time>
      </trkpt>
      <trkpt lat="43.4383" lon="6.53042">
        <ele>164.8</ele>
        <time>2022-01-05T14:00:26.000Z</time>
      </trkpt>
      <trkpt lat="43.43836" lon="6.53041">
        <ele>165.6</ele>
        <time>2022-01-05T14:00:32.000Z</time>
      </trkpt>
      <trkpt lat="43.4384" lon="6.53038">
        <ele>166.2</ele>
        <time>2022-01-05T14:00:37.000Z</time>
      </trkpt>
      <trkpt lat="43.43844" lon="6.53036">
        <ele>166.8</ele>
        <time>2022-01-05T14:00:43.000Z</time>
      </trkpt>
      <trkpt lat="43.43849" lon="6.53035">
        <ele>167.2</ele>
        <time>2022-01-05T14:00:49.000Z</time>
      </trkpt>
      <trkpt lat="43.43854" lon="6.53034">
        <ele>167.2</ele>
        <time>2022-01-05T14:00:54.000Z</time>
      </trkpt>
      <trkpt lat="43.43859" lon="6.53033">
        <ele>167.1</ele>
        <time>2022-01-05T14:00:59.000Z</time>
      </trkpt>
      <trkpt lat="43.43863" lon="6.53034">
        <ele>167.3</ele>
        <time>2022-01-05T14:01:04.000Z</time>
      </trkpt>
      <trkpt lat="43.43868" lon="6.53034">
        <ele>167.6</ele>
        <time>2022-01-05T14:01:10.000Z</time>
      </trkpt>
      <trkpt lat="43.43874" lon="6.53035">
        <ele>168.4</ele>
        <time>2022-01-05T14:01:17.000Z</time>
      </trkpt>
      <trkpt lat="43.43878" lon="6.53037">
        <ele>168.9</ele>
        <time>2022-01-05T14:01:22.000Z</time>
      </trkpt>
      <trkpt lat="43.43883" lon="6.5304">
        <ele>169.3</ele>
        <time>2022-01-05T14:01:27.000Z</time>
      </trkpt>
      <trkpt lat="43.43888" lon="6.53043">
        <ele>169.5</ele>
        <time>2022-01-05T14:01:32.000Z</time>
      </trkpt>
      <trkpt lat="43.43892" lon="6.53046">
        <ele>169.7</ele>
        <time>2022-01-05T14:01:37.000Z</time>
      </trkpt>
      <trkpt lat="43.43897" lon="6.53048">
        <ele>170</ele>
        <time>2022-01-05T14:01:43.000Z</time>
      </trkpt>
      <trkpt lat="43.43902" lon="6.53048">
        <ele>170.2</ele>
        <time>2022-01-05T14:01:48.000Z</time>
      </trkpt>
      <trkpt lat="43.43908" lon="6.53049">
        <ele>170.3</ele>
        <time>2022-01-05T14:01:53.000Z</time>
      </trkpt>
      <trkpt lat="43.43912" lon="6.53052">
        <ele>170.3</ele>
        <time>2022-01-05T14:01:58.000Z</time>
      </trkpt>
      <trkpt lat="43.43916" lon="6.53056">
        <ele>170.4</ele>
        <time>2022-01-05T14:02:04.000Z</time>
      </trkpt>
      <trkpt lat="43.4392" lon="6.53059">
        <ele>170.5</ele>
        <time>2022-01-05T14:02:09.000Z</time>
      </trkpt>
      <trkpt lat="43.43925" lon="6.53061">
        <ele>171.1</ele>
        <time>2022-01-05T14:02:15.000Z</time>
      </trkpt>
      <trkpt lat="43.4393" lon="6.53063">
        <ele>171.6</ele>
        <time>2022-01-05T14:02:24.000Z</time>
      </trkpt>
      <trkpt lat="43.43934" lon="6.53066">
        <ele>171.9</ele>
        <time>2022-01-05T14:02:34.000Z</time>
      </trkpt>
      <trkpt lat="43.43938" lon="6.53069">
        <ele>172.1</ele>
        <time>2022-01-05T14:02:39.000Z</time>
      </trkpt>
      <trkpt lat="43.43943" lon="6.53072">
        <ele>172.7</ele>
        <time>2022-01-05T14:02:45.000Z</time>
      </trkpt>
      <trkpt lat="43.43948" lon="6.53076">
        <ele>173.4</ele>
        <time>2022-01-05T14:02:51.000Z</time>
      </trkpt>
      <trkpt lat="43.43952" lon="6.5308">
        <ele>174.4</ele>
        <time>2022-01-05T14:02:56.000Z</time>
      </trkpt>
      <trkpt lat="43.43956" lon="6.53083">
        <ele>175.2</ele>
        <time>2022-01-05T14:03:00.000Z</time>
      </trkpt>
      <trkpt lat="43.4396" lon="6.53087">
        <ele>175.7</ele>
        <time>2022-01-05T14:03:03.000Z</time>
      </trkpt>
      <trkpt lat="43.43963" lon="6.53092">
        <ele>176.3</ele>
        <time>2022-01-05T14:03:08.000Z</time>
      </trkpt>
      <trkpt lat="43.43966" lon="6.53098">
        <ele>176.7</ele>
        <time>2022-01-05T14:03:13.000Z</time>
      </trkpt>
      <trkpt lat="43.43969" lon="6.53104">
        <ele>177</ele>
        <time>2022-01-05T14:03:18.000Z</time>
      </trkpt>
      <trkpt lat="43.4397" lon="6.5311">
        <ele>179.2</ele>
        <time>2022-01-05T14:04:08.000Z</time>
      </trkpt>
      <trkpt lat="43.43967" lon="6.53114">
        <ele>180.9</ele>
        <time>2022-01-05T14:08:57.000Z</time>
      </trkpt>
      <trkpt lat="43.43964" lon="6.53119">
        <ele>180.7</ele>
        <time>2022-01-05T14:09:02.000Z</time>
      </trkpt>
      <trkpt lat="43.43962" lon="6.53125">
        <ele>180.9</ele>
        <time>2022-01-05T14:09:08.000Z</time>
      </trkpt>
      <trkpt lat="43.4396" lon="6.53131">
        <ele>181.2</ele>
        <time>2022-01-05T14:09:13.000Z</time>
      </trkpt>
      <trkpt lat="43.43957" lon="6.53137">
        <ele>181.3</ele>
        <time>2022-01-05T14:09:18.000Z</time>
      </trkpt>
      <trkpt lat="43.43955" lon="6.53143">
        <ele>181.3</ele>
        <time>2022-01-05T14:09:23.000Z</time>
      </trkpt>
      <trkpt lat="43.43952" lon="6.53149">
        <ele>181.3</ele>
        <time>2022-01-05T14:09:28.000Z</time>
      </trkpt>
      <trkpt lat="43.4395" lon="6.53155">
        <ele>181.4</ele>
        <time>2022-01-05T14:09:33.000Z</time>
      </trkpt>
      <trkpt lat="43.43947" lon="6.53161">
        <ele>181.6</ele>
        <time>2022-01-05T14:09:37.000Z</time>
      </trkpt>
      <trkpt lat="43.43945" lon="6.53168">
        <ele>181.8</ele>
        <time>2022-01-05T14:09:42.000Z</time>
      </trkpt>
      <trkpt lat="43.43943" lon="6.53173">
        <ele>181.9</ele>
        <time>2022-01-05T14:09:46.000Z</time>
      </trkpt>
      <trkpt lat="43.43943" lon="6.5318">
        <ele>182.5</ele>
        <time>2022-01-05T14:10:13.000Z</time>
      </trkpt>
      <trkpt lat="43.43941" lon="6.53186">
        <ele>182.6</ele>
        <time>2022-01-05T14:10:20.000Z</time>
      </trkpt>
      <trkpt lat="43.43938" lon="6.53191">
        <ele>182.8</ele>
        <time>2022-01-05T14:10:25.000Z</time>
      </trkpt>
      <trkpt lat="43.43936" lon="6.53198">
        <ele>182.8</ele>
        <time>2022-01-05T14:10:30.000Z</time>
      </trkpt>
      <trkpt lat="43.43934" lon="6.53205">
        <ele>182.7</ele>
        <time>2022-01-05T14:10:35.000Z</time>
      </trkpt>
      <trkpt lat="43.43933" lon="6.53211">
        <ele>182.7</ele>
        <time>2022-01-05T14:10:39.000Z</time>
      </trkpt>
      <trkpt lat="43.43931" lon="6.53217">
        <ele>182.5</ele>
        <time>2022-01-05T14:10:44.000Z</time>
      </trkpt>
      <trkpt lat="43.43929" lon="6.53224">
        <ele>182.6</ele>
        <time>2022-01-05T14:10:49.000Z</time>
      </trkpt>
      <trkpt lat="43.43927" lon="6.53229">
        <ele>182.9</ele>
        <time>2022-01-05T14:10:53.000Z</time>
      </trkpt>
      <trkpt lat="43.43924" lon="6.53235">
        <ele>184.1</ele>
        <time>2022-01-05T14:11:02.000Z</time>
      </trkpt>
      <trkpt lat="43.43921" lon="6.53241">
        <ele>183.7</ele>
        <time>2022-01-05T14:11:09.000Z</time>
      </trkpt>
      <trkpt lat="43.43918" lon="6.53247">
        <ele>183.7</ele>
        <time>2022-01-05T14:11:13.000Z</time>
      </trkpt>
      <trkpt lat="43.43915" lon="6.53252">
        <ele>183.5</ele>
        <time>2022-01-05T14:11:23.000Z</time>
      </trkpt>
      <trkpt lat="43.43912" lon="6.53257">
        <ele>183.5</ele>
        <time>2022-01-05T14:11:27.000Z</time>
      </trkpt>
      <trkpt lat="43.43908" lon="6.53262">
        <ele>183.5</ele>
        <time>2022-01-05T14:11:32.000Z</time>
      </trkpt>
      <trkpt lat="43.43904" lon="6.53266">
        <ele>183.9</ele>
        <time>2022-01-05T14:11:36.000Z</time>
      </trkpt>
      <trkpt lat="43.43901" lon="6.53271">
        <ele>184.1</ele>
        <time>2022-01-05T14:11:40.000Z</time>
      </trkpt>
      <trkpt lat="43.43897" lon="6.53275">
        <ele>184.2</ele>
        <time>2022-01-05T14:11:43.000Z</time>
      </trkpt>
      <trkpt lat="43.43893" lon="6.53277">
        <ele>184.2</ele>
        <time>2022-01-05T14:11:48.000Z</time>
      </trkpt>
      <trkpt lat="43.43889" lon="6.53282">
        <ele>184.5</ele>
        <time>2022-01-05T14:11:55.000Z</time>
      </trkpt>
      <trkpt lat="43.43884" lon="6.53287">
        <ele>184.5</ele>
        <time>2022-01-05T14:11:59.000Z</time>
      </trkpt>
      <trkpt lat="43.4388" lon="6.53291">
        <ele>184.5</ele>
        <time>2022-01-05T14:12:03.000Z</time>
      </trkpt>
      <trkpt lat="43.43876" lon="6.53295">
        <ele>184.9</ele>
        <time>2022-01-05T14:12:07.000Z</time>
      </trkpt>
      <trkpt lat="43.43871" lon="6.53298">
        <ele>185.1</ele>
        <time>2022-01-05T14:12:11.000Z</time>
      </trkpt>
      <trkpt lat="43.43867" lon="6.53302">
        <ele>185.4</ele>
        <time>2022-01-05T14:12:16.000Z</time>
      </trkpt>
      <trkpt lat="43.43862" lon="6.53306">
        <ele>185.6</ele>
        <time>2022-01-05T14:12:20.000Z</time>
      </trkpt>
      <trkpt lat="43.43858" lon="6.5331">
        <ele>185.8</ele>
        <time>2022-01-05T14:12:24.000Z</time>
      </trkpt>
      <trkpt lat="43.43853" lon="6.53312">
        <ele>186.4</ele>
        <time>2022-01-05T14:12:30.000Z</time>
      </trkpt>
      <trkpt lat="43.43849" lon="6.53313">
        <ele>186.8</ele>
        <time>2022-01-05T14:12:35.000Z</time>
      </trkpt>
      <trkpt lat="43.43844" lon="6.53314">
        <ele>187.3</ele>
        <time>2022-01-05T14:12:45.000Z</time>
      </trkpt>
      <trkpt lat="43.43838" lon="6.53317">
        <ele>187.5</ele>
        <time>2022-01-05T14:12:51.000Z</time>
      </trkpt>
      <trkpt lat="43.43834" lon="6.53321">
        <ele>187.6</ele>
        <time>2022-01-05T14:12:55.000Z</time>
      </trkpt>
      <trkpt lat="43.43829" lon="6.53324">
        <ele>187.5</ele>
        <time>2022-01-05T14:13:01.000Z</time>
      </trkpt>
      <trkpt lat="43.43825" lon="6.53327">
        <ele>187.5</ele>
        <time>2022-01-05T14:13:06.000Z</time>
      </trkpt>
      <trkpt lat="43.4382" lon="6.5333">
        <ele>187.8</ele>
        <time>2022-01-05T14:13:13.000Z</time>
      </trkpt>
      <trkpt lat="43.43815" lon="6.53333">
        <ele>188.3</ele>
        <time>2022-01-05T14:13:18.000Z</time>
      </trkpt>
      <trkpt lat="43.43812" lon="6.53336">
        <ele>188.6</ele>
        <time>2022-01-05T14:13:21.000Z</time>
      </trkpt>
      <trkpt lat="43.43807" lon="6.53339">
        <ele>189.1</ele>
        <time>2022-01-05T14:13:25.000Z</time>
      </trkpt>
      <trkpt lat="43.43803" lon="6.53343">
        <ele>189.7</ele>
        <time>2022-01-05T14:13:32.000Z</time>
      </trkpt>
      <trkpt lat="43.43798" lon="6.53347">
        <ele>190.3</ele>
        <time>2022-01-05T14:13:38.000Z</time>
      </trkpt>
      <trkpt lat="43.43795" lon="6.53352">
        <ele>190.8</ele>
        <time>2022-01-05T14:13:41.000Z</time>
      </trkpt>
      <trkpt lat="43.43792" lon="6.53356">
        <ele>191.4</ele>
        <time>2022-01-05T14:13:45.000Z</time>
      </trkpt>
      <trkpt lat="43.43787" lon="6.53361">
        <ele>192</ele>
        <time>2022-01-05T14:13:50.000Z</time>
      </trkpt>
      <trkpt lat="43.43783" lon="6.53365">
        <ele>192</ele>
        <time>2022-01-05T14:13:55.000Z</time>
      </trkpt>
      <trkpt lat="43.43779" lon="6.53369">
        <ele>191.7</ele>
        <time>2022-01-05T14:14:00.000Z</time>
      </trkpt>
      <trkpt lat="43.43774" lon="6.53373">
        <ele>191.6</ele>
        <time>2022-01-05T14:14:04.000Z</time>
      </trkpt>
      <trkpt lat="43.43769" lon="6.53376">
        <ele>191.5</ele>
        <time>2022-01-05T14:14:08.000Z</time>
      </trkpt>
      <trkpt lat="43.43764" lon="6.53378">
        <ele>191.1</ele>
        <time>2022-01-05T14:14:11.000Z</time>
      </trkpt>
      <trkpt lat="43.4376" lon="6.5338">
        <ele>190.6</ele>
        <time>2022-01-05T14:14:15.000Z</time>
      </trkpt>
      <trkpt lat="43.43755" lon="6.53379">
        <ele>190.3</ele>
        <time>2022-01-05T14:14:18.000Z</time>
      </trkpt>
      <trkpt lat="43.4375" lon="6.53379">
        <ele>190.3</ele>
        <time>2022-01-05T14:14:21.000Z</time>
      </trkpt>
      <trkpt lat="43.43746" lon="6.53377">
        <ele>190.8</ele>
        <time>2022-01-05T14:14:25.000Z</time>
      </trkpt>
      <trkpt lat="43.43741" lon="6.53374">
        <ele>191</ele>
        <time>2022-01-05T14:14:28.000Z</time>
      </trkpt>
      <trkpt lat="43.43736" lon="6.53372">
        <ele>191.1</ele>
        <time>2022-01-05T14:14:32.000Z</time>
      </trkpt>
      <trkpt lat="43.43732" lon="6.5337">
        <ele>191.1</ele>
        <time>2022-01-05T14:14:35.000Z</time>
      </trkpt>
      <trkpt lat="43.43728" lon="6.53367">
        <ele>191</ele>
        <time>2022-01-05T14:14:38.000Z</time>
      </trkpt>
      <trkpt lat="43.43723" lon="6.53365">
        <ele>190.8</ele>
        <time>2022-01-05T14:14:41.000Z</time>
      </trkpt>
      <trkpt lat="43.43718" lon="6.53363">
        <ele>190.2</ele>
        <time>2022-01-05T14:14:45.000Z</time>
      </trkpt>
      <trkpt lat="43.43712" lon="6.53361">
        <ele>189.7</ele>
        <time>2022-01-05T14:14:49.000Z</time>
      </trkpt>
      <trkpt lat="43.43707" lon="6.53359">
        <ele>189.2</ele>
        <time>2022-01-05T14:14:53.000Z</time>
      </trkpt>
      <trkpt lat="43.43702" lon="6.53355">
        <ele>188</ele>
        <time>2022-01-05T14:14:57.000Z</time>
      </trkpt>
      <trkpt lat="43.43698" lon="6.53353">
        <ele>188.8</ele>
        <time>2022-01-05T14:15:02.000Z</time>
      </trkpt>
      <trkpt lat="43.43694" lon="6.53351">
        <ele>188.7</ele>
        <time>2022-01-05T14:15:13.000Z</time>
      </trkpt>
      <trkpt lat="43.43689" lon="6.53349">
        <ele>188.8</ele>
        <time>2022-01-05T14:15:19.000Z</time>
      </trkpt>
      <trkpt lat="43.43684" lon="6.53351">
        <ele>188.9</ele>
        <time>2022-01-05T14:15:24.000Z</time>
      </trkpt>
      <trkpt lat="43.43678" lon="6.53353">
        <ele>189</ele>
        <time>2022-01-05T14:15:28.000Z</time>
      </trkpt>
      <trkpt lat="43.43673" lon="6.53355">
        <ele>189.3</ele>
        <time>2022-01-05T14:15:32.000Z</time>
      </trkpt>
      <trkpt lat="43.43668" lon="6.53356">
        <ele>189.8</ele>
        <time>2022-01-05T14:15:37.000Z</time>
      </trkpt>
      <trkpt lat="43.43663" lon="6.53357">
        <ele>190.2</ele>
        <time>2022-01-05T14:15:42.000Z</time>
      </trkpt>
      <trkpt lat="43.43658" lon="6.53359">
        <ele>190.4</ele>
        <time>2022-01-05T14:15:46.000Z</time>
      </trkpt>
      <trkpt lat="43.43653" lon="6.5336">
        <ele>190.6</ele>
        <time>2022-01-05T14:15:51.000Z</time>
      </trkpt>
      <trkpt lat="43.43647" lon="6.53362">
        <ele>191.1</ele>
        <time>2022-01-05T14:15:56.000Z</time>
      </trkpt>
      <trkpt lat="43.43641" lon="6.53363">
        <ele>191.5</ele>
        <time>2022-01-05T14:16:01.000Z</time>
      </trkpt>
      <trkpt lat="43.43637" lon="6.53362">
        <ele>192.1</ele>
        <time>2022-01-05T14:16:08.000Z</time>
      </trkpt>
      <trkpt lat="43.43632" lon="6.53364">
        <ele>192.9</ele>
        <time>2022-01-05T14:16:16.000Z</time>
      </trkpt>
      <trkpt lat="43.43628" lon="6.53366">
        <ele>193.6</ele>
        <time>2022-01-05T14:16:34.000Z</time>
      </trkpt>
      <trkpt lat="43.43623" lon="6.53368">
        <ele>193.9</ele>
        <time>2022-01-05T14:16:50.000Z</time>
      </trkpt>
      <trkpt lat="43.43618" lon="6.53369">
        <ele>194.6</ele>
        <time>2022-01-05T14:16:57.000Z</time>
      </trkpt>
      <trkpt lat="43.43613" lon="6.53369">
        <ele>195</ele>
        <time>2022-01-05T14:17:02.000Z</time>
      </trkpt>
      <trkpt lat="43.43608" lon="6.5337">
        <ele>195.4</ele>
        <time>2022-01-05T14:17:07.000Z</time>
      </trkpt>
      <trkpt lat="43.43603" lon="6.53371">
        <ele>195.7</ele>
        <time>2022-01-05T14:17:12.000Z</time>
      </trkpt>
      <trkpt lat="43.43598" lon="6.53372">
        <ele>196.1</ele>
        <time>2022-01-05T14:17:17.000Z</time>
      </trkpt>
      <trkpt lat="43.43593" lon="6.53373">
        <ele>196.5</ele>
        <time>2022-01-05T14:17:22.000Z</time>
      </trkpt>
      <trkpt lat="43.43588" lon="6.53376">
        <ele>196.7</ele>
        <time>2022-01-05T14:17:26.000Z</time>
      </trkpt>
      <trkpt lat="43.43583" lon="6.53377">
        <ele>197</ele>
        <time>2022-01-05T14:17:31.000Z</time>
      </trkpt>
      <trkpt lat="43.43578" lon="6.53381">
        <ele>197.4</ele>
        <time>2022-01-05T14:17:35.000Z</time>
      </trkpt>
      <trkpt lat="43.43573" lon="6.53382">
        <ele>198.1</ele>
        <time>2022-01-05T14:17:40.000Z</time>
      </trkpt>
      <trkpt lat="43.43569" lon="6.53382">
        <ele>198.9</ele>
        <time>2022-01-05T14:17:45.000Z</time>
      </trkpt>
      <trkpt lat="43.43563" lon="6.53384">
        <ele>200.1</ele>
        <time>2022-01-05T14:17:50.000Z</time>
      </trkpt>
      <trkpt lat="43.43558" lon="6.53387">
        <ele>200.7</ele>
        <time>2022-01-05T14:17:53.000Z</time>
      </trkpt>
      <trkpt lat="43.43553" lon="6.53389">
        <ele>201.2</ele>
        <time>2022-01-05T14:17:57.000Z</time>
      </trkpt>
      <trkpt lat="43.43548" lon="6.53388">
        <ele>201.8</ele>
        <time>2022-01-05T14:18:01.000Z</time>
      </trkpt>
      <trkpt lat="43.43544" lon="6.53384">
        <ele>202.9</ele>
        <time>2022-01-05T14:18:07.000Z</time>
      </trkpt>
      <trkpt lat="43.43541" lon="6.5338">
        <ele>201.7</ele>
        <time>2022-01-05T14:18:26.000Z</time>
      </trkpt>
      <trkpt lat="43.43538" lon="6.53374">
        <ele>201.3</ele>
        <time>2022-01-05T14:19:29.000Z</time>
      </trkpt>
      <trkpt lat="43.43534" lon="6.53373">
        <ele>200.8</ele>
        <time>2022-01-05T14:19:34.000Z</time>
      </trkpt>
      <trkpt lat="43.43529" lon="6.53373">
        <ele>200.4</ele>
        <time>2022-01-05T14:19:39.000Z</time>
      </trkpt>
      <trkpt lat="43.43524" lon="6.53375">
        <ele>199.8</ele>
        <time>2022-01-05T14:19:44.000Z</time>
      </trkpt>
      <trkpt lat="43.43519" lon="6.53374">
        <ele>199.2</ele>
        <time>2022-01-05T14:19:49.000Z</time>
      </trkpt>
      <trkpt lat="43.43514" lon="6.53374">
        <ele>198.7</ele>
        <time>2022-01-05T14:19:54.000Z</time>
      </trkpt>
      <trkpt lat="43.43509" lon="6.53373">
        <ele>198.4</ele>
        <time>2022-01-05T14:19:58.000Z</time>
      </trkpt>
      <trkpt lat="43.43504" lon="6.53374">
        <ele>198.1</ele>
        <time>2022-01-05T14:20:03.000Z</time>
      </trkpt>
      <trkpt lat="43.43499" lon="6.53374">
        <ele>197.6</ele>
        <time>2022-01-05T14:20:07.000Z</time>
      </trkpt>
      <trkpt lat="43.43494" lon="6.53375">
        <ele>197</ele>
        <time>2022-01-05T14:20:11.000Z</time>
      </trkpt>
      <trkpt lat="43.43489" lon="6.53376">
        <ele>196.1</ele>
        <time>2022-01-05T14:20:16.000Z</time>
      </trkpt>
      <trkpt lat="43.43484" lon="6.53378">
        <ele>195.3</ele>
        <time>2022-01-05T14:20:19.000Z</time>
      </trkpt>
      <trkpt lat="43.43479" lon="6.53379">
        <ele>194.4</ele>
        <time>2022-01-05T14:20:22.000Z</time>
      </trkpt>
      <trkpt lat="43.43474" lon="6.53379">
        <ele>194</ele>
        <time>2022-01-05T14:20:26.000Z</time>
      </trkpt>
      <trkpt lat="43.43469" lon="6.5338">
        <ele>193.6</ele>
        <time>2022-01-05T14:20:30.000Z</time>
      </trkpt>
      <trkpt lat="43.43464" lon="6.5338">
        <ele>192.7</ele>
        <time>2022-01-05T14:20:35.000Z</time>
      </trkpt>
      <trkpt lat="43.43458" lon="6.53381">
        <ele>191.9</ele>
        <time>2022-01-05T14:20:40.000Z</time>
      </trkpt>
      <trkpt lat="43.43454" lon="6.53383">
        <ele>191.4</ele>
        <time>2022-01-05T14:20:44.000Z</time>
      </trkpt>
      <trkpt lat="43.43442" lon="6.53386">
        <ele>189</ele>
        <time>2022-01-05T14:20:55.000Z</time>
      </trkpt>
      <trkpt lat="43.43435" lon="6.53389">
        <ele>188.2</ele>
        <time>2022-01-05T14:21:00.000Z</time>
      </trkpt>
      <trkpt lat="43.4343" lon="6.53388">
        <ele>187</ele>
        <time>2022-01-05T14:21:05.000Z</time>
      </trkpt>
      <trkpt lat="43.43425" lon="6.53389">
        <ele>186.6</ele>
        <time>2022-01-05T14:21:08.000Z</time>
      </trkpt>
      <trkpt lat="43.4342" lon="6.53388">
        <ele>186.3</ele>
        <time>2022-01-05T14:21:11.000Z</time>
      </trkpt>
      <trkpt lat="43.43415" lon="6.53385">
        <ele>186.1</ele>
        <time>2022-01-05T14:21:15.000Z</time>
      </trkpt>
      <trkpt lat="43.43411" lon="6.53381">
        <ele>185.8</ele>
        <time>2022-01-05T14:21:19.000Z</time>
      </trkpt>
      <trkpt lat="43.43406" lon="6.5338">
        <ele>185.3</ele>
        <time>2022-01-05T14:21:24.000Z</time>
      </trkpt>
      <trkpt lat="43.43402" lon="6.53377">
        <ele>184.5</ele>
        <time>2022-01-05T14:21:29.000Z</time>
      </trkpt>
      <trkpt lat="43.43397" lon="6.53375">
        <ele>183.9</ele>
        <time>2022-01-05T14:21:33.000Z</time>
      </trkpt>
      <trkpt lat="43.43392" lon="6.53373">
        <ele>183.4</ele>
        <time>2022-01-05T14:21:38.000Z</time>
      </trkpt>
      <trkpt lat="43.43387" lon="6.53373">
        <ele>183.5</ele>
        <time>2022-01-05T14:21:42.000Z</time>
      </trkpt>
      <trkpt lat="43.43382" lon="6.53374">
        <ele>183.8</ele>
        <time>2022-01-05T14:21:47.000Z</time>
      </trkpt>
      <trkpt lat="43.43376" lon="6.53375">
        <ele>184</ele>
        <time>2022-01-05T14:21:51.000Z</time>
      </trkpt>
      <trkpt lat="43.43371" lon="6.53376">
        <ele>184</ele>
        <time>2022-01-05T14:21:55.000Z</time>
      </trkpt>
      <trkpt lat="43.43366" lon="6.53377">
        <ele>183.6</ele>
        <time>2022-01-05T14:22:00.000Z</time>
      </trkpt>
      <trkpt lat="43.43362" lon="6.53373">
        <ele>183.3</ele>
        <time>2022-01-05T14:22:07.000Z</time>
      </trkpt>
      <trkpt lat="43.43362" lon="6.53366">
        <ele>183.3</ele>
        <time>2022-01-05T14:22:13.000Z</time>
      </trkpt>
      <trkpt lat="43.43364" lon="6.5336">
        <ele>183.7</ele>
        <time>2022-01-05T14:22:17.000Z</time>
      </trkpt>
      <trkpt lat="43.43368" lon="6.53355">
        <ele>183.4</ele>
        <time>2022-01-05T14:22:23.000Z</time>
      </trkpt>
      <trkpt lat="43.43371" lon="6.53349">
        <ele>182.7</ele>
        <time>2022-01-05T14:22:30.000Z</time>
      </trkpt>
      <trkpt lat="43.43373" lon="6.53343">
        <ele>182.3</ele>
        <time>2022-01-05T14:22:34.000Z</time>
      </trkpt>
      <trkpt lat="43.43375" lon="6.53336">
        <ele>181.8</ele>
        <time>2022-01-05T14:22:37.000Z</time>
      </trkpt>
      <trkpt lat="43.43377" lon="6.5333">
        <ele>181.4</ele>
        <time>2022-01-05T14:22:40.000Z</time>
      </trkpt>
      <trkpt lat="43.43379" lon="6.53323">
        <ele>180.8</ele>
        <time>2022-01-05T14:22:44.000Z</time>
      </trkpt>
      <trkpt lat="43.43379" lon="6.53316">
        <ele>180.3</ele>
        <time>2022-01-05T14:22:49.000Z</time>
      </trkpt>
      <trkpt lat="43.43382" lon="6.5331">
        <ele>180</ele>
        <time>2022-01-05T14:22:52.000Z</time>
      </trkpt>
      <trkpt lat="43.43385" lon="6.53305">
        <ele>179.7</ele>
        <time>2022-01-05T14:22:55.000Z</time>
      </trkpt>
      <trkpt lat="43.43386" lon="6.53298">
        <ele>179.5</ele>
        <time>2022-01-05T14:22:59.000Z</time>
      </trkpt>
      <trkpt lat="43.43387" lon="6.53292">
        <ele>179.2</ele>
        <time>2022-01-05T14:23:03.000Z</time>
      </trkpt>
      <trkpt lat="43.43388" lon="6.53284">
        <ele>179</ele>
        <time>2022-01-05T14:23:07.000Z</time>
      </trkpt>
      <trkpt lat="43.43388" lon="6.53277">
        <ele>178.9</ele>
        <time>2022-01-05T14:23:10.000Z</time>
      </trkpt>
      <trkpt lat="43.43388" lon="6.53269">
        <ele>178.6</ele>
        <time>2022-01-05T14:23:14.000Z</time>
      </trkpt>
      <trkpt lat="43.43386" lon="6.53264">
        <ele>178.3</ele>
        <time>2022-01-05T14:23:17.000Z</time>
      </trkpt>
      <trkpt lat="43.43383" lon="6.53258">
        <ele>177.7</ele>
        <time>2022-01-05T14:23:21.000Z</time>
      </trkpt>
      <trkpt lat="43.4338" lon="6.53253">
        <ele>177.2</ele>
        <time>2022-01-05T14:23:25.000Z</time>
      </trkpt>
      <trkpt lat="43.43377" lon="6.53248">
        <ele>176.4</ele>
        <time>2022-01-05T14:23:29.000Z</time>
      </trkpt>
      <trkpt lat="43.43374" lon="6.53242">
        <ele>175.6</ele>
        <time>2022-01-05T14:23:34.000Z</time>
      </trkpt>
      <trkpt lat="43.43371" lon="6.53236">
        <ele>175.1</ele>
        <time>2022-01-05T14:23:38.000Z</time>
      </trkpt>
      <trkpt lat="43.43369" lon="6.5323">
        <ele>174.8</ele>
        <time>2022-01-05T14:23:42.000Z</time>
      </trkpt>
      <trkpt lat="43.43365" lon="6.53226">
        <ele>174.6</ele>
        <time>2022-01-05T14:23:46.000Z</time>
      </trkpt>
      <trkpt lat="43.43361" lon="6.53222">
        <ele>174.1</ele>
        <time>2022-01-05T14:23:50.000Z</time>
      </trkpt>
      <trkpt lat="43.43357" lon="6.53218">
        <ele>173.2</ele>
        <time>2022-01-05T14:23:54.000Z</time>
      </trkpt>
      <trkpt lat="43.43353" lon="6.53212">
        <ele>172.5</ele>
        <time>2022-01-05T14:23:58.000Z</time>
      </trkpt>
      <trkpt lat="43.4335" lon="6.53207">
        <ele>171.6</ele>
        <time>2022-01-05T14:24:02.000Z</time>
      </trkpt>
      <trkpt lat="43.43345" lon="6.53202">
        <ele>170.5</ele>
        <time>2022-01-05T14:24:06.000Z</time>
      </trkpt>
      <trkpt lat="43.43342" lon="6.53197">
        <ele>169.5</ele>
        <time>2022-01-05T14:24:10.000Z</time>
      </trkpt>
      <trkpt lat="43.43339" lon="6.5319">
        <ele>168.7</ele>
        <time>2022-01-05T14:24:14.000Z</time>
      </trkpt>
      <trkpt lat="43.43336" lon="6.53185">
        <ele>168.2</ele>
        <time>2022-01-05T14:24:18.000Z</time>
      </trkpt>
      <trkpt lat="43.43332" lon="6.5318">
        <ele>167.7</ele>
        <time>2022-01-05T14:24:23.000Z</time>
      </trkpt>
      <trkpt lat="43.43329" lon="6.53175">
        <ele>167.3</ele>
        <time>2022-01-05T14:24:27.000Z</time>
      </trkpt>
      <trkpt lat="43.43326" lon="6.5317">
        <ele>167</ele>
        <time>2022-01-05T14:24:31.000Z</time>
      </trkpt>
      <trkpt lat="43.43324" lon="6.53164">
        <ele>166.6</ele>
        <time>2022-01-05T14:24:35.000Z</time>
      </trkpt>
      <trkpt lat="43.43321" lon="6.53159">
        <ele>166.1</ele>
        <time>2022-01-05T14:24:39.000Z</time>
      </trkpt>
      <trkpt lat="43.43318" lon="6.53155">
        <ele>165.6</ele>
        <time>2022-01-05T14:24:43.000Z</time>
      </trkpt>
      <trkpt lat="43.43316" lon="6.53149">
        <ele>165.1</ele>
        <time>2022-01-05T14:24:47.000Z</time>
      </trkpt>
      <trkpt lat="43.43312" lon="6.53144">
        <ele>164.7</ele>
        <time>2022-01-05T14:24:51.000Z</time>
      </trkpt>
      <trkpt lat="43.43308" lon="6.53139">
        <ele>164.4</ele>
        <time>2022-01-05T14:24:55.000Z</time>
      </trkpt>
      <trkpt lat="43.43304" lon="6.53135">
        <ele>164.1</ele>
        <time>2022-01-05T14:24:59.000Z</time>
      </trkpt>
      <trkpt lat="43.433" lon="6.53131">
        <ele>163.7</ele>
        <time>2022-01-05T14:25:03.000Z</time>
      </trkpt>
      <trkpt lat="43.43297" lon="6.53126">
        <ele>163.4</ele>
        <time>2022-01-05T14:25:07.000Z</time>
      </trkpt>
      <trkpt lat="43.43293" lon="6.53121">
        <ele>163.2</ele>
        <time>2022-01-05T14:25:11.000Z</time>
      </trkpt>
      <trkpt lat="43.43289" lon="6.53116">
        <ele>162.6</ele>
        <time>2022-01-05T14:25:15.000Z</time>
      </trkpt>
      <trkpt lat="43.43285" lon="6.53113">
        <ele>161.8</ele>
        <time>2022-01-05T14:25:19.000Z</time>
      </trkpt>
      <trkpt lat="43.43281" lon="6.5311">
        <ele>161.4</ele>
        <time>2022-01-05T14:25:23.000Z</time>
      </trkpt>
      <trkpt lat="43.43276" lon="6.5311">
        <ele>161</ele>
        <time>2022-01-05T14:25:26.000Z</time>
      </trkpt>
      <trkpt lat="43.43271" lon="6.53109">
        <ele>160.5</ele>
        <time>2022-01-05T14:25:29.000Z</time>
      </trkpt>
      <trkpt lat="43.43267" lon="6.53108">
        <ele>160</ele>
        <time>2022-01-05T14:25:32.000Z</time>
      </trkpt>
      <trkpt lat="43.43262" lon="6.53106">
        <ele>159.4</ele>
        <time>2022-01-05T14:25:36.000Z</time>
      </trkpt>
      <trkpt lat="43.43257" lon="6.53106">
        <ele>159</ele>
        <time>2022-01-05T14:25:40.000Z</time>
      </trkpt>
      <trkpt lat="43.43253" lon="6.53105">
        <ele>158.7</ele>
        <time>2022-01-05T14:25:44.000Z</time>
      </trkpt>
      <trkpt lat="43.43247" lon="6.53105">
        <ele>158.3</ele>
        <time>2022-01-05T14:25:48.000Z</time>
      </trkpt>
      <trkpt lat="43.43242" lon="6.53105">
        <ele>157.8</ele>
        <time>2022-01-05T14:25:52.000Z</time>
      </trkpt>
      <trkpt lat="43.43237" lon="6.53105">
        <ele>157.3</ele>
        <time>2022-01-05T14:25:57.000Z</time>
      </trkpt>
      <trkpt lat="43.43234" lon="6.53099">
        <ele>157.1</ele>
        <time>2022-01-05T14:26:01.000Z</time>
      </trkpt>
      <trkpt lat="43.43235" lon="6.53093">
        <ele>156.8</ele>
        <time>2022-01-05T14:26:05.000Z</time>
      </trkpt>
      <trkpt lat="43.43238" lon="6.53087">
        <ele>156.6</ele>
        <time>2022-01-05T14:26:08.000Z</time>
      </trkpt>
      <trkpt lat="43.43237" lon="6.5308">
        <ele>156.3</ele>
        <time>2022-01-05T14:26:14.000Z</time>
      </trkpt>
      <trkpt lat="43.43232" lon="6.53075">
        <ele>155.7</ele>
        <time>2022-01-05T14:26:19.000Z</time>
      </trkpt>
      <trkpt lat="43.43227" lon="6.53072">
        <ele>155.1</ele>
        <time>2022-01-05T14:26:23.000Z</time>
      </trkpt>
      <trkpt lat="43.43226" lon="6.53066">
        <ele>154.5</ele>
        <time>2022-01-05T14:26:27.000Z</time>
      </trkpt>
      <trkpt lat="43.43227" lon="6.53058">
        <ele>153.7</ele>
        <time>2022-01-05T14:26:33.000Z</time>
      </trkpt>
      <trkpt lat="43.43228" lon="6.5305">
        <ele>153</ele>
        <time>2022-01-05T14:26:37.000Z</time>
      </trkpt>
      <trkpt lat="43.4323" lon="6.53043">
        <ele>152.2</ele>
        <time>2022-01-05T14:26:42.000Z</time>
      </trkpt>
      <trkpt lat="43.43232" lon="6.53038">
        <ele>151.8</ele>
        <time>2022-01-05T14:26:45.000Z</time>
      </trkpt>
      <trkpt lat="43.43234" lon="6.5303">
        <ele>151.4</ele>
        <time>2022-01-05T14:26:49.000Z</time>
      </trkpt>
      <trkpt lat="43.43233" lon="6.53024">
        <ele>150.7</ele>
        <time>2022-01-05T14:26:53.000Z</time>
      </trkpt>
      <trkpt lat="43.43232" lon="6.53016">
        <ele>150</ele>
        <time>2022-01-05T14:26:57.000Z</time>
      </trkpt>
      <trkpt lat="43.4323" lon="6.53011">
        <ele>149.4</ele>
        <time>2022-01-05T14:27:00.000Z</time>
      </trkpt>
      <trkpt lat="43.43225" lon="6.53006">
        <ele>148.7</ele>
        <time>2022-01-05T14:27:04.000Z</time>
      </trkpt>
      <trkpt lat="43.43222" lon="6.53">
        <ele>147.9</ele>
        <time>2022-01-05T14:27:08.000Z</time>
      </trkpt>
      <trkpt lat="43.4322" lon="6.52995">
        <ele>147.4</ele>
        <time>2022-01-05T14:27:12.000Z</time>
      </trkpt>
      <trkpt lat="43.4322" lon="6.52988">
        <ele>146.7</ele>
        <time>2022-01-05T14:27:16.000Z</time>
      </trkpt>
      <trkpt lat="43.43219" lon="6.52982">
        <ele>146.4</ele>
        <time>2022-01-05T14:27:20.000Z</time>
      </trkpt>
      <trkpt lat="43.4322" lon="6.52974">
        <ele>146.2</ele>
        <time>2022-01-05T14:27:24.000Z</time>
      </trkpt>
      <trkpt lat="43.43221" lon="6.52967">
        <ele>145.7</ele>
        <time>2022-01-05T14:27:28.000Z</time>
      </trkpt>
      <trkpt lat="43.43218" lon="6.52962">
        <ele>145</ele>
        <time>2022-01-05T14:27:32.000Z</time>
      </trkpt>
      <trkpt lat="43.43214" lon="6.52958">
        <ele>144.3</ele>
        <time>2022-01-05T14:27:37.000Z</time>
      </trkpt>
      <trkpt lat="43.43212" lon="6.52952">
        <ele>143.8</ele>
        <time>2022-01-05T14:27:41.000Z</time>
      </trkpt>
      <trkpt lat="43.4321" lon="6.52946">
        <ele>143.4</ele>
        <time>2022-01-05T14:27:45.000Z</time>
      </trkpt>
      <trkpt lat="43.4321" lon="6.52939">
        <ele>143</ele>
        <time>2022-01-05T14:27:49.000Z</time>
      </trkpt>
      <trkpt lat="43.4321" lon="6.52932">
        <ele>142.8</ele>
        <time>2022-01-05T14:27:52.000Z</time>
      </trkpt>
      <trkpt lat="43.43209" lon="6.52925">
        <ele>142.4</ele>
        <time>2022-01-05T14:27:56.000Z</time>
      </trkpt>
      <trkpt lat="43.4321" lon="6.52919">
        <ele>142.1</ele>
        <time>2022-01-05T14:27:59.000Z</time>
      </trkpt>
      <trkpt lat="43.4321" lon="6.52911">
        <ele>141.8</ele>
        <time>2022-01-05T14:28:03.000Z</time>
      </trkpt>
      <trkpt lat="43.43209" lon="6.52904">
        <ele>141.8</ele>
        <time>2022-01-05T14:28:07.000Z</time>
      </trkpt>
      <trkpt lat="43.43208" lon="6.52897">
        <ele>141.6</ele>
        <time>2022-01-05T14:28:11.000Z</time>
      </trkpt>
      <trkpt lat="43.43208" lon="6.52889">
        <ele>141.4</ele>
        <time>2022-01-05T14:28:15.000Z</time>
      </trkpt>
      <trkpt lat="43.43209" lon="6.52883">
        <ele>141.5</ele>
        <time>2022-01-05T14:28:19.000Z</time>
      </trkpt>
      <trkpt lat="43.43207" lon="6.52876">
        <ele>141.4</ele>
        <time>2022-01-05T14:28:23.000Z</time>
      </trkpt>
      <trkpt lat="43.43205" lon="6.5287">
        <ele>141.1</ele>
        <time>2022-01-05T14:28:27.000Z</time>
      </trkpt>
      <trkpt lat="43.43204" lon="6.52864">
        <ele>140.5</ele>
        <time>2022-01-05T14:28:32.000Z</time>
      </trkpt>
      <trkpt lat="43.43204" lon="6.52857">
        <ele>140.1</ele>
        <time>2022-01-05T14:28:35.000Z</time>
      </trkpt>
      <trkpt lat="43.43203" lon="6.52851">
        <ele>139.7</ele>
        <time>2022-01-05T14:28:38.000Z</time>
      </trkpt>
      <trkpt lat="43.43203" lon="6.52844">
        <ele>139.1</ele>
        <time>2022-01-05T14:28:42.000Z</time>
      </trkpt>
      <trkpt lat="43.43199" lon="6.52839">
        <ele>138.5</ele>
        <time>2022-01-05T14:28:47.000Z</time>
      </trkpt>
      <trkpt lat="43.43197" lon="6.52832">
        <ele>138.2</ele>
        <time>2022-01-05T14:28:51.000Z</time>
      </trkpt>
      <trkpt lat="43.43198" lon="6.52824">
        <ele>138.1</ele>
        <time>2022-01-05T14:28:55.000Z</time>
      </trkpt>
      <trkpt lat="43.43198" lon="6.52816">
        <ele>138.2</ele>
        <time>2022-01-05T14:28:59.000Z</time>
      </trkpt>
      <trkpt lat="43.43198" lon="6.52809">
        <ele>138.1</ele>
        <time>2022-01-05T14:29:03.000Z</time>
      </trkpt>
      <trkpt lat="43.43198" lon="6.52802">
        <ele>138.1</ele>
        <time>2022-01-05T14:29:08.000Z</time>
      </trkpt>
      <trkpt lat="43.43198" lon="6.52795">
        <ele>137.5</ele>
        <time>2022-01-05T14:29:15.000Z</time>
      </trkpt>
      <trkpt lat="43.43198" lon="6.52789">
        <ele>136.3</ele>
        <time>2022-01-05T14:30:04.000Z</time>
      </trkpt>
      <trkpt lat="43.43198" lon="6.52781">
        <ele>136.9</ele>
        <time>2022-01-05T14:30:38.000Z</time>
      </trkpt>
      <trkpt lat="43.43198" lon="6.52775">
        <ele>137.1</ele>
        <time>2022-01-05T14:30:42.000Z</time>
      </trkpt>
      <trkpt lat="43.43196" lon="6.52769">
        <ele>137.2</ele>
        <time>2022-01-05T14:30:46.000Z</time>
      </trkpt>
      <trkpt lat="43.43195" lon="6.52761">
        <ele>136.9</ele>
        <time>2022-01-05T14:30:51.000Z</time>
      </trkpt>
      <trkpt lat="43.43194" lon="6.52755">
        <ele>136.5</ele>
        <time>2022-01-05T14:30:55.000Z</time>
      </trkpt>
      <trkpt lat="43.43193" lon="6.52749">
        <ele>136.2</ele>
        <time>2022-01-05T14:30:59.000Z</time>
      </trkpt>
      <trkpt lat="43.43192" lon="6.52743">
        <ele>135.9</ele>
        <time>2022-01-05T14:31:03.000Z</time>
      </trkpt>
      <trkpt lat="43.43191" lon="6.52736">
        <ele>135.7</ele>
        <time>2022-01-05T14:31:08.000Z</time>
      </trkpt>
      <trkpt lat="43.43191" lon="6.52729">
        <ele>135.6</ele>
        <time>2022-01-05T14:31:12.000Z</time>
      </trkpt>
      <trkpt lat="43.43188" lon="6.52723">
        <ele>135.4</ele>
        <time>2022-01-05T14:31:16.000Z</time>
      </trkpt>
      <trkpt lat="43.43183" lon="6.52722">
        <ele>135.2</ele>
        <time>2022-01-05T14:31:21.000Z</time>
      </trkpt>
      <trkpt lat="43.4318" lon="6.52726">
        <ele>134.8</ele>
        <time>2022-01-05T14:31:27.000Z</time>
      </trkpt>
      <trkpt lat="43.43181" lon="6.52733">
        <ele>134.2</ele>
        <time>2022-01-05T14:31:32.000Z</time>
      </trkpt>
      <trkpt lat="43.43182" lon="6.52739">
        <ele>133.4</ele>
        <time>2022-01-05T14:31:36.000Z</time>
      </trkpt>
      <trkpt lat="43.43182" lon="6.52747">
        <ele>132.7</ele>
        <time>2022-01-05T14:31:41.000Z</time>
      </trkpt>
      <trkpt lat="43.43183" lon="6.52753">
        <ele>132.5</ele>
        <time>2022-01-05T14:31:45.000Z</time>
      </trkpt>
      <trkpt lat="43.43184" lon="6.5276">
        <ele>131.9</ele>
        <time>2022-01-05T14:31:49.000Z</time>
      </trkpt>
      <trkpt lat="43.43184" lon="6.52767">
        <ele>131</ele>
        <time>2022-01-05T14:31:53.000Z</time>
      </trkpt>
      <trkpt lat="43.43183" lon="6.52774">
        <ele>130.5</ele>
        <time>2022-01-05T14:31:57.000Z</time>
      </trkpt>
      <trkpt lat="43.43182" lon="6.5278">
        <ele>130.3</ele>
        <time>2022-01-05T14:32:01.000Z</time>
      </trkpt>
      <trkpt lat="43.43181" lon="6.52786">
        <ele>129.6</ele>
        <time>2022-01-05T14:32:05.000Z</time>
      </trkpt>
      <trkpt lat="43.43179" lon="6.52792">
        <ele>128.8</ele>
        <time>2022-01-05T14:32:09.000Z</time>
      </trkpt>
      <trkpt lat="43.43177" lon="6.52797">
        <ele>127.9</ele>
        <time>2022-01-05T14:32:14.000Z</time>
      </trkpt>
      <trkpt lat="43.43174" lon="6.52803">
        <ele>127.1</ele>
        <time>2022-01-05T14:32:18.000Z</time>
      </trkpt>
      <trkpt lat="43.43171" lon="6.52808">
        <ele>126.4</ele>
        <time>2022-01-05T14:32:22.000Z</time>
      </trkpt>
      <trkpt lat="43.43167" lon="6.52812">
        <ele>125.7</ele>
        <time>2022-01-05T14:32:26.000Z</time>
      </trkpt>
      <trkpt lat="43.43163" lon="6.52816">
        <ele>124.9</ele>
        <time>2022-01-05T14:32:31.000Z</time>
      </trkpt>
      <trkpt lat="43.43159" lon="6.52818">
        <ele>124.4</ele>
        <time>2022-01-05T14:32:35.000Z</time>
      </trkpt>
      <trkpt lat="43.43154" lon="6.52821">
        <ele>124</ele>
        <time>2022-01-05T14:32:39.000Z</time>
      </trkpt>
      <trkpt lat="43.43149" lon="6.52824">
        <ele>123.4</ele>
        <time>2022-01-05T14:32:43.000Z</time>
      </trkpt>
      <trkpt lat="43.43145" lon="6.52828">
        <ele>122.7</ele>
        <time>2022-01-05T14:32:48.000Z</time>
      </trkpt>
      <trkpt lat="43.43141" lon="6.52829">
        <ele>121.9</ele>
        <time>2022-01-05T14:32:54.000Z</time>
      </trkpt>
      <trkpt lat="43.43136" lon="6.5283">
        <ele>121.4</ele>
        <time>2022-01-05T14:32:58.000Z</time>
      </trkpt>
      <trkpt lat="43.43129" lon="6.52829">
        <ele>121</ele>
        <time>2022-01-05T14:33:02.000Z</time>
      </trkpt>
      <trkpt lat="43.43124" lon="6.52829">
        <ele>120.7</ele>
        <time>2022-01-05T14:33:05.000Z</time>
      </trkpt>
      <trkpt lat="43.43119" lon="6.52829">
        <ele>120.2</ele>
        <time>2022-01-05T14:33:09.000Z</time>
      </trkpt>
      <trkpt lat="43.43114" lon="6.52827">
        <ele>119.5</ele>
        <time>2022-01-05T14:33:13.000Z</time>
      </trkpt>
      <trkpt lat="43.43109" lon="6.52824">
        <ele>119</ele>
        <time>2022-01-05T14:33:17.000Z</time>
      </trkpt>
      <trkpt lat="43.43104" lon="6.52822">
        <ele>118.4</ele>
        <time>2022-01-05T14:33:21.000Z</time>
      </trkpt>
      <trkpt lat="43.43099" lon="6.5282">
        <ele>117.6</ele>
        <time>2022-01-05T14:33:25.000Z</time>
      </trkpt>
      <trkpt lat="43.43093" lon="6.52818">
        <ele>116.4</ele>
        <time>2022-01-05T14:33:29.000Z</time>
      </trkpt>
      <trkpt lat="43.43089" lon="6.52815">
        <ele>115.7</ele>
        <time>2022-01-05T14:33:32.000Z</time>
      </trkpt>
      <trkpt lat="43.43085" lon="6.52813">
        <ele>114.9</ele>
        <time>2022-01-05T14:33:36.000Z</time>
      </trkpt>
      <trkpt lat="43.43081" lon="6.5281">
        <ele>114.2</ele>
        <time>2022-01-05T14:33:40.000Z</time>
      </trkpt>
      <trkpt lat="43.43076" lon="6.52808">
        <ele>113.8</ele>
        <time>2022-01-05T14:33:44.000Z</time>
      </trkpt>
      <trkpt lat="43.43072" lon="6.52807">
        <ele>113.4</ele>
        <time>2022-01-05T14:33:48.000Z</time>
      </trkpt>
      <trkpt lat="43.43067" lon="6.52806">
        <ele>113</ele>
        <time>2022-01-05T14:33:52.000Z</time>
      </trkpt>
      <trkpt lat="43.43063" lon="6.52809">
        <ele>112.6</ele>
        <time>2022-01-05T14:33:56.000Z</time>
      </trkpt>
      <trkpt lat="43.43059" lon="6.52813">
        <ele>112.2</ele>
        <time>2022-01-05T14:34:01.000Z</time>
      </trkpt>
      <trkpt lat="43.43055" lon="6.52817">
        <ele>111.9</ele>
        <time>2022-01-05T14:34:05.000Z</time>
      </trkpt>
      <trkpt lat="43.43052" lon="6.52823">
        <ele>111.3</ele>
        <time>2022-01-05T14:34:10.000Z</time>
      </trkpt>
      <trkpt lat="43.43049" lon="6.52827">
        <ele>111</ele>
        <time>2022-01-05T14:34:13.000Z</time>
      </trkpt>
      <trkpt lat="43.43044" lon="6.52832">
        <ele>110.7</ele>
        <time>2022-01-05T14:34:17.000Z</time>
      </trkpt>
      <trkpt lat="43.43039" lon="6.52831">
        <ele>110.4</ele>
        <time>2022-01-05T14:34:21.000Z</time>
      </trkpt>
      <trkpt lat="43.43035" lon="6.52825">
        <ele>109.8</ele>
        <time>2022-01-05T14:34:26.000Z</time>
      </trkpt>
      <trkpt lat="43.43033" lon="6.52819">
        <ele>109.4</ele>
        <time>2022-01-05T14:34:30.000Z</time>
      </trkpt>
      <trkpt lat="43.4303" lon="6.52814">
        <ele>109</ele>
        <time>2022-01-05T14:34:34.000Z</time>
      </trkpt>
      <trkpt lat="43.43027" lon="6.52808">
        <ele>108.5</ele>
        <time>2022-01-05T14:34:38.000Z</time>
      </trkpt>
      <trkpt lat="43.43024" lon="6.52801">
        <ele>107.9</ele>
        <time>2022-01-05T14:34:42.000Z</time>
      </trkpt>
      <trkpt lat="43.43022" lon="6.52795">
        <ele>107.2</ele>
        <time>2022-01-05T14:34:46.000Z</time>
      </trkpt>
      <trkpt lat="43.4302" lon="6.52788">
        <ele>106.6</ele>
        <time>2022-01-05T14:34:50.000Z</time>
      </trkpt>
      <trkpt lat="43.43018" lon="6.52781">
        <ele>105.8</ele>
        <time>2022-01-05T14:34:55.000Z</time>
      </trkpt>
      <trkpt lat="43.43015" lon="6.52775">
        <ele>105.3</ele>
        <time>2022-01-05T14:34:59.000Z</time>
      </trkpt>
      <trkpt lat="43.43013" lon="6.52769">
        <ele>104.5</ele>
        <time>2022-01-05T14:35:03.000Z</time>
      </trkpt>
      <trkpt lat="43.43011" lon="6.52763">
        <ele>103.7</ele>
        <time>2022-01-05T14:35:07.000Z</time>
      </trkpt>
      <trkpt lat="43.4301" lon="6.52756">
        <ele>103</ele>
        <time>2022-01-05T14:35:11.000Z</time>
      </trkpt>
      <trkpt lat="43.43008" lon="6.5275">
        <ele>102.3</ele>
        <time>2022-01-05T14:35:15.000Z</time>
      </trkpt>
      <trkpt lat="43.43006" lon="6.52744">
        <ele>101.7</ele>
        <time>2022-01-05T14:35:19.000Z</time>
      </trkpt>
      <trkpt lat="43.43004" lon="6.52738">
        <ele>100.9</ele>
        <time>2022-01-05T14:35:23.000Z</time>
      </trkpt>
      <trkpt lat="43.43001" lon="6.52732">
        <ele>100.1</ele>
        <time>2022-01-05T14:35:27.000Z</time>
      </trkpt>
      <trkpt lat="43.42999" lon="6.52725">
        <ele>99.3</ele>
        <time>2022-01-05T14:35:31.000Z</time>
      </trkpt>
      <trkpt lat="43.42997" lon="6.52719">
        <ele>98.6</ele>
        <time>2022-01-05T14:35:35.000Z</time>
      </trkpt>
      <trkpt lat="43.42995" lon="6.52713">
        <ele>97.9</ele>
        <time>2022-01-05T14:35:39.000Z</time>
      </trkpt>
      <trkpt lat="43.42992" lon="6.52708">
        <ele>97.1</ele>
        <time>2022-01-05T14:35:43.000Z</time>
      </trkpt>
      <trkpt lat="43.4299" lon="6.52702">
        <ele>96.2</ele>
        <time>2022-01-05T14:35:47.000Z</time>
      </trkpt>
      <trkpt lat="43.42987" lon="6.52697">
        <ele>95.3</ele>
        <time>2022-01-05T14:35:51.000Z</time>
      </trkpt>
      <trkpt lat="43.42984" lon="6.52692">
        <ele>94.6</ele>
        <time>2022-01-05T14:35:55.000Z</time>
      </trkpt>
      <trkpt lat="43.42982" lon="6.52686">
        <ele>93.9</ele>
        <time>2022-01-05T14:35:59.000Z</time>
      </trkpt>
      <trkpt lat="43.42979" lon="6.5268">
        <ele>93.4</ele>
        <time>2022-01-05T14:36:03.000Z</time>
      </trkpt>
      <trkpt lat="43.42976" lon="6.52675">
        <ele>92.8</ele>
        <time>2022-01-05T14:36:07.000Z</time>
      </trkpt>
      <trkpt lat="43.42973" lon="6.52669">
        <ele>92.2</ele>
        <time>2022-01-05T14:36:12.000Z</time>
      </trkpt>
      <trkpt lat="43.42969" lon="6.52665">
        <ele>91.8</ele>
        <time>2022-01-05T14:36:16.000Z</time>
      </trkpt>
      <trkpt lat="43.42965" lon="6.5266">
        <ele>91.2</ele>
        <time>2022-01-05T14:36:21.000Z</time>
      </trkpt>
      <trkpt lat="43.42962" lon="6.52654">
        <ele>90.8</ele>
        <time>2022-01-05T14:36:25.000Z</time>
      </trkpt>
      <trkpt lat="43.42959" lon="6.52648">
        <ele>90.3</ele>
        <time>2022-01-05T14:36:29.000Z</time>
      </trkpt>
      <trkpt lat="43.42954" lon="6.52644">
        <ele>89.7</ele>
        <time>2022-01-05T14:36:33.000Z</time>
      </trkpt>
      <trkpt lat="43.42952" lon="6.52639">
        <ele>88.7</ele>
        <time>2022-01-05T14:36:37.000Z</time>
      </trkpt>
      <trkpt lat="43.42949" lon="6.52634">
        <ele>87.7</ele>
        <time>2022-01-05T14:36:41.000Z</time>
      </trkpt>
      <trkpt lat="43.42945" lon="6.5263">
        <ele>86.7</ele>
        <time>2022-01-05T14:36:45.000Z</time>
      </trkpt>
      <trkpt lat="43.42942" lon="6.52625">
        <ele>85.9</ele>
        <time>2022-01-05T14:36:49.000Z</time>
      </trkpt>
      <trkpt lat="43.4294" lon="6.52617">
        <ele>85.3</ele>
        <time>2022-01-05T14:36:53.000Z</time>
      </trkpt>
      <trkpt lat="43.42939" lon="6.52609">
        <ele>84.8</ele>
        <time>2022-01-05T14:36:57.000Z</time>
      </trkpt>
      <trkpt lat="43.42938" lon="6.52601">
        <ele>84.3</ele>
        <time>2022-01-05T14:37:02.000Z</time>
      </trkpt>
      <trkpt lat="43.42937" lon="6.52594">
        <ele>83.7</ele>
        <time>2022-01-05T14:37:06.000Z</time>
      </trkpt>
      <trkpt lat="43.42936" lon="6.52588">
        <ele>83.1</ele>
        <time>2022-01-05T14:37:10.000Z</time>
      </trkpt>
      <trkpt lat="43.42934" lon="6.52581">
        <ele>82.5</ele>
        <time>2022-01-05T14:37:15.000Z</time>
      </trkpt>
      <trkpt lat="43.42932" lon="6.52574">
        <ele>81.9</ele>
        <time>2022-01-05T14:37:19.000Z</time>
      </trkpt>
      <trkpt lat="43.4293" lon="6.52568">
        <ele>81.4</ele>
        <time>2022-01-05T14:37:23.000Z</time>
      </trkpt>
      <trkpt lat="43.42928" lon="6.52562">
        <ele>80.7</ele>
        <time>2022-01-05T14:37:27.000Z</time>
      </trkpt>
      <trkpt lat="43.42924" lon="6.52558">
        <ele>80.2</ele>
        <time>2022-01-05T14:37:31.000Z</time>
      </trkpt>
      <trkpt lat="43.42921" lon="6.52552">
        <ele>79.9</ele>
        <time>2022-01-05T14:37:35.000Z</time>
      </trkpt>
      <trkpt lat="43.42917" lon="6.52548">
        <ele>79.6</ele>
        <time>2022-01-05T14:37:39.000Z</time>
      </trkpt>
      <trkpt lat="43.42912" lon="6.52544">
        <ele>79</ele>
        <time>2022-01-05T14:37:43.000Z</time>
      </trkpt>
      <trkpt lat="43.42908" lon="6.52544">
        <ele>78.3</ele>
        <time>2022-01-05T14:37:47.000Z</time>
      </trkpt>
      <trkpt lat="43.42903" lon="6.52543">
        <ele>77.4</ele>
        <time>2022-01-05T14:37:51.000Z</time>
      </trkpt>
      <trkpt lat="43.42899" lon="6.5254">
        <ele>76.6</ele>
        <time>2022-01-05T14:37:55.000Z</time>
      </trkpt>
      <trkpt lat="43.42894" lon="6.52537">
        <ele>75.8</ele>
        <time>2022-01-05T14:38:00.000Z</time>
      </trkpt>
      <trkpt lat="43.4289" lon="6.52533">
        <ele>75</ele>
        <time>2022-01-05T14:38:04.000Z</time>
      </trkpt>
      <trkpt lat="43.42888" lon="6.52526">
        <ele>74.3</ele>
        <time>2022-01-05T14:38:08.000Z</time>
      </trkpt>
      <trkpt lat="43.42886" lon="6.5252">
        <ele>71</ele>
        <time>2022-01-05T14:39:15.000Z</time>
      </trkpt>
      <trkpt lat="43.42891" lon="6.52518">
        <ele>71</ele>
        <time>2022-01-05T14:39:20.000Z</time>
      </trkpt>
      <trkpt lat="43.42895" lon="6.5252">
        <ele>70.7</ele>
        <time>2022-01-05T14:39:25.000Z</time>
      </trkpt>
      <trkpt lat="43.42901" lon="6.52521">
        <ele>70.1</ele>
        <time>2022-01-05T14:39:32.000Z</time>
      </trkpt>
      <trkpt lat="43.42906" lon="6.52519">
        <ele>69.6</ele>
        <time>2022-01-05T14:39:37.000Z</time>
      </trkpt>
      <trkpt lat="43.4291" lon="6.52515">
        <ele>69</ele>
        <time>2022-01-05T14:39:42.000Z</time>
      </trkpt>
      <trkpt lat="43.42914" lon="6.52512">
        <ele>68.4</ele>
        <time>2022-01-05T14:39:46.000Z</time>
      </trkpt>
      <trkpt lat="43.42919" lon="6.52509">
        <ele>67.6</ele>
        <time>2022-01-05T14:39:51.000Z</time>
      </trkpt>
      <trkpt lat="43.42922" lon="6.52504">
        <ele>66.8</ele>
        <time>2022-01-05T14:39:57.000Z</time>
      </trkpt>
      <trkpt lat="43.42926" lon="6.52499">
        <ele>66</ele>
        <time>2022-01-05T14:40:03.000Z</time>
      </trkpt>
      <trkpt lat="43.42931" lon="6.52495">
        <ele>65.4</ele>
        <time>2022-01-05T14:40:08.000Z</time>
      </trkpt>
      <trkpt lat="43.42935" lon="6.52492">
        <ele>64.6</ele>
        <time>2022-01-05T14:40:12.000Z</time>
      </trkpt>
      <trkpt lat="43.42939" lon="6.52487">
        <ele>63.4</ele>
        <time>2022-01-05T14:40:17.000Z</time>
      </trkpt>
      <trkpt lat="43.42941" lon="6.5248">
        <ele>62.4</ele>
        <time>2022-01-05T14:40:22.000Z</time>
      </trkpt>
      <trkpt lat="43.42944" lon="6.52474">
        <ele>61.7</ele>
        <time>2022-01-05T14:40:27.000Z</time>
      </trkpt>
      <trkpt lat="43.42947" lon="6.52468">
        <ele>61.2</ele>
        <time>2022-01-05T14:40:32.000Z</time>
      </trkpt>
      <trkpt lat="43.42952" lon="6.52464">
        <ele>60.8</ele>
        <time>2022-01-05T14:40:36.000Z</time>
      </trkpt>
      <trkpt lat="43.42957" lon="6.52463">
        <ele>60.4</ele>
        <time>2022-01-05T14:40:40.000Z</time>
      </trkpt>
      <trkpt lat="43.42962" lon="6.52466">
        <ele>59.8</ele>
        <time>2022-01-05T14:40:44.000Z</time>
      </trkpt>
      <trkpt lat="43.42965" lon="6.52471">
        <ele>59.2</ele>
        <time>2022-01-05T14:40:48.000Z</time>
      </trkpt>
      <trkpt lat="43.42969" lon="6.52476">
        <ele>58.4</ele>
        <time>2022-01-05T14:40:53.000Z</time>
      </trkpt>
      <trkpt lat="43.4297" lon="6.52483">
        <ele>57.3</ele>
        <time>2022-01-05T14:40:58.000Z</time>
      </trkpt>
      <trkpt lat="43.42974" lon="6.52488">
        <ele>56.6</ele>
        <time>2022-01-05T14:41:02.000Z</time>
      </trkpt>
      <trkpt lat="43.42976" lon="6.52495">
        <ele>56</ele>
        <time>2022-01-05T14:41:06.000Z</time>
      </trkpt>
      <trkpt lat="43.42977" lon="6.52501">
        <ele>55</ele>
        <time>2022-01-05T14:41:11.000Z</time>
      </trkpt>
      <trkpt lat="43.42977" lon="6.52507">
        <ele>54.4</ele>
        <time>2022-01-05T14:41:15.000Z</time>
      </trkpt>
      <trkpt lat="43.42981" lon="6.52512">
        <ele>54</ele>
        <time>2022-01-05T14:41:19.000Z</time>
      </trkpt>
      <trkpt lat="43.42985" lon="6.52511">
        <ele>52.6</ele>
        <time>2022-01-05T14:41:27.000Z</time>
      </trkpt>
      <trkpt lat="43.42985" lon="6.52504">
        <ele>51.2</ele>
        <time>2022-01-05T14:41:35.000Z</time>
      </trkpt>
      <trkpt lat="43.42985" lon="6.52498">
        <ele>50.4</ele>
        <time>2022-01-05T14:41:41.000Z</time>
      </trkpt>
      <trkpt lat="43.42986" lon="6.52492">
        <ele>49.3</ele>
        <time>2022-01-05T14:41:48.000Z</time>
      </trkpt>
      <trkpt lat="43.42988" lon="6.52486">
        <ele>48.5</ele>
        <time>2022-01-05T14:41:52.000Z</time>
      </trkpt>
      <trkpt lat="43.42992" lon="6.52481">
        <ele>47.9</ele>
        <time>2022-01-05T14:41:56.000Z</time>
      </trkpt>
      <trkpt lat="43.42995" lon="6.52475">
        <ele>47.3</ele>
        <time>2022-01-05T14:42:00.000Z</time>
      </trkpt>
      <trkpt lat="43.42997" lon="6.52469">
        <ele>46.9</ele>
        <time>2022-01-05T14:42:03.000Z</time>
      </trkpt>
      <trkpt lat="43.42998" lon="6.52461">
        <ele>46.6</ele>
        <time>2022-01-05T14:42:06.000Z</time>
      </trkpt>
      <trkpt lat="43.42997" lon="6.52454">
        <ele>46.3</ele>
        <time>2022-01-05T14:42:10.000Z</time>
      </trkpt>
      <trkpt lat="43.42998" lon="6.52446">
        <ele>45.9</ele>
        <time>2022-01-05T14:42:15.000Z</time>
      </trkpt>
      <trkpt lat="43.42998" lon="6.5244">
        <ele>45.3</ele>
        <time>2022-01-05T14:42:19.000Z</time>
      </trkpt>
      <trkpt lat="43.42995" lon="6.52434">
        <ele>44.4</ele>
        <time>2022-01-05T14:42:25.000Z</time>
      </trkpt>
      <trkpt lat="43.42995" lon="6.52426">
        <ele>43.7</ele>
        <time>2022-01-05T14:42:29.000Z</time>
      </trkpt>
      <trkpt lat="43.42993" lon="6.52419">
        <ele>42.9</ele>
        <time>2022-01-05T14:42:34.000Z</time>
      </trkpt>
      <trkpt lat="43.42992" lon="6.52412">
        <ele>42.4</ele>
        <time>2022-01-05T14:42:38.000Z</time>
      </trkpt>
      <trkpt lat="43.42991" lon="6.52405">
        <ele>41.8</ele>
        <time>2022-01-05T14:42:42.000Z</time>
      </trkpt>
      <trkpt lat="43.42991" lon="6.52397">
        <ele>41.2</ele>
        <time>2022-01-05T14:42:46.000Z</time>
      </trkpt>
      <trkpt lat="43.42989" lon="6.52391">
        <ele>40.3</ele>
        <time>2022-01-05T14:42:51.000Z</time>
      </trkpt>
      <trkpt lat="43.42986" lon="6.52385">
        <ele>40</ele>
        <time>2022-01-05T14:42:56.000Z</time>
      </trkpt>
      <trkpt lat="43.42981" lon="6.52382">
        <ele>39.9</ele>
        <time>2022-01-05T14:43:02.000Z</time>
      </trkpt>
      <trkpt lat="43.42976" lon="6.52381">
        <ele>39.8</ele>
        <time>2022-01-05T14:43:10.000Z</time>
      </trkpt>
      <trkpt lat="43.42972" lon="6.52384">
        <ele>39.6</ele>
        <time>2022-01-05T14:43:17.000Z</time>
      </trkpt>
      <trkpt lat="43.42968" lon="6.52386">
        <ele>39.4</ele>
        <time>2022-01-05T14:43:21.000Z</time>
      </trkpt>
      <trkpt lat="43.42963" lon="6.5239">
        <ele>39.3</ele>
        <time>2022-01-05T14:43:25.000Z</time>
      </trkpt>
      <trkpt lat="43.42959" lon="6.52393">
        <ele>39</ele>
        <time>2022-01-05T14:43:29.000Z</time>
      </trkpt>
      <trkpt lat="43.42955" lon="6.52395">
        <ele>38.7</ele>
        <time>2022-01-05T14:43:34.000Z</time>
      </trkpt>
      <trkpt lat="43.42949" lon="6.52397">
        <ele>38.5</ele>
        <time>2022-01-05T14:43:38.000Z</time>
      </trkpt>
      <trkpt lat="43.42944" lon="6.52401">
        <ele>38.3</ele>
        <time>2022-01-05T14:43:44.000Z</time>
      </trkpt>
      <trkpt lat="43.4294" lon="6.52404">
        <ele>38.3</ele>
        <time>2022-01-05T14:43:47.000Z</time>
      </trkpt>
      <trkpt lat="43.42935" lon="6.52406">
        <ele>38.2</ele>
        <time>2022-01-05T14:43:53.000Z</time>
      </trkpt>
      <trkpt lat="43.4293" lon="6.52404">
        <ele>38.1</ele>
        <time>2022-01-05T14:43:58.000Z</time>
      </trkpt>
      <trkpt lat="43.42925" lon="6.52402">
        <ele>38</ele>
        <time>2022-01-05T14:44:01.000Z</time>
      </trkpt>
      <trkpt lat="43.4292" lon="6.52399">
        <ele>37.7</ele>
        <time>2022-01-05T14:44:05.000Z</time>
      </trkpt>
      <trkpt lat="43.42915" lon="6.52398">
        <ele>37.1</ele>
        <time>2022-01-05T14:44:10.000Z</time>
      </trkpt>
      <trkpt lat="43.42911" lon="6.52395">
        <ele>36.7</ele>
        <time>2022-01-05T14:44:15.000Z</time>
      </trkpt>
      <trkpt lat="43.42906" lon="6.52394">
        <ele>36.4</ele>
        <time>2022-01-05T14:44:19.000Z</time>
      </trkpt>
      <trkpt lat="43.42901" lon="6.52391">
        <ele>36.2</ele>
        <time>2022-01-05T14:44:24.000Z</time>
      </trkpt>
      <trkpt lat="43.42896" lon="6.52389">
        <ele>36.1</ele>
        <time>2022-01-05T14:44:27.000Z</time>
      </trkpt>
      <trkpt lat="43.42891" lon="6.52388">
        <ele>36</ele>
        <time>2022-01-05T14:44:30.000Z</time>
      </trkpt>
      <trkpt lat="43.42886" lon="6.52387">
        <ele>35.9</ele>
        <time>2022-01-05T14:44:32.000Z</time>
      </trkpt>
      <trkpt lat="43.4288" lon="6.52386">
        <ele>35.7</ele>
        <time>2022-01-05T14:44:35.000Z</time>
      </trkpt>
      <trkpt lat="43.42876" lon="6.52384">
        <ele>35.5</ele>
        <time>2022-01-05T14:44:39.000Z</time>
      </trkpt>
      <trkpt lat="43.42871" lon="6.52381">
        <ele>35.6</ele>
        <time>2022-01-05T14:44:45.000Z</time>
      </trkpt>
      <trkpt lat="43.42868" lon="6.52377">
        <ele>35.8</ele>
        <time>2022-01-05T14:44:49.000Z</time>
      </trkpt>
      <trkpt lat="43.42864" lon="6.52372">
        <ele>35.9</ele>
        <time>2022-01-05T14:44:53.000Z</time>
      </trkpt>
      <trkpt lat="43.42859" lon="6.52367">
        <ele>36</ele>
        <time>2022-01-05T14:44:57.000Z</time>
      </trkpt>
      <trkpt lat="43.42856" lon="6.52361">
        <ele>36.1</ele>
        <time>2022-01-05T14:45:02.000Z</time>
      </trkpt>
      <trkpt lat="43.42857" lon="6.52354">
        <ele>36.2</ele>
        <time>2022-01-05T14:45:06.000Z</time>
      </trkpt>
      <trkpt lat="43.42858" lon="6.52348">
        <ele>36.2</ele>
        <time>2022-01-05T14:45:11.000Z</time>
      </trkpt>
      <trkpt lat="43.42863" lon="6.52345">
        <ele>36.1</ele>
        <time>2022-01-05T14:45:17.000Z</time>
      </trkpt>
      <trkpt lat="43.42868" lon="6.52342">
        <ele>35.9</ele>
        <time>2022-01-05T14:45:22.000Z</time>
      </trkpt>
      <trkpt lat="43.42874" lon="6.52337">
        <ele>35</ele>
        <time>2022-01-05T14:45:27.000Z</time>
      </trkpt>
      <trkpt lat="43.42878" lon="6.52333">
        <ele>35.9</ele>
        <time>2022-01-05T14:45:32.000Z</time>
      </trkpt>
      <trkpt lat="43.42881" lon="6.52328">
        <ele>36</ele>
        <time>2022-01-05T14:45:37.000Z</time>
      </trkpt>
      <trkpt lat="43.42886" lon="6.52326">
        <ele>36</ele>
        <time>2022-01-05T14:45:46.000Z</time>
      </trkpt>
      <trkpt lat="43.42891" lon="6.52328">
        <ele>36</ele>
        <time>2022-01-05T14:45:51.000Z</time>
      </trkpt>
      <trkpt lat="43.42895" lon="6.52331">
        <ele>36.1</ele>
        <time>2022-01-05T14:45:55.000Z</time>
      </trkpt>
      <trkpt lat="43.42901" lon="6.52331">
        <ele>36.1</ele>
        <time>2022-01-05T14:45:59.000Z</time>
      </trkpt>
      <trkpt lat="43.42906" lon="6.52331">
        <ele>36.1</ele>
        <time>2022-01-05T14:46:03.000Z</time>
      </trkpt>
      <trkpt lat="43.42911" lon="6.52331">
        <ele>36.1</ele>
        <time>2022-01-05T14:46:07.000Z</time>
      </trkpt>
      <trkpt lat="43.42916" lon="6.52332">
        <ele>36.1</ele>
        <time>2022-01-05T14:46:10.000Z</time>
      </trkpt>
      <trkpt lat="43.42922" lon="6.52328">
        <ele>36.2</ele>
        <time>2022-01-05T14:46:13.000Z</time>
      </trkpt>
      <trkpt lat="43.42927" lon="6.52324">
        <ele>36.3</ele>
        <time>2022-01-05T14:46:16.000Z</time>
      </trkpt>
      <trkpt lat="43.42932" lon="6.52322">
        <ele>36.4</ele>
        <time>2022-01-05T14:46:19.000Z</time>
      </trkpt>
      <trkpt lat="43.42936" lon="6.52317">
        <ele>36.4</ele>
        <time>2022-01-05T14:46:23.000Z</time>
      </trkpt>
      <trkpt lat="43.4294" lon="6.52314">
        <ele>36.3</ele>
        <time>2022-01-05T14:46:28.000Z</time>
      </trkpt>
      <trkpt lat="43.42944" lon="6.52308">
        <ele>36.3</ele>
        <time>2022-01-05T14:46:32.000Z</time>
      </trkpt>
      <trkpt lat="43.42947" lon="6.52303">
        <ele>36.4</ele>
        <time>2022-01-05T14:46:36.000Z</time>
      </trkpt>
      <trkpt lat="43.42951" lon="6.52299">
        <ele>36.5</ele>
        <time>2022-01-05T14:46:41.000Z</time>
      </trkpt>
      <trkpt lat="43.42955" lon="6.52295">
        <ele>36.5</ele>
        <time>2022-01-05T14:46:44.000Z</time>
      </trkpt>
      <trkpt lat="43.4296" lon="6.52292">
        <ele>36.5</ele>
        <time>2022-01-05T14:46:48.000Z</time>
      </trkpt>
      <trkpt lat="43.42964" lon="6.52288">
        <ele>36.4</ele>
        <time>2022-01-05T14:46:52.000Z</time>
      </trkpt>
      <trkpt lat="43.42968" lon="6.52285">
        <ele>36.4</ele>
        <time>2022-01-05T14:46:57.000Z</time>
      </trkpt>
      <trkpt lat="43.42971" lon="6.5228">
        <ele>36.4</ele>
        <time>2022-01-05T14:46:59.000Z</time>
      </trkpt>
      <trkpt lat="43.42974" lon="6.52275">
        <ele>36.3</ele>
        <time>2022-01-05T14:47:02.000Z</time>
      </trkpt>
      <trkpt lat="43.42977" lon="6.52268">
        <ele>36.3</ele>
        <time>2022-01-05T14:47:05.000Z</time>
      </trkpt>
      <trkpt lat="43.4298" lon="6.52261">
        <ele>36.2</ele>
        <time>2022-01-05T14:47:08.000Z</time>
      </trkpt>
      <trkpt lat="43.42983" lon="6.52255">
        <ele>36.2</ele>
        <time>2022-01-05T14:47:11.000Z</time>
      </trkpt>
      <trkpt lat="43.42986" lon="6.52248">
        <ele>36.1</ele>
        <time>2022-01-05T14:47:15.000Z</time>
      </trkpt>
      <trkpt lat="43.42988" lon="6.5224">
        <ele>36</ele>
        <time>2022-01-05T14:47:19.000Z</time>
      </trkpt>
      <trkpt lat="43.42989" lon="6.52233">
        <ele>35.9</ele>
        <time>2022-01-05T14:47:23.000Z</time>
      </trkpt>
      <trkpt lat="43.42989" lon="6.52226">
        <ele>35.8</ele>
        <time>2022-01-05T14:47:26.000Z</time>
      </trkpt>
      <trkpt lat="43.42991" lon="6.5222">
        <ele>35.7</ele>
        <time>2022-01-05T14:47:29.000Z</time>
      </trkpt>
      <trkpt lat="43.42995" lon="6.52214">
        <ele>35.6</ele>
        <time>2022-01-05T14:47:32.000Z</time>
      </trkpt>
      <trkpt lat="43.42997" lon="6.52206">
        <ele>35.5</ele>
        <time>2022-01-05T14:47:36.000Z</time>
      </trkpt>
      <trkpt lat="43.42996" lon="6.52199">
        <ele>35.4</ele>
        <time>2022-01-05T14:47:40.000Z</time>
      </trkpt>
      <trkpt lat="43.42993" lon="6.52192">
        <ele>35.3</ele>
        <time>2022-01-05T14:47:45.000Z</time>
      </trkpt>
      <trkpt lat="43.42988" lon="6.5219">
        <ele>35.4</ele>
        <time>2022-01-05T14:47:48.000Z</time>
      </trkpt>
      <trkpt lat="43.42984" lon="6.52184">
        <ele>35.4</ele>
        <time>2022-01-05T14:47:51.000Z</time>
      </trkpt>
      <trkpt lat="43.42981" lon="6.52178">
        <ele>35.4</ele>
        <time>2022-01-05T14:47:55.000Z</time>
      </trkpt>
      <trkpt lat="43.42977" lon="6.52172">
        <ele>35.1</ele>
        <time>2022-01-05T14:47:59.000Z</time>
      </trkpt>
      <trkpt lat="43.42975" lon="6.52166">
        <ele>35</ele>
        <time>2022-01-05T14:48:02.000Z</time>
      </trkpt>
      <trkpt lat="43.42975" lon="6.52159">
        <ele>34.8</ele>
        <time>2022-01-05T14:48:06.000Z</time>
      </trkpt>
      <trkpt lat="43.42976" lon="6.52151">
        <ele>34.7</ele>
        <time>2022-01-05T14:48:10.000Z</time>
      </trkpt>
      <trkpt lat="43.42976" lon="6.52144">
        <ele>34.8</ele>
        <time>2022-01-05T14:48:14.000Z</time>
      </trkpt>
      <trkpt lat="43.42974" lon="6.52137">
        <ele>34.8</ele>
        <time>2022-01-05T14:48:19.000Z</time>
      </trkpt>
      <trkpt lat="43.42971" lon="6.52131">
        <ele>34.8</ele>
        <time>2022-01-05T14:48:23.000Z</time>
      </trkpt>
      <trkpt lat="43.42968" lon="6.52125">
        <ele>34.9</ele>
        <time>2022-01-05T14:48:27.000Z</time>
      </trkpt>
      <trkpt lat="43.42965" lon="6.52119">
        <ele>34.8</ele>
        <time>2022-01-05T14:48:31.000Z</time>
      </trkpt>
      <trkpt lat="43.42965" lon="6.52112">
        <ele>34.7</ele>
        <time>2022-01-05T14:48:35.000Z</time>
      </trkpt>
      <trkpt lat="43.42964" lon="6.52105">
        <ele>34.6</ele>
        <time>2022-01-05T14:48:39.000Z</time>
      </trkpt>
      <trkpt lat="43.42962" lon="6.52099">
        <ele>34.6</ele>
        <time>2022-01-05T14:48:43.000Z</time>
      </trkpt>
      <trkpt lat="43.42959" lon="6.52092">
        <ele>34.7</ele>
        <time>2022-01-05T14:48:48.000Z</time>
      </trkpt>
      <trkpt lat="43.4296" lon="6.52085">
        <ele>34.7</ele>
        <time>2022-01-05T14:48:51.000Z</time>
      </trkpt>
      <trkpt lat="43.42957" lon="6.52079">
        <ele>34.5</ele>
        <time>2022-01-05T14:48:55.000Z</time>
      </trkpt>
      <trkpt lat="43.42954" lon="6.52074">
        <ele>34.4</ele>
        <time>2022-01-05T14:48:58.000Z</time>
      </trkpt>
      <trkpt lat="43.42952" lon="6.52067">
        <ele>34.3</ele>
        <time>2022-01-05T14:49:02.000Z</time>
      </trkpt>
      <trkpt lat="43.42949" lon="6.52061">
        <ele>34.3</ele>
        <time>2022-01-05T14:49:06.000Z</time>
      </trkpt>
      <trkpt lat="43.42946" lon="6.52056">
        <ele>34.4</ele>
        <time>2022-01-05T14:49:10.000Z</time>
      </trkpt>
      <trkpt lat="43.42944" lon="6.5205">
        <ele>34.4</ele>
        <time>2022-01-05T14:49:14.000Z</time>
      </trkpt>
      <trkpt lat="43.42942" lon="6.52045">
        <ele>34.4</ele>
        <time>2022-01-05T14:49:17.000Z</time>
      </trkpt>
      <trkpt lat="43.4294" lon="6.52039">
        <ele>34.3</ele>
        <time>2022-01-05T14:49:21.000Z</time>
      </trkpt>
      <trkpt lat="43.42938" lon="6.52033">
        <ele>34.3</ele>
        <time>2022-01-05T14:49:25.000Z</time>
      </trkpt>
      <trkpt lat="43.42935" lon="6.52027">
        <ele>34.3</ele>
        <time>2022-01-05T14:49:29.000Z</time>
      </trkpt>
      <trkpt lat="43.42934" lon="6.52021">
        <ele>34.3</ele>
        <time>2022-01-05T14:49:33.000Z</time>
      </trkpt>
      <trkpt lat="43.42935" lon="6.52014">
        <ele>34.2</ele>
        <time>2022-01-05T14:49:36.000Z</time>
      </trkpt>
      <trkpt lat="43.42933" lon="6.52007">
        <ele>34</ele>
        <time>2022-01-05T14:49:40.000Z</time>
      </trkpt>
      <trkpt lat="43.42932" lon="6.51999">
        <ele>33.8</ele>
        <time>2022-01-05T14:49:45.000Z</time>
      </trkpt>
      <trkpt lat="43.4293" lon="6.51992">
        <ele>33.7</ele>
        <time>2022-01-05T14:49:49.000Z</time>
      </trkpt>
      <trkpt lat="43.42928" lon="6.51985">
        <ele>33.7</ele>
        <time>2022-01-05T14:49:54.000Z</time>
      </trkpt>
      <trkpt lat="43.42925" lon="6.51979">
        <ele>33.9</ele>
        <time>2022-01-05T14:49:58.000Z</time>
      </trkpt>
      <trkpt lat="43.42922" lon="6.51973">
        <ele>34.2</ele>
        <time>2022-01-05T14:50:03.000Z</time>
      </trkpt>
      <trkpt lat="43.4292" lon="6.51967">
        <ele>34.4</ele>
        <time>2022-01-05T14:50:07.000Z</time>
      </trkpt>
      <trkpt lat="43.42917" lon="6.51962">
        <ele>34.6</ele>
        <time>2022-01-05T14:50:10.000Z</time>
      </trkpt>
      <trkpt lat="43.42916" lon="6.51955">
        <ele>34.5</ele>
        <time>2022-01-05T14:50:14.000Z</time>
      </trkpt>
      <trkpt lat="43.42913" lon="6.51949">
        <ele>34.6</ele>
        <time>2022-01-05T14:50:18.000Z</time>
      </trkpt>
      <trkpt lat="43.42911" lon="6.51943">
        <ele>34.9</ele>
        <time>2022-01-05T14:50:23.000Z</time>
      </trkpt>
      <trkpt lat="43.4291" lon="6.51936">
        <ele>35.4</ele>
        <time>2022-01-05T14:50:28.000Z</time>
      </trkpt>
      <trkpt lat="43.42909" lon="6.51931">
        <ele>36</ele>
        <time>2022-01-05T14:50:32.000Z</time>
      </trkpt>
      <trkpt lat="43.42907" lon="6.51924">
        <ele>36.8</ele>
        <time>2022-01-05T14:50:37.000Z</time>
      </trkpt>
      <trkpt lat="43.42905" lon="6.51918">
        <ele>37.3</ele>
        <time>2022-01-05T14:50:41.000Z</time>
      </trkpt>
      <trkpt lat="43.42901" lon="6.51913">
        <ele>37.7</ele>
        <time>2022-01-05T14:50:45.000Z</time>
      </trkpt>
      <trkpt lat="43.42899" lon="6.51908">
        <ele>38</ele>
        <time>2022-01-05T14:50:50.000Z</time>
      </trkpt>
      <trkpt lat="43.42895" lon="6.51902">
        <ele>38.3</ele>
        <time>2022-01-05T14:50:54.000Z</time>
      </trkpt>
      <trkpt lat="43.42893" lon="6.51897">
        <ele>38.7</ele>
        <time>2022-01-05T14:50:58.000Z</time>
      </trkpt>
      <trkpt lat="43.42891" lon="6.51891">
        <ele>39</ele>
        <time>2022-01-05T14:51:03.000Z</time>
      </trkpt>
      <trkpt lat="43.42891" lon="6.51884">
        <ele>39.2</ele>
        <time>2022-01-05T14:51:07.000Z</time>
      </trkpt>
      <trkpt lat="43.42891" lon="6.51878">
        <ele>39.3</ele>
        <time>2022-01-05T14:51:11.000Z</time>
      </trkpt>
      <trkpt lat="43.4289" lon="6.51871">
        <ele>39.4</ele>
        <time>2022-01-05T14:51:15.000Z</time>
      </trkpt>
      <trkpt lat="43.42889" lon="6.51865">
        <ele>39.6</ele>
        <time>2022-01-05T14:51:19.000Z</time>
      </trkpt>
      <trkpt lat="43.42888" lon="6.51859">
        <ele>39.8</ele>
        <time>2022-01-05T14:51:23.000Z</time>
      </trkpt>
      <trkpt lat="43.42886" lon="6.51852">
        <ele>39.9</ele>
        <time>2022-01-05T14:51:28.000Z</time>
      </trkpt>
      <trkpt lat="43.42885" lon="6.51844">
        <ele>40.1</ele>
        <time>2022-01-05T14:51:34.000Z</time>
      </trkpt>
      <trkpt lat="43.42883" lon="6.51838">
        <ele>40.2</ele>
        <time>2022-01-05T14:51:38.000Z</time>
      </trkpt>
      <trkpt lat="43.42883" lon="6.51831">
        <ele>40.4</ele>
        <time>2022-01-05T14:51:42.000Z</time>
      </trkpt>
      <trkpt lat="43.42883" lon="6.51825">
        <ele>40.5</ele>
        <time>2022-01-05T14:51:46.000Z</time>
      </trkpt>
      <trkpt lat="43.42882" lon="6.51818">
        <ele>40.6</ele>
        <time>2022-01-05T14:51:50.000Z</time>
      </trkpt>
      <trkpt lat="43.42881" lon="6.51812">
        <ele>40.6</ele>
        <time>2022-01-05T14:51:54.000Z</time>
      </trkpt>
      <trkpt lat="43.4288" lon="6.51805">
        <ele>40.6</ele>
        <time>2022-01-05T14:51:58.000Z</time>
      </trkpt>
      <trkpt lat="43.4288" lon="6.51797">
        <ele>40.6</ele>
        <time>2022-01-05T14:52:03.000Z</time>
      </trkpt>
      <trkpt lat="43.4288" lon="6.5179">
        <ele>40.6</ele>
        <time>2022-01-05T14:52:07.000Z</time>
      </trkpt>
      <trkpt lat="43.42879" lon="6.51783">
        <ele>40.5</ele>
        <time>2022-01-05T14:52:11.000Z</time>
      </trkpt>
      <trkpt lat="43.42879" lon="6.51775">
        <ele>40.5</ele>
        <time>2022-01-05T14:52:15.000Z</time>
      </trkpt>
      <trkpt lat="43.42879" lon="6.51767">
        <ele>40.2</ele>
        <time>2022-01-05T14:52:20.000Z</time>
      </trkpt>
      <trkpt lat="43.4288" lon="6.5176">
        <ele>39.9</ele>
        <time>2022-01-05T14:52:24.000Z</time>
      </trkpt>
      <trkpt lat="43.42875" lon="6.51754">
        <ele>39.8</ele>
        <time>2022-01-05T14:52:28.000Z</time>
      </trkpt>
      <trkpt lat="43.42871" lon="6.51749">
        <ele>39.7</ele>
        <time>2022-01-05T14:52:32.000Z</time>
      </trkpt>
      <trkpt lat="43.42867" lon="6.51744">
        <ele>39.7</ele>
        <time>2022-01-05T14:52:36.000Z</time>
      </trkpt>
      <trkpt lat="43.42869" lon="6.51738">
        <ele>39.8</ele>
        <time>2022-01-05T14:52:40.000Z</time>
      </trkpt>
      <trkpt lat="43.42871" lon="6.51731">
        <ele>39.9</ele>
        <time>2022-01-05T14:52:44.000Z</time>
      </trkpt>
      <trkpt lat="43.42874" lon="6.51725">
        <ele>39.8</ele>
        <time>2022-01-05T14:52:47.000Z</time>
      </trkpt>
      <trkpt lat="43.42877" lon="6.51718">
        <ele>39.7</ele>
        <time>2022-01-05T14:52:50.000Z</time>
      </trkpt>
      <trkpt lat="43.42878" lon="6.51711">
        <ele>39.7</ele>
        <time>2022-01-05T14:52:54.000Z</time>
      </trkpt>
      <trkpt lat="43.42877" lon="6.51704">
        <ele>39.7</ele>
        <time>2022-01-05T14:52:58.000Z</time>
      </trkpt>
      <trkpt lat="43.42877" lon="6.51697">
        <ele>39.7</ele>
        <time>2022-01-05T14:53:02.000Z</time>
      </trkpt>
      <trkpt lat="43.42877" lon="6.5169">
        <ele>39.8</ele>
        <time>2022-01-05T14:53:06.000Z</time>
      </trkpt>
      <trkpt lat="43.42875" lon="6.51682">
        <ele>39.8</ele>
        <time>2022-01-05T14:53:11.000Z</time>
      </trkpt>
      <trkpt lat="43.42874" lon="6.51676">
        <ele>39.9</ele>
        <time>2022-01-05T14:53:16.000Z</time>
      </trkpt>
      <trkpt lat="43.42874" lon="6.51669">
        <ele>40</ele>
        <time>2022-01-05T14:53:21.000Z</time>
      </trkpt>
      <trkpt lat="43.42873" lon="6.51663">
        <ele>40</ele>
        <time>2022-01-05T14:53:25.000Z</time>
      </trkpt>
      <trkpt lat="43.42871" lon="6.51656">
        <ele>40</ele>
        <time>2022-01-05T14:53:29.000Z</time>
      </trkpt>
      <trkpt lat="43.42866" lon="6.5165">
        <ele>39.9</ele>
        <time>2022-01-05T14:53:33.000Z</time>
      </trkpt>
      <trkpt lat="43.42862" lon="6.51645">
        <ele>40</ele>
        <time>2022-01-05T14:53:36.000Z</time>
      </trkpt>
      <trkpt lat="43.42857" lon="6.51641">
        <ele>40.1</ele>
        <time>2022-01-05T14:53:39.000Z</time>
      </trkpt>
      <trkpt lat="43.42853" lon="6.51635">
        <ele>40.3</ele>
        <time>2022-01-05T14:53:43.000Z</time>
      </trkpt>
      <trkpt lat="43.42853" lon="6.51628">
        <ele>40.7</ele>
        <time>2022-01-05T14:53:48.000Z</time>
      </trkpt>
      <trkpt lat="43.42857" lon="6.51622">
        <ele>40.9</ele>
        <time>2022-01-05T14:53:53.000Z</time>
      </trkpt>
      <trkpt lat="43.42861" lon="6.51617">
        <ele>41</ele>
        <time>2022-01-05T14:53:56.000Z</time>
      </trkpt>
      <trkpt lat="43.42865" lon="6.51612">
        <ele>41.2</ele>
        <time>2022-01-05T14:54:01.000Z</time>
      </trkpt>
      <trkpt lat="43.42869" lon="6.51608">
        <ele>41.2</ele>
        <time>2022-01-05T14:54:05.000Z</time>
      </trkpt>
      <trkpt lat="43.42873" lon="6.51605">
        <ele>41.1</ele>
        <time>2022-01-05T14:54:08.000Z</time>
      </trkpt>
      <trkpt lat="43.42877" lon="6.51601">
        <ele>41</ele>
        <time>2022-01-05T14:54:11.000Z</time>
      </trkpt>
      <trkpt lat="43.42878" lon="6.51594">
        <ele>41.1</ele>
        <time>2022-01-05T14:54:16.000Z</time>
      </trkpt>
      <trkpt lat="43.4288" lon="6.51587">
        <ele>41.4</ele>
        <time>2022-01-05T14:54:22.000Z</time>
      </trkpt>
      <trkpt lat="43.42882" lon="6.51582">
        <ele>41.8</ele>
        <time>2022-01-05T14:54:26.000Z</time>
      </trkpt>
      <trkpt lat="43.42882" lon="6.51575">
        <ele>42.3</ele>
        <time>2022-01-05T14:54:32.000Z</time>
      </trkpt>
      <trkpt lat="43.42884" lon="6.51568">
        <ele>42.6</ele>
        <time>2022-01-05T14:54:39.000Z</time>
      </trkpt>
      <trkpt lat="43.42885" lon="6.51561">
        <ele>42.8</ele>
        <time>2022-01-05T14:54:46.000Z</time>
      </trkpt>
      <trkpt lat="43.42889" lon="6.51556">
        <ele>43.1</ele>
        <time>2022-01-05T14:54:50.000Z</time>
      </trkpt>
      <trkpt lat="43.42892" lon="6.51551">
        <ele>43.2</ele>
        <time>2022-01-05T14:54:53.000Z</time>
      </trkpt>
      <trkpt lat="43.42897" lon="6.51546">
        <ele>43.4</ele>
        <time>2022-01-05T14:54:56.000Z</time>
      </trkpt>
      <trkpt lat="43.429" lon="6.51541">
        <ele>43.6</ele>
        <time>2022-01-05T14:54:59.000Z</time>
      </trkpt>
      <trkpt lat="43.42903" lon="6.51535">
        <ele>43.8</ele>
        <time>2022-01-05T14:55:02.000Z</time>
      </trkpt>
      <trkpt lat="43.42906" lon="6.51529">
        <ele>43.9</ele>
        <time>2022-01-05T14:55:05.000Z</time>
      </trkpt>
      <trkpt lat="43.42906" lon="6.51521">
        <ele>44.2</ele>
        <time>2022-01-05T14:55:10.000Z</time>
      </trkpt>
      <trkpt lat="43.42907" lon="6.51514">
        <ele>44.5</ele>
        <time>2022-01-05T14:55:15.000Z</time>
      </trkpt>
      <trkpt lat="43.42908" lon="6.51508">
        <ele>44.8</ele>
        <time>2022-01-05T14:55:19.000Z</time>
      </trkpt>
      <trkpt lat="43.42907" lon="6.515">
        <ele>45.1</ele>
        <time>2022-01-05T14:55:23.000Z</time>
      </trkpt>
      <trkpt lat="43.42907" lon="6.51494">
        <ele>45.4</ele>
        <time>2022-01-05T14:55:28.000Z</time>
      </trkpt>
      <trkpt lat="43.42905" lon="6.51487">
        <ele>45.7</ele>
        <time>2022-01-05T14:55:33.000Z</time>
      </trkpt>
      <trkpt lat="43.42905" lon="6.5148">
        <ele>45.8</ele>
        <time>2022-01-05T14:55:36.000Z</time>
      </trkpt>
      <trkpt lat="43.42906" lon="6.51472">
        <ele>45.9</ele>
        <time>2022-01-05T14:55:40.000Z</time>
      </trkpt>
      <trkpt lat="43.42907" lon="6.51465">
        <ele>46.1</ele>
        <time>2022-01-05T14:55:44.000Z</time>
      </trkpt>
      <trkpt lat="43.42908" lon="6.51457">
        <ele>46.4</ele>
        <time>2022-01-05T14:55:48.000Z</time>
      </trkpt>
      <trkpt lat="43.42908" lon="6.51448">
        <ele>47</ele>
        <time>2022-01-05T14:55:54.000Z</time>
      </trkpt>
      <trkpt lat="43.42909" lon="6.51441">
        <ele>47.4</ele>
        <time>2022-01-05T14:56:00.000Z</time>
      </trkpt>
      <trkpt lat="43.42908" lon="6.51435">
        <ele>47.6</ele>
        <time>2022-01-05T14:56:04.000Z</time>
      </trkpt>
      <trkpt lat="43.42909" lon="6.51428">
        <ele>47.8</ele>
        <time>2022-01-05T14:56:09.000Z</time>
      </trkpt>
      <trkpt lat="43.42904" lon="6.51423">
        <ele>47.9</ele>
        <time>2022-01-05T14:56:12.000Z</time>
      </trkpt>
      <trkpt lat="43.42903" lon="6.51416">
        <ele>48</ele>
        <time>2022-01-05T14:56:16.000Z</time>
      </trkpt>
      <trkpt lat="43.42906" lon="6.51409">
        <ele>48.1</ele>
        <time>2022-01-05T14:56:20.000Z</time>
      </trkpt>
      <trkpt lat="43.42909" lon="6.514">
        <ele>48.2</ele>
        <time>2022-01-05T14:56:24.000Z</time>
      </trkpt>
      <trkpt lat="43.42912" lon="6.51395">
        <ele>48.2</ele>
        <time>2022-01-05T14:56:27.000Z</time>
      </trkpt>
      <trkpt lat="43.42915" lon="6.51388">
        <ele>48.2</ele>
        <time>2022-01-05T14:56:31.000Z</time>
      </trkpt>
      <trkpt lat="43.42917" lon="6.51382">
        <ele>48.2</ele>
        <time>2022-01-05T14:56:34.000Z</time>
      </trkpt>
      <trkpt lat="43.4292" lon="6.51375">
        <ele>48.2</ele>
        <time>2022-01-05T14:56:39.000Z</time>
      </trkpt>
      <trkpt lat="43.4292" lon="6.51368">
        <ele>48.1</ele>
        <time>2022-01-05T14:56:45.000Z</time>
      </trkpt>
      <trkpt lat="43.42917" lon="6.51363">
        <ele>48.1</ele>
        <time>2022-01-05T14:56:52.000Z</time>
      </trkpt>
      <trkpt lat="43.4292" lon="6.51358">
        <ele>48</ele>
        <time>2022-01-05T14:56:55.000Z</time>
      </trkpt>
      <trkpt lat="43.42924" lon="6.51351">
        <ele>48.1</ele>
        <time>2022-01-05T14:56:59.000Z</time>
      </trkpt>
      <trkpt lat="43.42928" lon="6.51346">
        <ele>48.2</ele>
        <time>2022-01-05T14:57:02.000Z</time>
      </trkpt>
      <trkpt lat="43.42932" lon="6.51339">
        <ele>48.4</ele>
        <time>2022-01-05T14:57:06.000Z</time>
      </trkpt>
      <trkpt lat="43.42935" lon="6.51334">
        <ele>48.5</ele>
        <time>2022-01-05T14:57:09.000Z</time>
      </trkpt>
      <trkpt lat="43.42938" lon="6.51328">
        <ele>48.6</ele>
        <time>2022-01-05T14:57:12.000Z</time>
      </trkpt>
      <trkpt lat="43.42938" lon="6.5132">
        <ele>48.7</ele>
        <time>2022-01-05T14:57:16.000Z</time>
      </trkpt>
      <trkpt lat="43.42938" lon="6.51313">
        <ele>48.7</ele>
        <time>2022-01-05T14:57:20.000Z</time>
      </trkpt>
      <trkpt lat="43.42939" lon="6.51307">
        <ele>48.9</ele>
        <time>2022-01-05T14:57:24.000Z</time>
      </trkpt>
      <trkpt lat="43.42942" lon="6.51301">
        <ele>49.1</ele>
        <time>2022-01-05T14:57:28.000Z</time>
      </trkpt>
      <trkpt lat="43.42945" lon="6.51295">
        <ele>49.4</ele>
        <time>2022-01-05T14:57:32.000Z</time>
      </trkpt>
      <trkpt lat="43.42949" lon="6.51291">
        <ele>49.7</ele>
        <time>2022-01-05T14:57:35.000Z</time>
      </trkpt>
      <trkpt lat="43.42954" lon="6.51285">
        <ele>49.9</ele>
        <time>2022-01-05T14:57:39.000Z</time>
      </trkpt>
      <trkpt lat="43.42956" lon="6.51278">
        <ele>50.1</ele>
        <time>2022-01-05T14:57:43.000Z</time>
      </trkpt>
      <trkpt lat="43.42958" lon="6.51271">
        <ele>50.3</ele>
        <time>2022-01-05T14:57:47.000Z</time>
      </trkpt>
      <trkpt lat="43.42958" lon="6.51264">
        <ele>50.4</ele>
        <time>2022-01-05T14:57:52.000Z</time>
      </trkpt>
      <trkpt lat="43.42959" lon="6.51258">
        <ele>50.4</ele>
        <time>2022-01-05T14:57:56.000Z</time>
      </trkpt>
      <trkpt lat="43.42959" lon="6.5125">
        <ele>50.3</ele>
        <time>2022-01-05T14:58:01.000Z</time>
      </trkpt>
      <trkpt lat="43.4296" lon="6.51244">
        <ele>50.2</ele>
        <time>2022-01-05T14:58:05.000Z</time>
      </trkpt>
      <trkpt lat="43.4296" lon="6.51238">
        <ele>50.2</ele>
        <time>2022-01-05T14:58:09.000Z</time>
      </trkpt>
      <trkpt lat="43.4296" lon="6.51231">
        <ele>50.2</ele>
        <time>2022-01-05T14:58:13.000Z</time>
      </trkpt>
      <trkpt lat="43.42961" lon="6.51225">
        <ele>50.2</ele>
        <time>2022-01-05T14:58:17.000Z</time>
      </trkpt>
      <trkpt lat="43.42964" lon="6.51219">
        <ele>50.2</ele>
        <time>2022-01-05T14:58:21.000Z</time>
      </trkpt>
      <trkpt lat="43.42968" lon="6.51215">
        <ele>50.2</ele>
        <time>2022-01-05T14:58:24.000Z</time>
      </trkpt>
      <trkpt lat="43.42973" lon="6.51211">
        <ele>50.2</ele>
        <time>2022-01-05T14:58:27.000Z</time>
      </trkpt>
      <trkpt lat="43.42976" lon="6.51207">
        <ele>50.2</ele>
        <time>2022-01-05T14:58:30.000Z</time>
      </trkpt>
      <trkpt lat="43.42979" lon="6.51201">
        <ele>50.1</ele>
        <time>2022-01-05T14:58:36.000Z</time>
      </trkpt>
      <trkpt lat="43.4298" lon="6.51195">
        <ele>50.2</ele>
        <time>2022-01-05T14:58:41.000Z</time>
      </trkpt>
      <trkpt lat="43.42982" lon="6.51188">
        <ele>50.2</ele>
        <time>2022-01-05T14:58:45.000Z</time>
      </trkpt>
      <trkpt lat="43.42982" lon="6.51182">
        <ele>50.3</ele>
        <time>2022-01-05T14:58:49.000Z</time>
      </trkpt>
      <trkpt lat="43.42983" lon="6.51174">
        <ele>50.3</ele>
        <time>2022-01-05T14:58:53.000Z</time>
      </trkpt>
      <trkpt lat="43.42987" lon="6.51168">
        <ele>50.3</ele>
        <time>2022-01-05T14:58:56.000Z</time>
      </trkpt>
      <trkpt lat="43.42991" lon="6.51163">
        <ele>50.3</ele>
        <time>2022-01-05T14:58:59.000Z</time>
      </trkpt>
      <trkpt lat="43.42991" lon="6.51157">
        <ele>50.2</ele>
        <time>2022-01-05T14:59:03.000Z</time>
      </trkpt>
      <trkpt lat="43.42992" lon="6.51151">
        <ele>50.1</ele>
        <time>2022-01-05T14:59:07.000Z</time>
      </trkpt>
      <trkpt lat="43.42994" lon="6.51144">
        <ele>49.9</ele>
        <time>2022-01-05T14:59:11.000Z</time>
      </trkpt>
      <trkpt lat="43.42992" lon="6.51138">
        <ele>49.7</ele>
        <time>2022-01-05T14:59:15.000Z</time>
      </trkpt>
      <trkpt lat="43.42993" lon="6.51131">
        <ele>49.5</ele>
        <time>2022-01-05T14:59:19.000Z</time>
      </trkpt>
      <trkpt lat="43.42995" lon="6.51125">
        <ele>49.3</ele>
        <time>2022-01-05T14:59:23.000Z</time>
      </trkpt>
      <trkpt lat="43.42994" lon="6.51117">
        <ele>49.1</ele>
        <time>2022-01-05T14:59:27.000Z</time>
      </trkpt>
      <trkpt lat="43.42996" lon="6.51111">
        <ele>48.9</ele>
        <time>2022-01-05T14:59:33.000Z</time>
      </trkpt>
      <trkpt lat="43.43" lon="6.51107">
        <ele>48.8</ele>
        <time>2022-01-05T14:59:40.000Z</time>
      </trkpt>
      <trkpt lat="43.43003" lon="6.51114">
        <ele>48.7</ele>
        <time>2022-01-05T14:59:46.000Z</time>
      </trkpt>
      <trkpt lat="43.43006" lon="6.51119">
        <ele>48.7</ele>
        <time>2022-01-05T14:59:49.000Z</time>
      </trkpt>
      <trkpt lat="43.43011" lon="6.51123">
        <ele>48.7</ele>
        <time>2022-01-05T14:59:53.000Z</time>
      </trkpt>
      <trkpt lat="43.43014" lon="6.51128">
        <ele>48.7</ele>
        <time>2022-01-05T14:59:57.000Z</time>
      </trkpt>
      <trkpt lat="43.43017" lon="6.51133">
        <ele>48.8</ele>
        <time>2022-01-05T15:00:06.000Z</time>
      </trkpt>
      <trkpt lat="43.43021" lon="6.51138">
        <ele>48.9</ele>
        <time>2022-01-05T15:00:14.000Z</time>
      </trkpt>
      <trkpt lat="43.43025" lon="6.51139">
        <ele>49</ele>
        <time>2022-01-05T15:00:17.000Z</time>
      </trkpt>
      <trkpt lat="43.43031" lon="6.51138">
        <ele>49.1</ele>
        <time>2022-01-05T15:00:20.000Z</time>
      </trkpt>
      <trkpt lat="43.43037" lon="6.51137">
        <ele>49.2</ele>
        <time>2022-01-05T15:00:23.000Z</time>
      </trkpt>
      <trkpt lat="43.43041" lon="6.51137">
        <ele>49.3</ele>
        <time>2022-01-05T15:00:25.000Z</time>
      </trkpt>
      <trkpt lat="43.43047" lon="6.51137">
        <ele>49.3</ele>
        <time>2022-01-05T15:00:27.000Z</time>
      </trkpt>
      <trkpt lat="43.43052" lon="6.51136">
        <ele>49.4</ele>
        <time>2022-01-05T15:00:30.000Z</time>
      </trkpt>
      <trkpt lat="43.43057" lon="6.51136">
        <ele>49.5</ele>
        <time>2022-01-05T15:00:32.000Z</time>
      </trkpt>
      <trkpt lat="43.43062" lon="6.51135">
        <ele>49.5</ele>
        <time>2022-01-05T15:00:34.000Z</time>
      </trkpt>
      <trkpt lat="43.43067" lon="6.51135">
        <ele>49.5</ele>
        <time>2022-01-05T15:00:36.000Z</time>
      </trkpt>
      <trkpt lat="43.43074" lon="6.51133">
        <ele>49.6</ele>
        <time>2022-01-05T15:00:39.000Z</time>
      </trkpt>
      <trkpt lat="43.43079" lon="6.51131">
        <ele>49.6</ele>
        <time>2022-01-05T15:00:41.000Z</time>
      </trkpt>
      <trkpt lat="43.43084" lon="6.5113">
        <ele>49.6</ele>
        <time>2022-01-05T15:00:44.000Z</time>
      </trkpt>
      <trkpt lat="43.43089" lon="6.51129">
        <ele>49.7</ele>
        <time>2022-01-05T15:00:47.000Z</time>
      </trkpt>
      <trkpt lat="43.43093" lon="6.51128">
        <ele>49.9</ele>
        <time>2022-01-05T15:00:50.000Z</time>
      </trkpt>
      <trkpt lat="43.43099" lon="6.51126">
        <ele>49.9</ele>
        <time>2022-01-05T15:00:55.000Z</time>
      </trkpt>
      <trkpt lat="43.43103" lon="6.51124">
        <ele>49.8</ele>
        <time>2022-01-05T15:00:57.000Z</time>
      </trkpt>
      <trkpt lat="43.43109" lon="6.51122">
        <ele>49.7</ele>
        <time>2022-01-05T15:01:01.000Z</time>
      </trkpt>
      <trkpt lat="43.43113" lon="6.51119">
        <ele>49.3</ele>
        <time>2022-01-05T15:01:07.000Z</time>
      </trkpt>
      <trkpt lat="43.43116" lon="6.51114">
        <ele>48.8</ele>
        <time>2022-01-05T15:01:14.000Z</time>
      </trkpt>
      <trkpt lat="43.43121" lon="6.51111">
        <ele>48.5</ele>
        <time>2022-01-05T15:01:18.000Z</time>
      </trkpt>
      <trkpt lat="43.43126" lon="6.51108">
        <ele>48.3</ele>
        <time>2022-01-05T15:01:22.000Z</time>
      </trkpt>
      <trkpt lat="43.43132" lon="6.51104">
        <ele>48.2</ele>
        <time>2022-01-05T15:01:25.000Z</time>
      </trkpt>
      <trkpt lat="43.43136" lon="6.51101">
        <ele>48</ele>
        <time>2022-01-05T15:01:28.000Z</time>
      </trkpt>
      <trkpt lat="43.4314" lon="6.51097">
        <ele>47.7</ele>
        <time>2022-01-05T15:01:32.000Z</time>
      </trkpt>
      <trkpt lat="43.43145" lon="6.51094">
        <ele>47.5</ele>
        <time>2022-01-05T15:01:35.000Z</time>
      </trkpt>
      <trkpt lat="43.4315" lon="6.51092">
        <ele>47.1</ele>
        <time>2022-01-05T15:01:39.000Z</time>
      </trkpt>
      <trkpt lat="43.43154" lon="6.51087">
        <ele>46.6</ele>
        <time>2022-01-05T15:01:43.000Z</time>
      </trkpt>
      <trkpt lat="43.43157" lon="6.5108">
        <ele>46.2</ele>
        <time>2022-01-05T15:01:47.000Z</time>
      </trkpt>
      <trkpt lat="43.43158" lon="6.51073">
        <ele>45.7</ele>
        <time>2022-01-05T15:01:51.000Z</time>
      </trkpt>
      <trkpt lat="43.4316" lon="6.51066">
        <ele>45.1</ele>
        <time>2022-01-05T15:01:56.000Z</time>
      </trkpt>
      <trkpt lat="43.43162" lon="6.51057">
        <ele>44</ele>
        <time>2022-01-05T15:02:01.000Z</time>
      </trkpt>
      <trkpt lat="43.43165" lon="6.51052">
        <ele>43.8</ele>
        <time>2022-01-05T15:02:06.000Z</time>
      </trkpt>
      <trkpt lat="43.43167" lon="6.51045">
        <ele>43.3</ele>
        <time>2022-01-05T15:02:10.000Z</time>
      </trkpt>
      <trkpt lat="43.43171" lon="6.51042">
        <ele>42.6</ele>
        <time>2022-01-05T15:02:14.000Z</time>
      </trkpt>
      <trkpt lat="43.43177" lon="6.51039">
        <ele>42</ele>
        <time>2022-01-05T15:02:18.000Z</time>
      </trkpt>
      <trkpt lat="43.43182" lon="6.51039">
        <ele>41.3</ele>
        <time>2022-01-05T15:02:24.000Z</time>
      </trkpt>
      <trkpt lat="43.43187" lon="6.51041">
        <ele>40.9</ele>
        <time>2022-01-05T15:02:29.000Z</time>
      </trkpt>
      <trkpt lat="43.43192" lon="6.51043">
        <ele>40.5</ele>
        <time>2022-01-05T15:02:34.000Z</time>
      </trkpt>
      <trkpt lat="43.43197" lon="6.51042">
        <ele>40.4</ele>
        <time>2022-01-05T15:02:38.000Z</time>
      </trkpt>
      <trkpt lat="43.43202" lon="6.51042">
        <ele>40.5</ele>
        <time>2022-01-05T15:02:43.000Z</time>
      </trkpt>
      <trkpt lat="43.43207" lon="6.51043">
        <ele>40.6</ele>
        <time>2022-01-05T15:02:47.000Z</time>
      </trkpt>
      <trkpt lat="43.43212" lon="6.51043">
        <ele>40.7</ele>
        <time>2022-01-05T15:02:51.000Z</time>
      </trkpt>
      <trkpt lat="43.43218" lon="6.51043">
        <ele>40.9</ele>
        <time>2022-01-05T15:02:55.000Z</time>
      </trkpt>
      <trkpt lat="43.43223" lon="6.51042">
        <ele>41</ele>
        <time>2022-01-05T15:02:59.000Z</time>
      </trkpt>
      <trkpt lat="43.43229" lon="6.51043">
        <ele>40.9</ele>
        <time>2022-01-05T15:03:03.000Z</time>
      </trkpt>
      <trkpt lat="43.43234" lon="6.51044">
        <ele>40.9</ele>
        <time>2022-01-05T15:03:07.000Z</time>
      </trkpt>
      <trkpt lat="43.43239" lon="6.51043">
        <ele>40.8</ele>
        <time>2022-01-05T15:03:12.000Z</time>
      </trkpt>
      <trkpt lat="43.43244" lon="6.51045">
        <ele>40.7</ele>
        <time>2022-01-05T15:03:18.000Z</time>
      </trkpt>
      <trkpt lat="43.43249" lon="6.51046">
        <ele>40.6</ele>
        <time>2022-01-05T15:03:24.000Z</time>
      </trkpt>
      <trkpt lat="43.43254" lon="6.51046">
        <ele>40.6</ele>
        <time>2022-01-05T15:03:29.000Z</time>
      </trkpt>
      <trkpt lat="43.4326" lon="6.51045">
        <ele>40.5</ele>
        <time>2022-01-05T15:03:33.000Z</time>
      </trkpt>
      <trkpt lat="43.43264" lon="6.51043">
        <ele>40.6</ele>
        <time>2022-01-05T15:03:37.000Z</time>
      </trkpt>
      <trkpt lat="43.43269" lon="6.51042">
        <ele>40.6</ele>
        <time>2022-01-05T15:03:41.000Z</time>
      </trkpt>
      <trkpt lat="43.43274" lon="6.51042">
        <ele>40.7</ele>
        <time>2022-01-05T15:03:46.000Z</time>
      </trkpt>
      <trkpt lat="43.43279" lon="6.51043">
        <ele>40.7</ele>
        <time>2022-01-05T15:03:50.000Z</time>
      </trkpt>
      <trkpt lat="43.43283" lon="6.51042">
        <ele>40.7</ele>
        <time>2022-01-05T15:03:54.000Z</time>
      </trkpt>
      <trkpt lat="43.43289" lon="6.5104">
        <ele>40.7</ele>
        <time>2022-01-05T15:03:59.000Z</time>
      </trkpt>
      <trkpt lat="43.43294" lon="6.51039">
        <ele>40.8</ele>
        <time>2022-01-05T15:04:02.000Z</time>
      </trkpt>
      <trkpt lat="43.43299" lon="6.51035">
        <ele>40.8</ele>
        <time>2022-01-05T15:04:05.000Z</time>
      </trkpt>
      <trkpt lat="43.43303" lon="6.51032">
        <ele>41</ele>
        <time>2022-01-05T15:04:09.000Z</time>
      </trkpt>
      <trkpt lat="43.43308" lon="6.5103">
        <ele>41.1</ele>
        <time>2022-01-05T15:04:13.000Z</time>
      </trkpt>
      <trkpt lat="43.43313" lon="6.51029">
        <ele>41.2</ele>
        <time>2022-01-05T15:04:17.000Z</time>
      </trkpt>
      <trkpt lat="43.43318" lon="6.51027">
        <ele>41.1</ele>
        <time>2022-01-05T15:04:22.000Z</time>
      </trkpt>
      <trkpt lat="43.43322" lon="6.51024">
        <ele>41.3</ele>
        <time>2022-01-05T15:04:27.000Z</time>
      </trkpt>
      <trkpt lat="43.43327" lon="6.51021">
        <ele>41.4</ele>
        <time>2022-01-05T15:04:31.000Z</time>
      </trkpt>
      <trkpt lat="43.43332" lon="6.51023">
        <ele>41.6</ele>
        <time>2022-01-05T15:04:37.000Z</time>
      </trkpt>
      <trkpt lat="43.43337" lon="6.51022">
        <ele>41.7</ele>
        <time>2022-01-05T15:04:42.000Z</time>
      </trkpt>
      <trkpt lat="43.43342" lon="6.51023">
        <ele>41.7</ele>
        <time>2022-01-05T15:04:48.000Z</time>
      </trkpt>
      <trkpt lat="43.43346" lon="6.51026">
        <ele>41.8</ele>
        <time>2022-01-05T15:04:55.000Z</time>
      </trkpt>
      <trkpt lat="43.43351" lon="6.51027">
        <ele>41.7</ele>
        <time>2022-01-05T15:04:59.000Z</time>
      </trkpt>
      <trkpt lat="43.43356" lon="6.51028">
        <ele>41.8</ele>
        <time>2022-01-05T15:05:02.000Z</time>
      </trkpt>
      <trkpt lat="43.43361" lon="6.51027">
        <ele>41.9</ele>
        <time>2022-01-05T15:05:05.000Z</time>
      </trkpt>
      <trkpt lat="43.43367" lon="6.51027">
        <ele>42</ele>
        <time>2022-01-05T15:05:08.000Z</time>
      </trkpt>
      <trkpt lat="43.43372" lon="6.51026">
        <ele>42.1</ele>
        <time>2022-01-05T15:05:11.000Z</time>
      </trkpt>
      <trkpt lat="43.43377" lon="6.51028">
        <ele>42.3</ele>
        <time>2022-01-05T15:05:16.000Z</time>
      </trkpt>
      <trkpt lat="43.43381" lon="6.51031">
        <ele>42.4</ele>
        <time>2022-01-05T15:05:21.000Z</time>
      </trkpt>
      <trkpt lat="43.43386" lon="6.51034">
        <ele>42.5</ele>
        <time>2022-01-05T15:05:25.000Z</time>
      </trkpt>
      <trkpt lat="43.43391" lon="6.51037">
        <ele>42.5</ele>
        <time>2022-01-05T15:05:29.000Z</time>
      </trkpt>
      <trkpt lat="43.43396" lon="6.51041">
        <ele>42.6</ele>
        <time>2022-01-05T15:05:33.000Z</time>
      </trkpt>
      <trkpt lat="43.43401" lon="6.51044">
        <ele>42.7</ele>
        <time>2022-01-05T15:05:37.000Z</time>
      </trkpt>
      <trkpt lat="43.43406" lon="6.51047">
        <ele>42.9</ele>
        <time>2022-01-05T15:05:41.000Z</time>
      </trkpt>
      <trkpt lat="43.43411" lon="6.5105">
        <ele>43.1</ele>
        <time>2022-01-05T15:05:45.000Z</time>
      </trkpt>
      <trkpt lat="43.43417" lon="6.51052">
        <ele>43.3</ele>
        <time>2022-01-05T15:05:49.000Z</time>
      </trkpt>
      <trkpt lat="43.43422" lon="6.51054">
        <ele>43.6</ele>
        <time>2022-01-05T15:05:53.000Z</time>
      </trkpt>
      <trkpt lat="43.43425" lon="6.5106">
        <ele>43.9</ele>
        <time>2022-01-05T15:05:59.000Z</time>
      </trkpt>
      <trkpt lat="43.43426" lon="6.51066">
        <ele>44</ele>
        <time>2022-01-05T15:06:05.000Z</time>
      </trkpt>
      <trkpt lat="43.4343" lon="6.51064">
        <ele>43.7</ele>
        <time>2022-01-05T15:06:31.000Z</time>
      </trkpt>
      <trkpt lat="43.43435" lon="6.51065">
        <ele>43.2</ele>
        <time>2022-01-05T15:07:21.000Z</time>
      </trkpt>
      <trkpt lat="43.43432" lon="6.51071">
        <ele>43.9</ele>
        <time>2022-01-05T15:08:18.000Z</time>
      </trkpt>
      <trkpt lat="43.43428" lon="6.5107">
        <ele>43.5</ele>
        <time>2022-01-05T15:08:37.000Z</time>
      </trkpt>
      <trkpt lat="43.43432" lon="6.51073">
        <ele>43.4</ele>
        <time>2022-01-05T15:08:54.000Z</time>
      </trkpt>
      <trkpt lat="43.43436" lon="6.51077">
        <ele>43.3</ele>
        <time>2022-01-05T15:09:01.000Z</time>
      </trkpt>
      <trkpt lat="43.43437" lon="6.51071">
        <ele>43.2</ele>
        <time>2022-01-05T15:09:13.000Z</time>
      </trkpt>
      <trkpt lat="43.43434" lon="6.51065">
        <ele>42.8</ele>
        <time>2022-01-05T15:09:43.000Z</time>
      </trkpt>
    </trkseg>
  </trk>
</gpx>